<?xml version="1.0" encoding="UTF-8" standalone="no" ?>
<gpx xmlns="http://www.topografix.com/GPX/1/1" xmlns:xsi="http://www.w3.org/2001/XMLSchema-instance" xsi:schemaLocation="http://www.topografix.com/GPX/1/1 http://www.topografix.com/GPX/1/1/gpx.xsd" version="1.1" creator="VisuGPX - https://www.visugpx.com">
  <metadata>
    <name>Pic Saint-Michel (2x) - 2022-02-19 11:46:49</name>
  </metadata>
  <trk>
    <name><![CDATA[Pic Saint-Michel (2x) - 2022-02-19 11:46:49]]></name>
    <trkseg>
      <trkpt lat="45.1066" lon="5.60367">
        <ele>1359.44</ele>
        <time>2022-02-19T06:29:21Z</time>
      </trkpt>
      <trkpt lat="45.1066" lon="5.60367">
        <ele>1359.44</ele>
        <time>2022-02-19T06:29:22Z</time>
      </trkpt>
      <trkpt lat="45.10663" lon="5.60366">
        <ele>1280.61</ele>
        <time>2022-02-19T06:29:25Z</time>
      </trkpt>
      <trkpt lat="45.10664" lon="5.60366">
        <ele>1280.61</ele>
        <time>2022-02-19T06:29:26Z</time>
      </trkpt>
      <trkpt lat="45.10666" lon="5.60364">
        <ele>1279.17</ele>
        <time>2022-02-19T06:29:39Z</time>
      </trkpt>
      <trkpt lat="45.10666" lon="5.60362">
        <ele>1280.13</ele>
        <time>2022-02-19T06:29:56Z</time>
      </trkpt>
      <trkpt lat="45.10666" lon="5.60365">
        <ele>1281.57</ele>
        <time>2022-02-19T06:30:03Z</time>
      </trkpt>
      <trkpt lat="45.10669" lon="5.60364">
        <ele>1280.13</ele>
        <time>2022-02-19T06:30:26Z</time>
      </trkpt>
      <trkpt lat="45.10671" lon="5.60363">
        <ele>1279.65</ele>
        <time>2022-02-19T06:30:52Z</time>
      </trkpt>
      <trkpt lat="45.10657" lon="5.60365">
        <ele>1283.02</ele>
        <time>2022-02-19T06:31:10Z</time>
      </trkpt>
      <trkpt lat="45.10645" lon="5.60365">
        <ele>1284.46</ele>
        <time>2022-02-19T06:31:26Z</time>
      </trkpt>
      <trkpt lat="45.10632" lon="5.60368">
        <ele>1286.38</ele>
        <time>2022-02-19T06:31:42Z</time>
      </trkpt>
      <trkpt lat="45.10618" lon="5.60372">
        <ele>1288.3</ele>
        <time>2022-02-19T06:31:58Z</time>
      </trkpt>
      <trkpt lat="45.10605" lon="5.60368">
        <ele>1289.75</ele>
        <time>2022-02-19T06:32:14Z</time>
      </trkpt>
      <trkpt lat="45.1059" lon="5.60366">
        <ele>1291.67</ele>
        <time>2022-02-19T06:32:31Z</time>
      </trkpt>
      <trkpt lat="45.10578" lon="5.60363">
        <ele>1293.11</ele>
        <time>2022-02-19T06:32:47Z</time>
      </trkpt>
      <trkpt lat="45.10567" lon="5.60357">
        <ele>1295.03</ele>
        <time>2022-02-19T06:33:03Z</time>
      </trkpt>
      <trkpt lat="45.10554" lon="5.60353">
        <ele>1295.99</ele>
        <time>2022-02-19T06:33:19Z</time>
      </trkpt>
      <trkpt lat="45.10542" lon="5.60351">
        <ele>1297.44</ele>
        <time>2022-02-19T06:33:35Z</time>
      </trkpt>
      <trkpt lat="45.10531" lon="5.60347">
        <ele>1299.36</ele>
        <time>2022-02-19T06:33:53Z</time>
      </trkpt>
      <trkpt lat="45.10512" lon="5.60339">
        <ele>1301.28</ele>
        <time>2022-02-19T06:34:13Z</time>
      </trkpt>
      <trkpt lat="45.10498" lon="5.60343">
        <ele>1303.2</ele>
        <time>2022-02-19T06:34:32Z</time>
      </trkpt>
      <trkpt lat="45.10482" lon="5.60344">
        <ele>1305.13</ele>
        <time>2022-02-19T06:34:53Z</time>
      </trkpt>
      <trkpt lat="45.10466" lon="5.60345">
        <ele>1306.57</ele>
        <time>2022-02-19T06:35:07Z</time>
      </trkpt>
      <trkpt lat="45.10454" lon="5.60344">
        <ele>1307.53</ele>
        <time>2022-02-19T06:35:24Z</time>
      </trkpt>
      <trkpt lat="45.10436" lon="5.60342">
        <ele>1308.01</ele>
        <time>2022-02-19T06:35:41Z</time>
      </trkpt>
      <trkpt lat="45.10422" lon="5.60341">
        <ele>1308.49</ele>
        <time>2022-02-19T06:35:58Z</time>
      </trkpt>
      <trkpt lat="45.1041" lon="5.60337">
        <ele>1309.45</ele>
        <time>2022-02-19T06:36:17Z</time>
      </trkpt>
      <trkpt lat="45.10393" lon="5.60336">
        <ele>1311.38</ele>
        <time>2022-02-19T06:36:36Z</time>
      </trkpt>
      <trkpt lat="45.10381" lon="5.60328">
        <ele>1312.82</ele>
        <time>2022-02-19T06:36:53Z</time>
      </trkpt>
      <trkpt lat="45.1037" lon="5.6032">
        <ele>1313.78</ele>
        <time>2022-02-19T06:37:10Z</time>
      </trkpt>
      <trkpt lat="45.10359" lon="5.60316">
        <ele>1315.22</ele>
        <time>2022-02-19T06:37:28Z</time>
      </trkpt>
      <trkpt lat="45.10338" lon="5.60312">
        <ele>1316.18</ele>
        <time>2022-02-19T06:37:48Z</time>
      </trkpt>
      <trkpt lat="45.10315" lon="5.60312">
        <ele>1317.62</ele>
        <time>2022-02-19T06:38:07Z</time>
      </trkpt>
      <trkpt lat="45.10293" lon="5.60322">
        <ele>1318.59</ele>
        <time>2022-02-19T06:38:25Z</time>
      </trkpt>
      <trkpt lat="45.10284" lon="5.6032">
        <ele>1320.03</ele>
        <time>2022-02-19T06:38:44Z</time>
      </trkpt>
      <trkpt lat="45.10281" lon="5.60315">
        <ele>1321.95</ele>
        <time>2022-02-19T06:39:02Z</time>
      </trkpt>
      <trkpt lat="45.10257" lon="5.60309">
        <ele>1324.35</ele>
        <time>2022-02-19T06:39:22Z</time>
      </trkpt>
      <trkpt lat="45.10242" lon="5.60305">
        <ele>1326.28</ele>
        <time>2022-02-19T06:39:43Z</time>
      </trkpt>
      <trkpt lat="45.10224" lon="5.603">
        <ele>1329.16</ele>
        <time>2022-02-19T06:40:05Z</time>
      </trkpt>
      <trkpt lat="45.10203" lon="5.60302">
        <ele>1331.56</ele>
        <time>2022-02-19T06:40:22Z</time>
      </trkpt>
      <trkpt lat="45.10189" lon="5.60294">
        <ele>1334.45</ele>
        <time>2022-02-19T06:40:40Z</time>
      </trkpt>
      <trkpt lat="45.10179" lon="5.60301">
        <ele>1336.85</ele>
        <time>2022-02-19T06:40:58Z</time>
      </trkpt>
      <trkpt lat="45.10166" lon="5.60304">
        <ele>1340.22</ele>
        <time>2022-02-19T06:41:13Z</time>
      </trkpt>
      <trkpt lat="45.10153" lon="5.60303">
        <ele>1342.62</ele>
        <time>2022-02-19T06:41:32Z</time>
      </trkpt>
      <trkpt lat="45.10145" lon="5.60305">
        <ele>1345.5</ele>
        <time>2022-02-19T06:41:51Z</time>
      </trkpt>
      <trkpt lat="45.10128" lon="5.60304">
        <ele>1347.91</ele>
        <time>2022-02-19T06:42:10Z</time>
      </trkpt>
      <trkpt lat="45.10119" lon="5.60307">
        <ele>1349.35</ele>
        <time>2022-02-19T06:42:25Z</time>
      </trkpt>
      <trkpt lat="45.10105" lon="5.60308">
        <ele>1351.27</ele>
        <time>2022-02-19T06:42:43Z</time>
      </trkpt>
      <trkpt lat="45.10095" lon="5.60307">
        <ele>1352.71</ele>
        <time>2022-02-19T06:42:58Z</time>
      </trkpt>
      <trkpt lat="45.10083" lon="5.60304">
        <ele>1353.67</ele>
        <time>2022-02-19T06:43:15Z</time>
      </trkpt>
      <trkpt lat="45.10072" lon="5.603">
        <ele>1354.63</ele>
        <time>2022-02-19T06:43:29Z</time>
      </trkpt>
      <trkpt lat="45.10057" lon="5.60298">
        <ele>1355.6</ele>
        <time>2022-02-19T06:43:47Z</time>
      </trkpt>
      <trkpt lat="45.10044" lon="5.60295">
        <ele>1356.56</ele>
        <time>2022-02-19T06:44:04Z</time>
      </trkpt>
      <trkpt lat="45.10034" lon="5.60294">
        <ele>1357.52</ele>
        <time>2022-02-19T06:44:17Z</time>
      </trkpt>
      <trkpt lat="45.10022" lon="5.60292">
        <ele>1359.44</ele>
        <time>2022-02-19T06:44:34Z</time>
      </trkpt>
      <trkpt lat="45.10006" lon="5.60291">
        <ele>1360.88</ele>
        <time>2022-02-19T06:44:51Z</time>
      </trkpt>
      <trkpt lat="45.09993" lon="5.60291">
        <ele>1362.81</ele>
        <time>2022-02-19T06:45:09Z</time>
      </trkpt>
      <trkpt lat="45.09982" lon="5.60292">
        <ele>1364.25</ele>
        <time>2022-02-19T06:45:24Z</time>
      </trkpt>
      <trkpt lat="45.09969" lon="5.60291">
        <ele>1366.17</ele>
        <time>2022-02-19T06:45:43Z</time>
      </trkpt>
      <trkpt lat="45.09952" lon="5.60289">
        <ele>1368.09</ele>
        <time>2022-02-19T06:46:01Z</time>
      </trkpt>
      <trkpt lat="45.0994" lon="5.60288">
        <ele>1369.05</ele>
        <time>2022-02-19T06:46:17Z</time>
      </trkpt>
      <trkpt lat="45.09925" lon="5.60286">
        <ele>1370.5</ele>
        <time>2022-02-19T06:46:35Z</time>
      </trkpt>
      <trkpt lat="45.09913" lon="5.60284">
        <ele>1371.94</ele>
        <time>2022-02-19T06:46:52Z</time>
      </trkpt>
      <trkpt lat="45.09901" lon="5.60284">
        <ele>1373.86</ele>
        <time>2022-02-19T06:47:08Z</time>
      </trkpt>
      <trkpt lat="45.09888" lon="5.60284">
        <ele>1375.78</ele>
        <time>2022-02-19T06:47:24Z</time>
      </trkpt>
      <trkpt lat="45.09875" lon="5.60282">
        <ele>1377.23</ele>
        <time>2022-02-19T06:47:42Z</time>
      </trkpt>
      <trkpt lat="45.09863" lon="5.60283">
        <ele>1379.63</ele>
        <time>2022-02-19T06:47:59Z</time>
      </trkpt>
      <trkpt lat="45.09849" lon="5.60287">
        <ele>1381.55</ele>
        <time>2022-02-19T06:48:18Z</time>
      </trkpt>
      <trkpt lat="45.09837" lon="5.6029">
        <ele>1382.99</ele>
        <time>2022-02-19T06:48:34Z</time>
      </trkpt>
      <trkpt lat="45.09823" lon="5.60293">
        <ele>1385.4</ele>
        <time>2022-02-19T06:48:51Z</time>
      </trkpt>
      <trkpt lat="45.09811" lon="5.60294">
        <ele>1387.8</ele>
        <time>2022-02-19T06:49:08Z</time>
      </trkpt>
      <trkpt lat="45.098" lon="5.60294">
        <ele>1389.72</ele>
        <time>2022-02-19T06:49:25Z</time>
      </trkpt>
      <trkpt lat="45.09788" lon="5.60293">
        <ele>1392.13</ele>
        <time>2022-02-19T06:49:42Z</time>
      </trkpt>
      <trkpt lat="45.09777" lon="5.60294">
        <ele>1394.05</ele>
        <time>2022-02-19T06:49:59Z</time>
      </trkpt>
      <trkpt lat="45.09762" lon="5.60297">
        <ele>1395.97</ele>
        <time>2022-02-19T06:50:18Z</time>
      </trkpt>
      <trkpt lat="45.09751" lon="5.603">
        <ele>1399.34</ele>
        <time>2022-02-19T06:50:37Z</time>
      </trkpt>
      <trkpt lat="45.09738" lon="5.60302">
        <ele>1402.22</ele>
        <time>2022-02-19T06:50:59Z</time>
      </trkpt>
      <trkpt lat="45.09725" lon="5.60305">
        <ele>1405.1</ele>
        <time>2022-02-19T06:51:18Z</time>
      </trkpt>
      <trkpt lat="45.09712" lon="5.60305">
        <ele>1406.55</ele>
        <time>2022-02-19T06:51:35Z</time>
      </trkpt>
      <trkpt lat="45.097" lon="5.60303">
        <ele>1408.95</ele>
        <time>2022-02-19T06:51:52Z</time>
      </trkpt>
      <trkpt lat="45.09688" lon="5.60302">
        <ele>1409.91</ele>
        <time>2022-02-19T06:52:09Z</time>
      </trkpt>
      <trkpt lat="45.09677" lon="5.603">
        <ele>1411.83</ele>
        <time>2022-02-19T06:52:26Z</time>
      </trkpt>
      <trkpt lat="45.09663" lon="5.60298">
        <ele>1413.76</ele>
        <time>2022-02-19T06:52:43Z</time>
      </trkpt>
      <trkpt lat="45.0965" lon="5.60298">
        <ele>1415.68</ele>
        <time>2022-02-19T06:53:00Z</time>
      </trkpt>
      <trkpt lat="45.09639" lon="5.60295">
        <ele>1417.12</ele>
        <time>2022-02-19T06:53:15Z</time>
      </trkpt>
      <trkpt lat="45.09624" lon="5.60295">
        <ele>1419.04</ele>
        <time>2022-02-19T06:53:32Z</time>
      </trkpt>
      <trkpt lat="45.09611" lon="5.60292">
        <ele>1420.49</ele>
        <time>2022-02-19T06:53:50Z</time>
      </trkpt>
      <trkpt lat="45.09597" lon="5.60287">
        <ele>1422.41</ele>
        <time>2022-02-19T06:54:08Z</time>
      </trkpt>
      <trkpt lat="45.09582" lon="5.60282">
        <ele>1424.33</ele>
        <time>2022-02-19T06:54:27Z</time>
      </trkpt>
      <trkpt lat="45.09572" lon="5.60282">
        <ele>1425.77</ele>
        <time>2022-02-19T06:54:42Z</time>
      </trkpt>
      <trkpt lat="45.09561" lon="5.60282">
        <ele>1426.73</ele>
        <time>2022-02-19T06:54:57Z</time>
      </trkpt>
      <trkpt lat="45.0955" lon="5.60282">
        <ele>1428.66</ele>
        <time>2022-02-19T06:55:13Z</time>
      </trkpt>
      <trkpt lat="45.0954" lon="5.6028">
        <ele>1430.58</ele>
        <time>2022-02-19T06:55:28Z</time>
      </trkpt>
      <trkpt lat="45.0953" lon="5.6028">
        <ele>1431.54</ele>
        <time>2022-02-19T06:55:41Z</time>
      </trkpt>
      <trkpt lat="45.09517" lon="5.6028">
        <ele>1433.46</ele>
        <time>2022-02-19T06:55:58Z</time>
      </trkpt>
      <trkpt lat="45.09505" lon="5.60278">
        <ele>1435.87</ele>
        <time>2022-02-19T06:56:15Z</time>
      </trkpt>
      <trkpt lat="45.09492" lon="5.60275">
        <ele>1438.75</ele>
        <time>2022-02-19T06:56:34Z</time>
      </trkpt>
      <trkpt lat="45.09481" lon="5.60272">
        <ele>1441.15</ele>
        <time>2022-02-19T06:56:50Z</time>
      </trkpt>
      <trkpt lat="45.0947" lon="5.60273">
        <ele>1443.08</ele>
        <time>2022-02-19T06:57:06Z</time>
      </trkpt>
      <trkpt lat="45.09458" lon="5.60279">
        <ele>1445</ele>
        <time>2022-02-19T06:57:23Z</time>
      </trkpt>
      <trkpt lat="45.09454" lon="5.60281">
        <ele>1446.92</ele>
        <time>2022-02-19T06:57:42Z</time>
      </trkpt>
      <trkpt lat="45.09454" lon="5.60279">
        <ele>1445</ele>
        <time>2022-02-19T06:58:05Z</time>
      </trkpt>
      <trkpt lat="45.09454" lon="5.6028">
        <ele>1444.04</ele>
        <time>2022-02-19T06:58:33Z</time>
      </trkpt>
      <trkpt lat="45.09456" lon="5.60282">
        <ele>1445.48</ele>
        <time>2022-02-19T06:59:02Z</time>
      </trkpt>
      <trkpt lat="45.09459" lon="5.60282">
        <ele>1446.44</ele>
        <time>2022-02-19T06:59:19Z</time>
      </trkpt>
      <trkpt lat="45.09459" lon="5.60283">
        <ele>1445.48</ele>
        <time>2022-02-19T06:59:27Z</time>
      </trkpt>
      <trkpt lat="45.09458" lon="5.60284">
        <ele>1445.48</ele>
        <time>2022-02-19T06:59:52Z</time>
      </trkpt>
      <trkpt lat="45.09455" lon="5.60284">
        <ele>1445.48</ele>
        <time>2022-02-19T07:00:25Z</time>
      </trkpt>
      <trkpt lat="45.09455" lon="5.60284">
        <ele>1446.92</ele>
        <time>2022-02-19T07:00:34Z</time>
      </trkpt>
      <trkpt lat="45.09454" lon="5.6028">
        <ele>1445.96</ele>
        <time>2022-02-19T07:01:08Z</time>
      </trkpt>
      <trkpt lat="45.09455" lon="5.60287">
        <ele>1445.96</ele>
        <time>2022-02-19T07:01:40Z</time>
      </trkpt>
      <trkpt lat="45.09452" lon="5.60284">
        <ele>1446.44</ele>
        <time>2022-02-19T07:02:02Z</time>
      </trkpt>
      <trkpt lat="45.09444" lon="5.60292">
        <ele>1447.4</ele>
        <time>2022-02-19T07:02:19Z</time>
      </trkpt>
      <trkpt lat="45.09432" lon="5.60297">
        <ele>1449.81</ele>
        <time>2022-02-19T07:02:37Z</time>
      </trkpt>
      <trkpt lat="45.09424" lon="5.60298">
        <ele>1451.73</ele>
        <time>2022-02-19T07:02:51Z</time>
      </trkpt>
      <trkpt lat="45.09414" lon="5.60301">
        <ele>1453.17</ele>
        <time>2022-02-19T07:03:08Z</time>
      </trkpt>
      <trkpt lat="45.09398" lon="5.60309">
        <ele>1455.57</ele>
        <time>2022-02-19T07:03:29Z</time>
      </trkpt>
      <trkpt lat="45.09396" lon="5.60327">
        <ele>1457.02</ele>
        <time>2022-02-19T07:03:46Z</time>
      </trkpt>
      <trkpt lat="45.09395" lon="5.60335">
        <ele>1457.98</ele>
        <time>2022-02-19T07:03:52Z</time>
      </trkpt>
      <trkpt lat="45.09389" lon="5.60347">
        <ele>1459.9</ele>
        <time>2022-02-19T07:04:12Z</time>
      </trkpt>
      <trkpt lat="45.09391" lon="5.6035">
        <ele>1460.86</ele>
        <time>2022-02-19T07:04:17Z</time>
      </trkpt>
      <trkpt lat="45.09387" lon="5.6036">
        <ele>1462.3</ele>
        <time>2022-02-19T07:04:29Z</time>
      </trkpt>
      <trkpt lat="45.09385" lon="5.60379">
        <ele>1464.71</ele>
        <time>2022-02-19T07:04:47Z</time>
      </trkpt>
      <trkpt lat="45.09383" lon="5.60388">
        <ele>1468.55</ele>
        <time>2022-02-19T07:05:06Z</time>
      </trkpt>
      <trkpt lat="45.09383" lon="5.60389">
        <ele>1468.55</ele>
        <time>2022-02-19T07:05:07Z</time>
      </trkpt>
      <trkpt lat="45.09378" lon="5.60401">
        <ele>1471.44</ele>
        <time>2022-02-19T07:05:26Z</time>
      </trkpt>
      <trkpt lat="45.0937" lon="5.60406">
        <ele>1472.88</ele>
        <time>2022-02-19T07:05:40Z</time>
      </trkpt>
      <trkpt lat="45.09371" lon="5.60421">
        <ele>1474.8</ele>
        <time>2022-02-19T07:05:59Z</time>
      </trkpt>
      <trkpt lat="45.09367" lon="5.60428">
        <ele>1478.16</ele>
        <time>2022-02-19T07:06:14Z</time>
      </trkpt>
      <trkpt lat="45.09366" lon="5.60437">
        <ele>1480.57</ele>
        <time>2022-02-19T07:06:32Z</time>
      </trkpt>
      <trkpt lat="45.09364" lon="5.60448">
        <ele>1483.45</ele>
        <time>2022-02-19T07:06:52Z</time>
      </trkpt>
      <trkpt lat="45.0936" lon="5.60463">
        <ele>1486.34</ele>
        <time>2022-02-19T07:07:12Z</time>
      </trkpt>
      <trkpt lat="45.09361" lon="5.60466">
        <ele>1487.78</ele>
        <time>2022-02-19T07:07:19Z</time>
      </trkpt>
      <trkpt lat="45.09358" lon="5.6048">
        <ele>1490.18</ele>
        <time>2022-02-19T07:07:37Z</time>
      </trkpt>
      <trkpt lat="45.09351" lon="5.60488">
        <ele>1493.55</ele>
        <time>2022-02-19T07:07:56Z</time>
      </trkpt>
      <trkpt lat="45.09347" lon="5.60501">
        <ele>1496.91</ele>
        <time>2022-02-19T07:08:16Z</time>
      </trkpt>
      <trkpt lat="45.09345" lon="5.6051">
        <ele>1499.79</ele>
        <time>2022-02-19T07:08:31Z</time>
      </trkpt>
      <trkpt lat="45.09342" lon="5.60512">
        <ele>1500.27</ele>
        <time>2022-02-19T07:08:47Z</time>
      </trkpt>
      <trkpt lat="45.09341" lon="5.60513">
        <ele>1501.24</ele>
        <time>2022-02-19T07:08:50Z</time>
      </trkpt>
      <trkpt lat="45.09339" lon="5.60524">
        <ele>1504.12</ele>
        <time>2022-02-19T07:09:06Z</time>
      </trkpt>
      <trkpt lat="45.09341" lon="5.60545">
        <ele>1506.52</ele>
        <time>2022-02-19T07:09:23Z</time>
      </trkpt>
      <trkpt lat="45.0934" lon="5.60555">
        <ele>1510.37</ele>
        <time>2022-02-19T07:09:41Z</time>
      </trkpt>
      <trkpt lat="45.0934" lon="5.6057">
        <ele>1512.77</ele>
        <time>2022-02-19T07:10:00Z</time>
      </trkpt>
      <trkpt lat="45.09339" lon="5.60585">
        <ele>1516.14</ele>
        <time>2022-02-19T07:10:19Z</time>
      </trkpt>
      <trkpt lat="45.09347" lon="5.60601">
        <ele>1519.02</ele>
        <time>2022-02-19T07:10:42Z</time>
      </trkpt>
      <trkpt lat="45.09349" lon="5.60605">
        <ele>1522.39</ele>
        <time>2022-02-19T07:10:58Z</time>
      </trkpt>
      <trkpt lat="45.09353" lon="5.6061">
        <ele>1524.79</ele>
        <time>2022-02-19T07:11:15Z</time>
      </trkpt>
      <trkpt lat="45.09359" lon="5.60618">
        <ele>1528.15</ele>
        <time>2022-02-19T07:11:33Z</time>
      </trkpt>
      <trkpt lat="45.0937" lon="5.60625">
        <ele>1530.08</ele>
        <time>2022-02-19T07:11:52Z</time>
      </trkpt>
      <trkpt lat="45.09373" lon="5.60634">
        <ele>1533.44</ele>
        <time>2022-02-19T07:12:08Z</time>
      </trkpt>
      <trkpt lat="45.09378" lon="5.60639">
        <ele>1534.88</ele>
        <time>2022-02-19T07:12:26Z</time>
      </trkpt>
      <trkpt lat="45.09381" lon="5.60641">
        <ele>1536.32</ele>
        <time>2022-02-19T07:12:31Z</time>
      </trkpt>
      <trkpt lat="45.09382" lon="5.60642">
        <ele>1537.77</ele>
        <time>2022-02-19T07:12:35Z</time>
      </trkpt>
      <trkpt lat="45.09392" lon="5.60648">
        <ele>1539.69</ele>
        <time>2022-02-19T07:12:54Z</time>
      </trkpt>
      <trkpt lat="45.09396" lon="5.60654">
        <ele>1543.05</ele>
        <time>2022-02-19T07:13:11Z</time>
      </trkpt>
      <trkpt lat="45.09398" lon="5.60658">
        <ele>1544.01</ele>
        <time>2022-02-19T07:13:19Z</time>
      </trkpt>
      <trkpt lat="45.09408" lon="5.60662">
        <ele>1546.42</ele>
        <time>2022-02-19T07:13:40Z</time>
      </trkpt>
      <trkpt lat="45.09411" lon="5.60666">
        <ele>1548.34</ele>
        <time>2022-02-19T07:13:48Z</time>
      </trkpt>
      <trkpt lat="45.09418" lon="5.60675">
        <ele>1551.22</ele>
        <time>2022-02-19T07:14:06Z</time>
      </trkpt>
      <trkpt lat="45.09425" lon="5.60679">
        <ele>1553.63</ele>
        <time>2022-02-19T07:14:24Z</time>
      </trkpt>
      <trkpt lat="45.09432" lon="5.60687">
        <ele>1556.03</ele>
        <time>2022-02-19T07:14:42Z</time>
      </trkpt>
      <trkpt lat="45.09441" lon="5.60693">
        <ele>1558.92</ele>
        <time>2022-02-19T07:15:02Z</time>
      </trkpt>
      <trkpt lat="45.09447" lon="5.60699">
        <ele>1561.8</ele>
        <time>2022-02-19T07:15:19Z</time>
      </trkpt>
      <trkpt lat="45.09453" lon="5.60703">
        <ele>1564.2</ele>
        <time>2022-02-19T07:15:37Z</time>
      </trkpt>
      <trkpt lat="45.09451" lon="5.60706">
        <ele>1565.16</ele>
        <time>2022-02-19T07:15:56Z</time>
      </trkpt>
      <trkpt lat="45.09459" lon="5.60711">
        <ele>1567.09</ele>
        <time>2022-02-19T07:16:15Z</time>
      </trkpt>
      <trkpt lat="45.09468" lon="5.60716">
        <ele>1569.01</ele>
        <time>2022-02-19T07:16:35Z</time>
      </trkpt>
      <trkpt lat="45.09473" lon="5.60724">
        <ele>1571.89</ele>
        <time>2022-02-19T07:16:53Z</time>
      </trkpt>
      <trkpt lat="45.09481" lon="5.60731">
        <ele>1573.33</ele>
        <time>2022-02-19T07:17:14Z</time>
      </trkpt>
      <trkpt lat="45.0949" lon="5.60737">
        <ele>1576.22</ele>
        <time>2022-02-19T07:17:34Z</time>
      </trkpt>
      <trkpt lat="45.095" lon="5.60742">
        <ele>1578.62</ele>
        <time>2022-02-19T07:17:52Z</time>
      </trkpt>
      <trkpt lat="45.0951" lon="5.60751">
        <ele>1581.51</ele>
        <time>2022-02-19T07:18:13Z</time>
      </trkpt>
      <trkpt lat="45.09516" lon="5.60758">
        <ele>1584.39</ele>
        <time>2022-02-19T07:18:29Z</time>
      </trkpt>
      <trkpt lat="45.09521" lon="5.60768">
        <ele>1586.79</ele>
        <time>2022-02-19T07:18:48Z</time>
      </trkpt>
      <trkpt lat="45.09527" lon="5.60774">
        <ele>1590.16</ele>
        <time>2022-02-19T07:19:05Z</time>
      </trkpt>
      <trkpt lat="45.09524" lon="5.60777">
        <ele>1591.12</ele>
        <time>2022-02-19T07:19:20Z</time>
      </trkpt>
      <trkpt lat="45.09517" lon="5.60778">
        <ele>1593.04</ele>
        <time>2022-02-19T07:19:36Z</time>
      </trkpt>
      <trkpt lat="45.09516" lon="5.6078">
        <ele>1593.52</ele>
        <time>2022-02-19T07:19:49Z</time>
      </trkpt>
      <trkpt lat="45.09517" lon="5.60786">
        <ele>1594.96</ele>
        <time>2022-02-19T07:20:10Z</time>
      </trkpt>
      <trkpt lat="45.09521" lon="5.60791">
        <ele>1597.37</ele>
        <time>2022-02-19T07:20:26Z</time>
      </trkpt>
      <trkpt lat="45.09528" lon="5.60798">
        <ele>1599.29</ele>
        <time>2022-02-19T07:20:44Z</time>
      </trkpt>
      <trkpt lat="45.09529" lon="5.60801">
        <ele>1601.21</ele>
        <time>2022-02-19T07:21:06Z</time>
      </trkpt>
      <trkpt lat="45.09521" lon="5.60808">
        <ele>1604.1</ele>
        <time>2022-02-19T07:21:26Z</time>
      </trkpt>
      <trkpt lat="45.09513" lon="5.6081">
        <ele>1605.54</ele>
        <time>2022-02-19T07:21:44Z</time>
      </trkpt>
      <trkpt lat="45.09506" lon="5.60811">
        <ele>1606.98</ele>
        <time>2022-02-19T07:22:00Z</time>
      </trkpt>
      <trkpt lat="45.09501" lon="5.60812">
        <ele>1607.94</ele>
        <time>2022-02-19T07:22:16Z</time>
      </trkpt>
      <trkpt lat="45.09494" lon="5.60811">
        <ele>1609.38</ele>
        <time>2022-02-19T07:22:31Z</time>
      </trkpt>
      <trkpt lat="45.09488" lon="5.60814">
        <ele>1611.31</ele>
        <time>2022-02-19T07:22:46Z</time>
      </trkpt>
      <trkpt lat="45.09489" lon="5.60818">
        <ele>1612.27</ele>
        <time>2022-02-19T07:23:00Z</time>
      </trkpt>
      <trkpt lat="45.09493" lon="5.60826">
        <ele>1614.19</ele>
        <time>2022-02-19T07:23:17Z</time>
      </trkpt>
      <trkpt lat="45.09498" lon="5.60831">
        <ele>1617.07</ele>
        <time>2022-02-19T07:23:33Z</time>
      </trkpt>
      <trkpt lat="45.09495" lon="5.60832">
        <ele>1619</ele>
        <time>2022-02-19T07:23:52Z</time>
      </trkpt>
      <trkpt lat="45.09493" lon="5.60836">
        <ele>1622.36</ele>
        <time>2022-02-19T07:24:08Z</time>
      </trkpt>
      <trkpt lat="45.09494" lon="5.60839">
        <ele>1622.84</ele>
        <time>2022-02-19T07:24:13Z</time>
      </trkpt>
      <trkpt lat="45.0949" lon="5.6084">
        <ele>1623.8</ele>
        <time>2022-02-19T07:24:32Z</time>
      </trkpt>
      <trkpt lat="45.09489" lon="5.6084">
        <ele>1623.8</ele>
        <time>2022-02-19T07:24:33Z</time>
      </trkpt>
      <trkpt lat="45.09485" lon="5.60843">
        <ele>1625.73</ele>
        <time>2022-02-19T07:24:52Z</time>
      </trkpt>
      <trkpt lat="45.0949" lon="5.60851">
        <ele>1627.65</ele>
        <time>2022-02-19T07:25:08Z</time>
      </trkpt>
      <trkpt lat="45.09493" lon="5.60858">
        <ele>1630.05</ele>
        <time>2022-02-19T07:25:24Z</time>
      </trkpt>
      <trkpt lat="45.09501" lon="5.6086">
        <ele>1632.94</ele>
        <time>2022-02-19T07:25:42Z</time>
      </trkpt>
      <trkpt lat="45.09505" lon="5.60866">
        <ele>1634.38</ele>
        <time>2022-02-19T07:25:59Z</time>
      </trkpt>
      <trkpt lat="45.0951" lon="5.6088">
        <ele>1634.86</ele>
        <time>2022-02-19T07:26:19Z</time>
      </trkpt>
      <trkpt lat="45.09508" lon="5.60889">
        <ele>1634.86</ele>
        <time>2022-02-19T07:26:32Z</time>
      </trkpt>
      <trkpt lat="45.09498" lon="5.60889">
        <ele>1636.3</ele>
        <time>2022-02-19T07:26:49Z</time>
      </trkpt>
      <trkpt lat="45.09482" lon="5.60886">
        <ele>1636.78</ele>
        <time>2022-02-19T07:27:10Z</time>
      </trkpt>
      <trkpt lat="45.09472" lon="5.60883">
        <ele>1638.22</ele>
        <time>2022-02-19T07:27:26Z</time>
      </trkpt>
      <trkpt lat="45.09461" lon="5.60879">
        <ele>1637.26</ele>
        <time>2022-02-19T07:27:40Z</time>
      </trkpt>
      <trkpt lat="45.09446" lon="5.60874">
        <ele>1638.22</ele>
        <time>2022-02-19T07:27:59Z</time>
      </trkpt>
      <trkpt lat="45.09437" lon="5.60875">
        <ele>1637.26</ele>
        <time>2022-02-19T07:28:17Z</time>
      </trkpt>
      <trkpt lat="45.09425" lon="5.60878">
        <ele>1638.7</ele>
        <time>2022-02-19T07:28:33Z</time>
      </trkpt>
      <trkpt lat="45.09414" lon="5.60879">
        <ele>1639.67</ele>
        <time>2022-02-19T07:28:49Z</time>
      </trkpt>
      <trkpt lat="45.094" lon="5.60883">
        <ele>1638.7</ele>
        <time>2022-02-19T07:29:07Z</time>
      </trkpt>
      <trkpt lat="45.09389" lon="5.60888">
        <ele>1637.74</ele>
        <time>2022-02-19T07:29:24Z</time>
      </trkpt>
      <trkpt lat="45.09385" lon="5.60886">
        <ele>1638.7</ele>
        <time>2022-02-19T07:29:32Z</time>
      </trkpt>
      <trkpt lat="45.09378" lon="5.60877">
        <ele>1639.67</ele>
        <time>2022-02-19T07:29:49Z</time>
      </trkpt>
      <trkpt lat="45.09369" lon="5.60868">
        <ele>1639.19</ele>
        <time>2022-02-19T07:30:05Z</time>
      </trkpt>
      <trkpt lat="45.09358" lon="5.60869">
        <ele>1639.19</ele>
        <time>2022-02-19T07:30:21Z</time>
      </trkpt>
      <trkpt lat="45.09348" lon="5.60873">
        <ele>1638.22</ele>
        <time>2022-02-19T07:30:35Z</time>
      </trkpt>
      <trkpt lat="45.09339" lon="5.60885">
        <ele>1637.74</ele>
        <time>2022-02-19T07:30:52Z</time>
      </trkpt>
      <trkpt lat="45.09331" lon="5.60897">
        <ele>1637.26</ele>
        <time>2022-02-19T07:31:09Z</time>
      </trkpt>
      <trkpt lat="45.09325" lon="5.60906">
        <ele>1638.22</ele>
        <time>2022-02-19T07:31:22Z</time>
      </trkpt>
      <trkpt lat="45.09325" lon="5.60922">
        <ele>1638.7</ele>
        <time>2022-02-19T07:31:36Z</time>
      </trkpt>
      <trkpt lat="45.09328" lon="5.60931">
        <ele>1640.63</ele>
        <time>2022-02-19T07:31:54Z</time>
      </trkpt>
      <trkpt lat="45.09324" lon="5.60942">
        <ele>1641.59</ele>
        <time>2022-02-19T07:32:13Z</time>
      </trkpt>
      <trkpt lat="45.09315" lon="5.60952">
        <ele>1642.07</ele>
        <time>2022-02-19T07:32:30Z</time>
      </trkpt>
      <trkpt lat="45.09304" lon="5.60958">
        <ele>1643.51</ele>
        <time>2022-02-19T07:32:52Z</time>
      </trkpt>
      <trkpt lat="45.09297" lon="5.60963">
        <ele>1645.91</ele>
        <time>2022-02-19T07:33:11Z</time>
      </trkpt>
      <trkpt lat="45.09292" lon="5.60978">
        <ele>1647.84</ele>
        <time>2022-02-19T07:33:30Z</time>
      </trkpt>
      <trkpt lat="45.0929" lon="5.60993">
        <ele>1649.28</ele>
        <time>2022-02-19T07:33:46Z</time>
      </trkpt>
      <trkpt lat="45.0928" lon="5.61">
        <ele>1649.76</ele>
        <time>2022-02-19T07:34:06Z</time>
      </trkpt>
      <trkpt lat="45.09277" lon="5.61002">
        <ele>1653.12</ele>
        <time>2022-02-19T07:34:14Z</time>
      </trkpt>
      <trkpt lat="45.09276" lon="5.61002">
        <ele>1653.12</ele>
        <time>2022-02-19T07:34:15Z</time>
      </trkpt>
      <trkpt lat="45.09267" lon="5.61007">
        <ele>1655.53</ele>
        <time>2022-02-19T07:34:35Z</time>
      </trkpt>
      <trkpt lat="45.09258" lon="5.61009">
        <ele>1658.89</ele>
        <time>2022-02-19T07:34:53Z</time>
      </trkpt>
      <trkpt lat="45.09256" lon="5.61012">
        <ele>1659.37</ele>
        <time>2022-02-19T07:35:00Z</time>
      </trkpt>
      <trkpt lat="45.09261" lon="5.61026">
        <ele>1661.3</ele>
        <time>2022-02-19T07:35:20Z</time>
      </trkpt>
      <trkpt lat="45.09262" lon="5.61041">
        <ele>1661.78</ele>
        <time>2022-02-19T07:35:37Z</time>
      </trkpt>
      <trkpt lat="45.09254" lon="5.61046">
        <ele>1663.7</ele>
        <time>2022-02-19T07:35:55Z</time>
      </trkpt>
      <trkpt lat="45.09246" lon="5.6105">
        <ele>1666.58</ele>
        <time>2022-02-19T07:36:14Z</time>
      </trkpt>
      <trkpt lat="45.09239" lon="5.61052">
        <ele>1669.47</ele>
        <time>2022-02-19T07:36:31Z</time>
      </trkpt>
      <trkpt lat="45.09239" lon="5.61057">
        <ele>1670.43</ele>
        <time>2022-02-19T07:36:49Z</time>
      </trkpt>
      <trkpt lat="45.09244" lon="5.61066">
        <ele>1672.83</ele>
        <time>2022-02-19T07:37:07Z</time>
      </trkpt>
      <trkpt lat="45.09248" lon="5.61074">
        <ele>1674.75</ele>
        <time>2022-02-19T07:37:24Z</time>
      </trkpt>
      <trkpt lat="45.09253" lon="5.61081">
        <ele>1676.68</ele>
        <time>2022-02-19T07:37:41Z</time>
      </trkpt>
      <trkpt lat="45.09247" lon="5.6108">
        <ele>1677.64</ele>
        <time>2022-02-19T07:38:01Z</time>
      </trkpt>
      <trkpt lat="45.09236" lon="5.6108">
        <ele>1681</ele>
        <time>2022-02-19T07:38:21Z</time>
      </trkpt>
      <trkpt lat="45.09227" lon="5.61081">
        <ele>1683.41</ele>
        <time>2022-02-19T07:38:42Z</time>
      </trkpt>
      <trkpt lat="45.09217" lon="5.6108">
        <ele>1685.33</ele>
        <time>2022-02-19T07:39:03Z</time>
      </trkpt>
      <trkpt lat="45.09207" lon="5.61077">
        <ele>1686.77</ele>
        <time>2022-02-19T07:39:20Z</time>
      </trkpt>
      <trkpt lat="45.09199" lon="5.61083">
        <ele>1689.65</ele>
        <time>2022-02-19T07:39:39Z</time>
      </trkpt>
      <trkpt lat="45.09197" lon="5.61097">
        <ele>1691.1</ele>
        <time>2022-02-19T07:39:56Z</time>
      </trkpt>
      <trkpt lat="45.09193" lon="5.61109">
        <ele>1692.06</ele>
        <time>2022-02-19T07:40:11Z</time>
      </trkpt>
      <trkpt lat="45.09187" lon="5.6112">
        <ele>1691.1</ele>
        <time>2022-02-19T07:40:27Z</time>
      </trkpt>
      <trkpt lat="45.09187" lon="5.61121">
        <ele>1691.1</ele>
        <time>2022-02-19T07:40:28Z</time>
      </trkpt>
      <trkpt lat="45.09178" lon="5.61132">
        <ele>1690.14</ele>
        <time>2022-02-19T07:40:45Z</time>
      </trkpt>
      <trkpt lat="45.09177" lon="5.61136">
        <ele>1691.58</ele>
        <time>2022-02-19T07:40:49Z</time>
      </trkpt>
      <trkpt lat="45.09169" lon="5.61148">
        <ele>1694.46</ele>
        <time>2022-02-19T07:41:10Z</time>
      </trkpt>
      <trkpt lat="45.09157" lon="5.61152">
        <ele>1697.83</ele>
        <time>2022-02-19T07:41:32Z</time>
      </trkpt>
      <trkpt lat="45.09146" lon="5.61153">
        <ele>1701.19</ele>
        <time>2022-02-19T07:41:53Z</time>
      </trkpt>
      <trkpt lat="45.09138" lon="5.61158">
        <ele>1703.11</ele>
        <time>2022-02-19T07:42:12Z</time>
      </trkpt>
      <trkpt lat="45.09132" lon="5.61162">
        <ele>1705.04</ele>
        <time>2022-02-19T07:42:26Z</time>
      </trkpt>
      <trkpt lat="45.09126" lon="5.61165">
        <ele>1706.48</ele>
        <time>2022-02-19T07:42:40Z</time>
      </trkpt>
      <trkpt lat="45.09128" lon="5.61172">
        <ele>1707.92</ele>
        <time>2022-02-19T07:42:56Z</time>
      </trkpt>
      <trkpt lat="45.09137" lon="5.61181">
        <ele>1711.28</ele>
        <time>2022-02-19T07:43:17Z</time>
      </trkpt>
      <trkpt lat="45.09143" lon="5.6119">
        <ele>1713.69</ele>
        <time>2022-02-19T07:43:36Z</time>
      </trkpt>
      <trkpt lat="45.09144" lon="5.61198">
        <ele>1715.61</ele>
        <time>2022-02-19T07:43:51Z</time>
      </trkpt>
      <trkpt lat="45.09137" lon="5.61207">
        <ele>1717.05</ele>
        <time>2022-02-19T07:44:07Z</time>
      </trkpt>
      <trkpt lat="45.09126" lon="5.6121">
        <ele>1719.46</ele>
        <time>2022-02-19T07:44:28Z</time>
      </trkpt>
      <trkpt lat="45.09118" lon="5.61211">
        <ele>1720.42</ele>
        <time>2022-02-19T07:44:47Z</time>
      </trkpt>
      <trkpt lat="45.09109" lon="5.61215">
        <ele>1722.34</ele>
        <time>2022-02-19T07:45:03Z</time>
      </trkpt>
      <trkpt lat="45.09099" lon="5.6122">
        <ele>1724.74</ele>
        <time>2022-02-19T07:45:23Z</time>
      </trkpt>
      <trkpt lat="45.0909" lon="5.61222">
        <ele>1728.59</ele>
        <time>2022-02-19T07:45:41Z</time>
      </trkpt>
      <trkpt lat="45.09081" lon="5.61227">
        <ele>1731.47</ele>
        <time>2022-02-19T07:46:01Z</time>
      </trkpt>
      <trkpt lat="45.09072" lon="5.61235">
        <ele>1732.91</ele>
        <time>2022-02-19T07:46:18Z</time>
      </trkpt>
      <trkpt lat="45.09072" lon="5.61243">
        <ele>1734.36</ele>
        <time>2022-02-19T07:46:28Z</time>
      </trkpt>
      <trkpt lat="45.09077" lon="5.61256">
        <ele>1736.76</ele>
        <time>2022-02-19T07:46:47Z</time>
      </trkpt>
      <trkpt lat="45.09083" lon="5.61275">
        <ele>1740.12</ele>
        <time>2022-02-19T07:47:12Z</time>
      </trkpt>
      <trkpt lat="45.09083" lon="5.6129">
        <ele>1739.16</ele>
        <time>2022-02-19T07:47:31Z</time>
      </trkpt>
      <trkpt lat="45.09083" lon="5.61291">
        <ele>1739.16</ele>
        <time>2022-02-19T07:47:32Z</time>
      </trkpt>
      <trkpt lat="45.09086" lon="5.61311">
        <ele>1738.2</ele>
        <time>2022-02-19T07:47:50Z</time>
      </trkpt>
      <trkpt lat="45.09093" lon="5.61327">
        <ele>1737.72</ele>
        <time>2022-02-19T07:48:07Z</time>
      </trkpt>
      <trkpt lat="45.0909" lon="5.61341">
        <ele>1739.64</ele>
        <time>2022-02-19T07:48:21Z</time>
      </trkpt>
      <trkpt lat="45.09085" lon="5.61359">
        <ele>1741.08</ele>
        <time>2022-02-19T07:48:39Z</time>
      </trkpt>
      <trkpt lat="45.09083" lon="5.61377">
        <ele>1742.05</ele>
        <time>2022-02-19T07:48:57Z</time>
      </trkpt>
      <trkpt lat="45.09079" lon="5.61393">
        <ele>1743.49</ele>
        <time>2022-02-19T07:49:15Z</time>
      </trkpt>
      <trkpt lat="45.09073" lon="5.61405">
        <ele>1743.97</ele>
        <time>2022-02-19T07:49:31Z</time>
      </trkpt>
      <trkpt lat="45.09073" lon="5.61414">
        <ele>1747.33</ele>
        <time>2022-02-19T07:49:45Z</time>
      </trkpt>
      <trkpt lat="45.09077" lon="5.61427">
        <ele>1749.26</ele>
        <time>2022-02-19T07:50:04Z</time>
      </trkpt>
      <trkpt lat="45.09079" lon="5.61441">
        <ele>1751.18</ele>
        <time>2022-02-19T07:50:24Z</time>
      </trkpt>
      <trkpt lat="45.09084" lon="5.61452">
        <ele>1754.06</ele>
        <time>2022-02-19T07:50:41Z</time>
      </trkpt>
      <trkpt lat="45.0909" lon="5.61461">
        <ele>1755.99</ele>
        <time>2022-02-19T07:50:59Z</time>
      </trkpt>
      <trkpt lat="45.0909" lon="5.61471">
        <ele>1758.39</ele>
        <time>2022-02-19T07:51:18Z</time>
      </trkpt>
      <trkpt lat="45.09085" lon="5.61484">
        <ele>1760.31</ele>
        <time>2022-02-19T07:51:36Z</time>
      </trkpt>
      <trkpt lat="45.09083" lon="5.61496">
        <ele>1763.2</ele>
        <time>2022-02-19T07:51:53Z</time>
      </trkpt>
      <trkpt lat="45.09085" lon="5.61509">
        <ele>1766.08</ele>
        <time>2022-02-19T07:52:11Z</time>
      </trkpt>
      <trkpt lat="45.09089" lon="5.61519">
        <ele>1768.48</ele>
        <time>2022-02-19T07:52:30Z</time>
      </trkpt>
      <trkpt lat="45.09094" lon="5.6153">
        <ele>1770.89</ele>
        <time>2022-02-19T07:52:47Z</time>
      </trkpt>
      <trkpt lat="45.091" lon="5.61542">
        <ele>1774.25</ele>
        <time>2022-02-19T07:53:06Z</time>
      </trkpt>
      <trkpt lat="45.09101" lon="5.61547">
        <ele>1775.69</ele>
        <time>2022-02-19T07:53:22Z</time>
      </trkpt>
      <trkpt lat="45.09102" lon="5.61545">
        <ele>1774.25</ele>
        <time>2022-02-19T07:53:28Z</time>
      </trkpt>
      <trkpt lat="45.09103" lon="5.61543">
        <ele>1774.25</ele>
        <time>2022-02-19T07:53:56Z</time>
      </trkpt>
      <trkpt lat="45.09102" lon="5.61544">
        <ele>1774.25</ele>
        <time>2022-02-19T07:54:31Z</time>
      </trkpt>
      <trkpt lat="45.09101" lon="5.61548">
        <ele>1774.25</ele>
        <time>2022-02-19T07:55:09Z</time>
      </trkpt>
      <trkpt lat="45.091" lon="5.61554">
        <ele>1775.21</ele>
        <time>2022-02-19T07:55:35Z</time>
      </trkpt>
      <trkpt lat="45.09097" lon="5.61562">
        <ele>1777.61</ele>
        <time>2022-02-19T07:55:46Z</time>
      </trkpt>
      <trkpt lat="45.09089" lon="5.61571">
        <ele>1781.46</ele>
        <time>2022-02-19T07:56:07Z</time>
      </trkpt>
      <trkpt lat="45.09086" lon="5.61572">
        <ele>1782.9</ele>
        <time>2022-02-19T07:56:14Z</time>
      </trkpt>
      <trkpt lat="45.09084" lon="5.61579">
        <ele>1785.79</ele>
        <time>2022-02-19T07:56:31Z</time>
      </trkpt>
      <trkpt lat="45.09086" lon="5.61591">
        <ele>1789.15</ele>
        <time>2022-02-19T07:56:50Z</time>
      </trkpt>
      <trkpt lat="45.09089" lon="5.61603">
        <ele>1791.07</ele>
        <time>2022-02-19T07:57:08Z</time>
      </trkpt>
      <trkpt lat="45.09093" lon="5.61617">
        <ele>1793.96</ele>
        <time>2022-02-19T07:57:26Z</time>
      </trkpt>
      <trkpt lat="45.091" lon="5.61628">
        <ele>1797.8</ele>
        <time>2022-02-19T07:57:45Z</time>
      </trkpt>
      <trkpt lat="45.091" lon="5.61628">
        <ele>1797.8</ele>
        <time>2022-02-19T07:57:46Z</time>
      </trkpt>
      <trkpt lat="45.09107" lon="5.61635">
        <ele>1799.73</ele>
        <time>2022-02-19T07:58:02Z</time>
      </trkpt>
      <trkpt lat="45.09117" lon="5.61637">
        <ele>1803.57</ele>
        <time>2022-02-19T07:58:19Z</time>
      </trkpt>
      <trkpt lat="45.09124" lon="5.61645">
        <ele>1805.49</ele>
        <time>2022-02-19T07:58:35Z</time>
      </trkpt>
      <trkpt lat="45.09132" lon="5.61655">
        <ele>1808.86</ele>
        <time>2022-02-19T07:58:54Z</time>
      </trkpt>
      <trkpt lat="45.0914" lon="5.61666">
        <ele>1810.78</ele>
        <time>2022-02-19T07:59:11Z</time>
      </trkpt>
      <trkpt lat="45.09142" lon="5.61678">
        <ele>1812.7</ele>
        <time>2022-02-19T07:59:26Z</time>
      </trkpt>
      <trkpt lat="45.09143" lon="5.61684">
        <ele>1814.15</ele>
        <time>2022-02-19T07:59:36Z</time>
      </trkpt>
      <trkpt lat="45.09142" lon="5.61707">
        <ele>1816.55</ele>
        <time>2022-02-19T08:00:02Z</time>
      </trkpt>
      <trkpt lat="45.09142" lon="5.61708">
        <ele>1817.99</ele>
        <time>2022-02-19T08:00:04Z</time>
      </trkpt>
      <trkpt lat="45.09141" lon="5.61723">
        <ele>1821.35</ele>
        <time>2022-02-19T08:00:23Z</time>
      </trkpt>
      <trkpt lat="45.09143" lon="5.61737">
        <ele>1824.72</ele>
        <time>2022-02-19T08:00:43Z</time>
      </trkpt>
      <trkpt lat="45.09144" lon="5.61751">
        <ele>1827.6</ele>
        <time>2022-02-19T08:01:01Z</time>
      </trkpt>
      <trkpt lat="45.09139" lon="5.61761">
        <ele>1830.49</ele>
        <time>2022-02-19T08:01:18Z</time>
      </trkpt>
      <trkpt lat="45.09133" lon="5.61771">
        <ele>1833.85</ele>
        <time>2022-02-19T08:01:36Z</time>
      </trkpt>
      <trkpt lat="45.09128" lon="5.61775">
        <ele>1835.29</ele>
        <time>2022-02-19T08:01:48Z</time>
      </trkpt>
      <trkpt lat="45.09119" lon="5.6178">
        <ele>1838.66</ele>
        <time>2022-02-19T08:02:07Z</time>
      </trkpt>
      <trkpt lat="45.09118" lon="5.61788">
        <ele>1841.06</ele>
        <time>2022-02-19T08:02:22Z</time>
      </trkpt>
      <trkpt lat="45.09122" lon="5.61799">
        <ele>1844.91</ele>
        <time>2022-02-19T08:02:42Z</time>
      </trkpt>
      <trkpt lat="45.09125" lon="5.61809">
        <ele>1847.31</ele>
        <time>2022-02-19T08:03:03Z</time>
      </trkpt>
      <trkpt lat="45.09127" lon="5.61816">
        <ele>1850.68</ele>
        <time>2022-02-19T08:03:19Z</time>
      </trkpt>
      <trkpt lat="45.09132" lon="5.61826">
        <ele>1853.08</ele>
        <time>2022-02-19T08:03:38Z</time>
      </trkpt>
      <trkpt lat="45.09135" lon="5.61835">
        <ele>1856.44</ele>
        <time>2022-02-19T08:03:55Z</time>
      </trkpt>
      <trkpt lat="45.09137" lon="5.61845">
        <ele>1859.33</ele>
        <time>2022-02-19T08:04:13Z</time>
      </trkpt>
      <trkpt lat="45.09139" lon="5.6185">
        <ele>1861.25</ele>
        <time>2022-02-19T08:04:22Z</time>
      </trkpt>
      <trkpt lat="45.09143" lon="5.61857">
        <ele>1863.65</ele>
        <time>2022-02-19T08:04:39Z</time>
      </trkpt>
      <trkpt lat="45.09147" lon="5.61864">
        <ele>1867.02</ele>
        <time>2022-02-19T08:04:56Z</time>
      </trkpt>
      <trkpt lat="45.09154" lon="5.61871">
        <ele>1869.42</ele>
        <time>2022-02-19T08:05:16Z</time>
      </trkpt>
      <trkpt lat="45.09163" lon="5.61878">
        <ele>1872.79</ele>
        <time>2022-02-19T08:05:37Z</time>
      </trkpt>
      <trkpt lat="45.09168" lon="5.61883">
        <ele>1875.19</ele>
        <time>2022-02-19T08:05:51Z</time>
      </trkpt>
      <trkpt lat="45.09178" lon="5.61882">
        <ele>1877.11</ele>
        <time>2022-02-19T08:06:09Z</time>
      </trkpt>
      <trkpt lat="45.09183" lon="5.6188">
        <ele>1872.3</ele>
        <time>2022-02-19T08:06:27Z</time>
      </trkpt>
      <trkpt lat="45.09183" lon="5.6188">
        <ele>1882.88</ele>
        <time>2022-02-19T08:06:28Z</time>
      </trkpt>
      <trkpt lat="45.09183" lon="5.6188">
        <ele>1878.55</ele>
        <time>2022-02-19T08:06:29Z</time>
      </trkpt>
      <trkpt lat="45.09182" lon="5.61882">
        <ele>1877.59</ele>
        <time>2022-02-19T08:07:02Z</time>
      </trkpt>
      <trkpt lat="45.09183" lon="5.6188">
        <ele>1877.59</ele>
        <time>2022-02-19T08:07:29Z</time>
      </trkpt>
      <trkpt lat="45.09181" lon="5.61881">
        <ele>1877.59</ele>
        <time>2022-02-19T08:08:04Z</time>
      </trkpt>
      <trkpt lat="45.09182" lon="5.6188">
        <ele>1877.11</ele>
        <time>2022-02-19T08:08:23Z</time>
      </trkpt>
      <trkpt lat="45.09185" lon="5.6188">
        <ele>1878.55</ele>
        <time>2022-02-19T08:08:29Z</time>
      </trkpt>
      <trkpt lat="45.09183" lon="5.61888">
        <ele>1879.51</ele>
        <time>2022-02-19T08:08:46Z</time>
      </trkpt>
      <trkpt lat="45.09177" lon="5.61897">
        <ele>1880.96</ele>
        <time>2022-02-19T08:09:01Z</time>
      </trkpt>
      <trkpt lat="45.09172" lon="5.61908">
        <ele>1883.36</ele>
        <time>2022-02-19T08:09:18Z</time>
      </trkpt>
      <trkpt lat="45.09167" lon="5.61917">
        <ele>1886.72</ele>
        <time>2022-02-19T08:09:35Z</time>
      </trkpt>
      <trkpt lat="45.09163" lon="5.61926">
        <ele>1888.17</ele>
        <time>2022-02-19T08:09:51Z</time>
      </trkpt>
      <trkpt lat="45.09154" lon="5.61931">
        <ele>1891.05</ele>
        <time>2022-02-19T08:10:06Z</time>
      </trkpt>
      <trkpt lat="45.09146" lon="5.61938">
        <ele>1892.97</ele>
        <time>2022-02-19T08:10:23Z</time>
      </trkpt>
      <trkpt lat="45.09137" lon="5.6194">
        <ele>1895.38</ele>
        <time>2022-02-19T08:10:43Z</time>
      </trkpt>
      <trkpt lat="45.0913" lon="5.61942">
        <ele>1898.74</ele>
        <time>2022-02-19T08:11:02Z</time>
      </trkpt>
      <trkpt lat="45.09128" lon="5.61942">
        <ele>1899.22</ele>
        <time>2022-02-19T08:11:18Z</time>
      </trkpt>
      <trkpt lat="45.09127" lon="5.61942">
        <ele>1899.22</ele>
        <time>2022-02-19T08:11:36Z</time>
      </trkpt>
      <trkpt lat="45.09127" lon="5.61941">
        <ele>1898.26</ele>
        <time>2022-02-19T08:11:40Z</time>
      </trkpt>
      <trkpt lat="45.09126" lon="5.61942">
        <ele>1898.26</ele>
        <time>2022-02-19T08:12:14Z</time>
      </trkpt>
      <trkpt lat="45.09126" lon="5.61939">
        <ele>1898.26</ele>
        <time>2022-02-19T08:13:02Z</time>
      </trkpt>
      <trkpt lat="45.09127" lon="5.61942">
        <ele>1899.7</ele>
        <time>2022-02-19T08:13:13Z</time>
      </trkpt>
      <trkpt lat="45.09127" lon="5.61942">
        <ele>1899.22</ele>
        <time>2022-02-19T08:13:33Z</time>
      </trkpt>
      <trkpt lat="45.09125" lon="5.61943">
        <ele>1900.66</ele>
        <time>2022-02-19T08:13:43Z</time>
      </trkpt>
      <trkpt lat="45.09117" lon="5.61942">
        <ele>1903.55</ele>
        <time>2022-02-19T08:14:02Z</time>
      </trkpt>
      <trkpt lat="45.09107" lon="5.61942">
        <ele>1906.43</ele>
        <time>2022-02-19T08:14:23Z</time>
      </trkpt>
      <trkpt lat="45.09106" lon="5.61947">
        <ele>1908.35</ele>
        <time>2022-02-19T08:14:40Z</time>
      </trkpt>
      <trkpt lat="45.09108" lon="5.61957">
        <ele>1910.76</ele>
        <time>2022-02-19T08:14:58Z</time>
      </trkpt>
      <trkpt lat="45.09107" lon="5.61958">
        <ele>1911.72</ele>
        <time>2022-02-19T08:15:18Z</time>
      </trkpt>
      <trkpt lat="45.09098" lon="5.61954">
        <ele>1913.64</ele>
        <time>2022-02-19T08:15:35Z</time>
      </trkpt>
      <trkpt lat="45.09093" lon="5.61956">
        <ele>1916.04</ele>
        <time>2022-02-19T08:15:48Z</time>
      </trkpt>
      <trkpt lat="45.09089" lon="5.61959">
        <ele>1916.53</ele>
        <time>2022-02-19T08:16:03Z</time>
      </trkpt>
      <trkpt lat="45.09082" lon="5.61962">
        <ele>1919.89</ele>
        <time>2022-02-19T08:16:19Z</time>
      </trkpt>
      <trkpt lat="45.0908" lon="5.61959">
        <ele>1920.37</ele>
        <time>2022-02-19T08:16:38Z</time>
      </trkpt>
      <trkpt lat="45.0908" lon="5.61963">
        <ele>1922.77</ele>
        <time>2022-02-19T08:16:55Z</time>
      </trkpt>
      <trkpt lat="45.09083" lon="5.6197">
        <ele>1924.22</ele>
        <time>2022-02-19T08:17:11Z</time>
      </trkpt>
      <trkpt lat="45.09088" lon="5.61979">
        <ele>1927.1</ele>
        <time>2022-02-19T08:17:29Z</time>
      </trkpt>
      <trkpt lat="45.09092" lon="5.61988">
        <ele>1929.02</ele>
        <time>2022-02-19T08:17:49Z</time>
      </trkpt>
      <trkpt lat="45.09092" lon="5.61989">
        <ele>1929.98</ele>
        <time>2022-02-19T08:18:05Z</time>
      </trkpt>
      <trkpt lat="45.09087" lon="5.61987">
        <ele>1931.91</ele>
        <time>2022-02-19T08:18:20Z</time>
      </trkpt>
      <trkpt lat="45.09081" lon="5.61982">
        <ele>1933.35</ele>
        <time>2022-02-19T08:18:37Z</time>
      </trkpt>
      <trkpt lat="45.0908" lon="5.61982">
        <ele>1931.91</ele>
        <time>2022-02-19T08:18:39Z</time>
      </trkpt>
      <trkpt lat="45.09079" lon="5.61981">
        <ele>1933.35</ele>
        <time>2022-02-19T08:18:42Z</time>
      </trkpt>
      <trkpt lat="45.0907" lon="5.61978">
        <ele>1936.23</ele>
        <time>2022-02-19T08:19:02Z</time>
      </trkpt>
      <trkpt lat="45.09067" lon="5.61974">
        <ele>1936.71</ele>
        <time>2022-02-19T08:19:23Z</time>
      </trkpt>
      <trkpt lat="45.0906" lon="5.61969">
        <ele>1937.67</ele>
        <time>2022-02-19T08:19:41Z</time>
      </trkpt>
      <trkpt lat="45.0905" lon="5.61962">
        <ele>1939.6</ele>
        <time>2022-02-19T08:20:01Z</time>
      </trkpt>
      <trkpt lat="45.09039" lon="5.61955">
        <ele>1940.08</ele>
        <time>2022-02-19T08:20:21Z</time>
      </trkpt>
      <trkpt lat="45.09037" lon="5.61956">
        <ele>1941.52</ele>
        <time>2022-02-19T08:20:26Z</time>
      </trkpt>
      <trkpt lat="45.09027" lon="5.61955">
        <ele>1944.4</ele>
        <time>2022-02-19T08:20:45Z</time>
      </trkpt>
      <trkpt lat="45.09018" lon="5.61954">
        <ele>1945.85</ele>
        <time>2022-02-19T08:21:02Z</time>
      </trkpt>
      <trkpt lat="45.0901" lon="5.61953">
        <ele>1948.25</ele>
        <time>2022-02-19T08:21:19Z</time>
      </trkpt>
      <trkpt lat="45.09003" lon="5.61956">
        <ele>1951.13</ele>
        <time>2022-02-19T08:21:35Z</time>
      </trkpt>
      <trkpt lat="45.09005" lon="5.61957">
        <ele>1951.13</ele>
        <time>2022-02-19T08:21:53Z</time>
      </trkpt>
      <trkpt lat="45.09005" lon="5.61963">
        <ele>1953.06</ele>
        <time>2022-02-19T08:22:14Z</time>
      </trkpt>
      <trkpt lat="45.09003" lon="5.61969">
        <ele>1954.98</ele>
        <time>2022-02-19T08:22:29Z</time>
      </trkpt>
      <trkpt lat="45.09005" lon="5.61973">
        <ele>1956.42</ele>
        <time>2022-02-19T08:22:38Z</time>
      </trkpt>
      <trkpt lat="45.09004" lon="5.61984">
        <ele>1958.34</ele>
        <time>2022-02-19T08:22:55Z</time>
      </trkpt>
      <trkpt lat="45.09006" lon="5.61989">
        <ele>1960.75</ele>
        <time>2022-02-19T08:23:11Z</time>
      </trkpt>
      <trkpt lat="45.09011" lon="5.61997">
        <ele>1963.63</ele>
        <time>2022-02-19T08:23:29Z</time>
      </trkpt>
      <trkpt lat="45.0901" lon="5.62">
        <ele>1965.07</ele>
        <time>2022-02-19T08:23:37Z</time>
      </trkpt>
      <trkpt lat="45.0901" lon="5.62001">
        <ele>1964.11</ele>
        <time>2022-02-19T08:23:56Z</time>
      </trkpt>
      <trkpt lat="45.0901" lon="5.62001">
        <ele>1964.59</ele>
        <time>2022-02-19T08:24:16Z</time>
      </trkpt>
      <trkpt lat="45.0901" lon="5.62002">
        <ele>1965.55</ele>
        <time>2022-02-19T08:24:55Z</time>
      </trkpt>
      <trkpt lat="45.0901" lon="5.62002">
        <ele>1965.55</ele>
        <time>2022-02-19T08:24:56Z</time>
      </trkpt>
      <trkpt lat="45.09012" lon="5.61999">
        <ele>1964.59</ele>
        <time>2022-02-19T08:25:35Z</time>
      </trkpt>
      <trkpt lat="45.09011" lon="5.62001">
        <ele>1964.59</ele>
        <time>2022-02-19T08:26:10Z</time>
      </trkpt>
      <trkpt lat="45.0901" lon="5.62">
        <ele>1964.11</ele>
        <time>2022-02-19T08:26:36Z</time>
      </trkpt>
      <trkpt lat="45.09009" lon="5.62001">
        <ele>1964.11</ele>
        <time>2022-02-19T08:27:21Z</time>
      </trkpt>
      <trkpt lat="45.09009" lon="5.62">
        <ele>1964.59</ele>
        <time>2022-02-19T08:27:50Z</time>
      </trkpt>
      <trkpt lat="45.0901" lon="5.62001">
        <ele>1964.59</ele>
        <time>2022-02-19T08:28:27Z</time>
      </trkpt>
      <trkpt lat="45.09009" lon="5.62">
        <ele>1964.59</ele>
        <time>2022-02-19T08:29:05Z</time>
      </trkpt>
      <trkpt lat="45.0901" lon="5.62001">
        <ele>1964.11</ele>
        <time>2022-02-19T08:29:26Z</time>
      </trkpt>
      <trkpt lat="45.0901" lon="5.62">
        <ele>1964.59</ele>
        <time>2022-02-19T08:29:44Z</time>
      </trkpt>
      <trkpt lat="45.0901" lon="5.62001">
        <ele>1965.07</ele>
        <time>2022-02-19T08:29:48Z</time>
      </trkpt>
      <trkpt lat="45.0901" lon="5.62001">
        <ele>1964.59</ele>
        <time>2022-02-19T08:30:13Z</time>
      </trkpt>
      <trkpt lat="45.0901" lon="5.61998">
        <ele>1964.11</ele>
        <time>2022-02-19T08:30:26Z</time>
      </trkpt>
      <trkpt lat="45.09008" lon="5.61993">
        <ele>1962.67</ele>
        <time>2022-02-19T08:30:35Z</time>
      </trkpt>
      <trkpt lat="45.09011" lon="5.61995">
        <ele>1962.67</ele>
        <time>2022-02-19T08:30:57Z</time>
      </trkpt>
      <trkpt lat="45.09009" lon="5.61993">
        <ele>1964.11</ele>
        <time>2022-02-19T08:31:13Z</time>
      </trkpt>
      <trkpt lat="45.09007" lon="5.61989">
        <ele>1963.63</ele>
        <time>2022-02-19T08:31:25Z</time>
      </trkpt>
      <trkpt lat="45.09004" lon="5.61985">
        <ele>1960.75</ele>
        <time>2022-02-19T08:31:34Z</time>
      </trkpt>
      <trkpt lat="45.09003" lon="5.61981">
        <ele>1957.86</ele>
        <time>2022-02-19T08:31:42Z</time>
      </trkpt>
      <trkpt lat="45.09003" lon="5.6198">
        <ele>1960.27</ele>
        <time>2022-02-19T08:31:45Z</time>
      </trkpt>
      <trkpt lat="45.09004" lon="5.61978">
        <ele>1955.94</ele>
        <time>2022-02-19T08:31:49Z</time>
      </trkpt>
      <trkpt lat="45.09004" lon="5.61977">
        <ele>1955.94</ele>
        <time>2022-02-19T08:31:50Z</time>
      </trkpt>
      <trkpt lat="45.09004" lon="5.61973">
        <ele>1957.38</ele>
        <time>2022-02-19T08:31:54Z</time>
      </trkpt>
      <trkpt lat="45.09004" lon="5.6197">
        <ele>1955.46</ele>
        <time>2022-02-19T08:32:08Z</time>
      </trkpt>
      <trkpt lat="45.09005" lon="5.6197">
        <ele>1955.46</ele>
        <time>2022-02-19T08:32:09Z</time>
      </trkpt>
      <trkpt lat="45.08995" lon="5.61967">
        <ele>1953.54</ele>
        <time>2022-02-19T08:32:24Z</time>
      </trkpt>
      <trkpt lat="45.08994" lon="5.61967">
        <ele>1951.61</ele>
        <time>2022-02-19T08:32:40Z</time>
      </trkpt>
      <trkpt lat="45.08993" lon="5.61966">
        <ele>1952.09</ele>
        <time>2022-02-19T08:33:17Z</time>
      </trkpt>
      <trkpt lat="45.08993" lon="5.61966">
        <ele>1952.09</ele>
        <time>2022-02-19T08:33:47Z</time>
      </trkpt>
      <trkpt lat="45.08994" lon="5.61967">
        <ele>1952.09</ele>
        <time>2022-02-19T08:34:22Z</time>
      </trkpt>
      <trkpt lat="45.08994" lon="5.61967">
        <ele>1952.09</ele>
        <time>2022-02-19T08:35:01Z</time>
      </trkpt>
      <trkpt lat="45.08994" lon="5.61967">
        <ele>1953.06</ele>
        <time>2022-02-19T08:35:38Z</time>
      </trkpt>
      <trkpt lat="45.08993" lon="5.61966">
        <ele>1953.54</ele>
        <time>2022-02-19T08:36:08Z</time>
      </trkpt>
      <trkpt lat="45.08993" lon="5.61965">
        <ele>1953.54</ele>
        <time>2022-02-19T08:36:23Z</time>
      </trkpt>
      <trkpt lat="45.08994" lon="5.61965">
        <ele>1954.02</ele>
        <time>2022-02-19T08:36:46Z</time>
      </trkpt>
      <trkpt lat="45.08994" lon="5.61965">
        <ele>1953.06</ele>
        <time>2022-02-19T08:36:52Z</time>
      </trkpt>
      <trkpt lat="45.08994" lon="5.61967">
        <ele>1952.09</ele>
        <time>2022-02-19T08:37:25Z</time>
      </trkpt>
      <trkpt lat="45.08994" lon="5.61966">
        <ele>1952.57</ele>
        <time>2022-02-19T08:37:53Z</time>
      </trkpt>
      <trkpt lat="45.08994" lon="5.61967">
        <ele>1953.54</ele>
        <time>2022-02-19T08:38:16Z</time>
      </trkpt>
      <trkpt lat="45.08995" lon="5.61968">
        <ele>1954.5</ele>
        <time>2022-02-19T08:38:38Z</time>
      </trkpt>
      <trkpt lat="45.08996" lon="5.61969">
        <ele>1954.5</ele>
        <time>2022-02-19T08:39:02Z</time>
      </trkpt>
      <trkpt lat="45.08993" lon="5.61967">
        <ele>1954.02</ele>
        <time>2022-02-19T08:39:22Z</time>
      </trkpt>
      <trkpt lat="45.08993" lon="5.61967">
        <ele>1955.46</ele>
        <time>2022-02-19T08:39:29Z</time>
      </trkpt>
      <trkpt lat="45.08994" lon="5.61966">
        <ele>1954.02</ele>
        <time>2022-02-19T08:39:53Z</time>
      </trkpt>
      <trkpt lat="45.08994" lon="5.61966">
        <ele>1955.46</ele>
        <time>2022-02-19T08:39:56Z</time>
      </trkpt>
      <trkpt lat="45.08993" lon="5.61967">
        <ele>1955.46</ele>
        <time>2022-02-19T08:39:58Z</time>
      </trkpt>
      <trkpt lat="45.0899" lon="5.61967">
        <ele>1955.46</ele>
        <time>2022-02-19T08:40:00Z</time>
      </trkpt>
      <trkpt lat="45.08987" lon="5.61967">
        <ele>1954.02</ele>
        <time>2022-02-19T08:40:01Z</time>
      </trkpt>
      <trkpt lat="45.08984" lon="5.61966">
        <ele>1953.06</ele>
        <time>2022-02-19T08:40:02Z</time>
      </trkpt>
      <trkpt lat="45.08981" lon="5.61965">
        <ele>1952.09</ele>
        <time>2022-02-19T08:40:03Z</time>
      </trkpt>
      <trkpt lat="45.08977" lon="5.61966">
        <ele>1951.61</ele>
        <time>2022-02-19T08:40:04Z</time>
      </trkpt>
      <trkpt lat="45.08973" lon="5.61966">
        <ele>1951.13</ele>
        <time>2022-02-19T08:40:05Z</time>
      </trkpt>
      <trkpt lat="45.0897" lon="5.61967">
        <ele>1950.65</ele>
        <time>2022-02-19T08:40:06Z</time>
      </trkpt>
      <trkpt lat="45.08966" lon="5.61969">
        <ele>1950.65</ele>
        <time>2022-02-19T08:40:07Z</time>
      </trkpt>
      <trkpt lat="45.0895" lon="5.61977">
        <ele>1950.65</ele>
        <time>2022-02-19T08:40:15Z</time>
      </trkpt>
      <trkpt lat="45.08948" lon="5.61975">
        <ele>1950.17</ele>
        <time>2022-02-19T08:40:16Z</time>
      </trkpt>
      <trkpt lat="45.08948" lon="5.61971">
        <ele>1948.25</ele>
        <time>2022-02-19T08:40:17Z</time>
      </trkpt>
      <trkpt lat="45.08948" lon="5.61968">
        <ele>1946.81</ele>
        <time>2022-02-19T08:40:18Z</time>
      </trkpt>
      <trkpt lat="45.08949" lon="5.61966">
        <ele>1946.33</ele>
        <time>2022-02-19T08:40:19Z</time>
      </trkpt>
      <trkpt lat="45.0895" lon="5.61964">
        <ele>1946.33</ele>
        <time>2022-02-19T08:40:20Z</time>
      </trkpt>
      <trkpt lat="45.0895" lon="5.61962">
        <ele>1946.33</ele>
        <time>2022-02-19T08:40:21Z</time>
      </trkpt>
      <trkpt lat="45.0895" lon="5.6196">
        <ele>1946.33</ele>
        <time>2022-02-19T08:40:22Z</time>
      </trkpt>
      <trkpt lat="45.08948" lon="5.61959">
        <ele>1946.33</ele>
        <time>2022-02-19T08:40:23Z</time>
      </trkpt>
      <trkpt lat="45.08946" lon="5.6196">
        <ele>1946.33</ele>
        <time>2022-02-19T08:40:24Z</time>
      </trkpt>
      <trkpt lat="45.08944" lon="5.61962">
        <ele>1945.36</ele>
        <time>2022-02-19T08:40:25Z</time>
      </trkpt>
      <trkpt lat="45.08941" lon="5.61963">
        <ele>1945.36</ele>
        <time>2022-02-19T08:40:26Z</time>
      </trkpt>
      <trkpt lat="45.08939" lon="5.6196">
        <ele>1943.92</ele>
        <time>2022-02-19T08:40:27Z</time>
      </trkpt>
      <trkpt lat="45.08939" lon="5.61951">
        <ele>1941.52</ele>
        <time>2022-02-19T08:40:30Z</time>
      </trkpt>
      <trkpt lat="45.08941" lon="5.61945">
        <ele>1940.08</ele>
        <time>2022-02-19T08:40:32Z</time>
      </trkpt>
      <trkpt lat="45.08942" lon="5.61943">
        <ele>1941.04</ele>
        <time>2022-02-19T08:40:33Z</time>
      </trkpt>
      <trkpt lat="45.08945" lon="5.61936">
        <ele>1939.6</ele>
        <time>2022-02-19T08:40:36Z</time>
      </trkpt>
      <trkpt lat="45.08937" lon="5.61922">
        <ele>1932.39</ele>
        <time>2022-02-19T08:40:42Z</time>
      </trkpt>
      <trkpt lat="45.08938" lon="5.61917">
        <ele>1932.39</ele>
        <time>2022-02-19T08:40:43Z</time>
      </trkpt>
      <trkpt lat="45.08942" lon="5.61911">
        <ele>1931.43</ele>
        <time>2022-02-19T08:40:46Z</time>
      </trkpt>
      <trkpt lat="45.0895" lon="5.619">
        <ele>1929.02</ele>
        <time>2022-02-19T08:40:51Z</time>
      </trkpt>
      <trkpt lat="45.08954" lon="5.61895">
        <ele>1929.02</ele>
        <time>2022-02-19T08:40:53Z</time>
      </trkpt>
      <trkpt lat="45.08952" lon="5.61887">
        <ele>1926.62</ele>
        <time>2022-02-19T08:40:57Z</time>
      </trkpt>
      <trkpt lat="45.0894" lon="5.61892">
        <ele>1925.18</ele>
        <time>2022-02-19T08:41:00Z</time>
      </trkpt>
      <trkpt lat="45.08931" lon="5.61898">
        <ele>1923.25</ele>
        <time>2022-02-19T08:41:03Z</time>
      </trkpt>
      <trkpt lat="45.08926" lon="5.61899">
        <ele>1923.25</ele>
        <time>2022-02-19T08:41:05Z</time>
      </trkpt>
      <trkpt lat="45.08922" lon="5.61889">
        <ele>1919.41</ele>
        <time>2022-02-19T08:41:08Z</time>
      </trkpt>
      <trkpt lat="45.08921" lon="5.61884">
        <ele>1918.45</ele>
        <time>2022-02-19T08:41:09Z</time>
      </trkpt>
      <trkpt lat="45.08928" lon="5.61871">
        <ele>1917.49</ele>
        <time>2022-02-19T08:41:13Z</time>
      </trkpt>
      <trkpt lat="45.08915" lon="5.61865">
        <ele>1915.08</ele>
        <time>2022-02-19T08:41:19Z</time>
      </trkpt>
      <trkpt lat="45.08914" lon="5.61858">
        <ele>1910.76</ele>
        <time>2022-02-19T08:41:21Z</time>
      </trkpt>
      <trkpt lat="45.08914" lon="5.6185">
        <ele>1909.8</ele>
        <time>2022-02-19T08:41:23Z</time>
      </trkpt>
      <trkpt lat="45.08919" lon="5.61839">
        <ele>1906.91</ele>
        <time>2022-02-19T08:41:28Z</time>
      </trkpt>
      <trkpt lat="45.08917" lon="5.61838">
        <ele>1906.91</ele>
        <time>2022-02-19T08:41:29Z</time>
      </trkpt>
      <trkpt lat="45.08915" lon="5.61832">
        <ele>1906.91</ele>
        <time>2022-02-19T08:41:32Z</time>
      </trkpt>
      <trkpt lat="45.08915" lon="5.61828">
        <ele>1904.03</ele>
        <time>2022-02-19T08:41:34Z</time>
      </trkpt>
      <trkpt lat="45.08923" lon="5.61824">
        <ele>1903.55</ele>
        <time>2022-02-19T08:41:36Z</time>
      </trkpt>
      <trkpt lat="45.08917" lon="5.61816">
        <ele>1901.14</ele>
        <time>2022-02-19T08:41:40Z</time>
      </trkpt>
      <trkpt lat="45.08916" lon="5.61809">
        <ele>1900.18</ele>
        <time>2022-02-19T08:41:44Z</time>
      </trkpt>
      <trkpt lat="45.08914" lon="5.61799">
        <ele>1898.26</ele>
        <time>2022-02-19T08:41:48Z</time>
      </trkpt>
      <trkpt lat="45.08922" lon="5.61797">
        <ele>1895.38</ele>
        <time>2022-02-19T08:41:53Z</time>
      </trkpt>
      <trkpt lat="45.08936" lon="5.61798">
        <ele>1894.9</ele>
        <time>2022-02-19T08:41:56Z</time>
      </trkpt>
      <trkpt lat="45.08938" lon="5.61787">
        <ele>1892.01</ele>
        <time>2022-02-19T08:42:01Z</time>
      </trkpt>
      <trkpt lat="45.08929" lon="5.61783">
        <ele>1891.05</ele>
        <time>2022-02-19T08:42:04Z</time>
      </trkpt>
      <trkpt lat="45.08931" lon="5.61771">
        <ele>1887.69</ele>
        <time>2022-02-19T08:42:08Z</time>
      </trkpt>
      <trkpt lat="45.08931" lon="5.61763">
        <ele>1883.36</ele>
        <time>2022-02-19T08:42:11Z</time>
      </trkpt>
      <trkpt lat="45.0894" lon="5.6176">
        <ele>1880.96</ele>
        <time>2022-02-19T08:42:14Z</time>
      </trkpt>
      <trkpt lat="45.08942" lon="5.61756">
        <ele>1878.07</ele>
        <time>2022-02-19T08:42:17Z</time>
      </trkpt>
      <trkpt lat="45.08938" lon="5.61753">
        <ele>1878.07</ele>
        <time>2022-02-19T08:42:18Z</time>
      </trkpt>
      <trkpt lat="45.08934" lon="5.61749">
        <ele>1877.11</ele>
        <time>2022-02-19T08:42:20Z</time>
      </trkpt>
      <trkpt lat="45.0894" lon="5.61736">
        <ele>1872.79</ele>
        <time>2022-02-19T08:42:24Z</time>
      </trkpt>
      <trkpt lat="45.08943" lon="5.61735">
        <ele>1873.27</ele>
        <time>2022-02-19T08:42:25Z</time>
      </trkpt>
      <trkpt lat="45.08955" lon="5.61724">
        <ele>1867.98</ele>
        <time>2022-02-19T08:42:30Z</time>
      </trkpt>
      <trkpt lat="45.08961" lon="5.61717">
        <ele>1865.58</ele>
        <time>2022-02-19T08:42:32Z</time>
      </trkpt>
      <trkpt lat="45.08959" lon="5.61697">
        <ele>1861.25</ele>
        <time>2022-02-19T08:42:39Z</time>
      </trkpt>
      <trkpt lat="45.08958" lon="5.61691">
        <ele>1859.33</ele>
        <time>2022-02-19T08:42:41Z</time>
      </trkpt>
      <trkpt lat="45.08953" lon="5.61687">
        <ele>1856.92</ele>
        <time>2022-02-19T08:42:44Z</time>
      </trkpt>
      <trkpt lat="45.08946" lon="5.61687">
        <ele>1855.48</ele>
        <time>2022-02-19T08:42:47Z</time>
      </trkpt>
      <trkpt lat="45.08945" lon="5.61687">
        <ele>1857.89</ele>
        <time>2022-02-19T08:42:49Z</time>
      </trkpt>
      <trkpt lat="45.08944" lon="5.61688">
        <ele>1857.89</ele>
        <time>2022-02-19T08:42:59Z</time>
      </trkpt>
      <trkpt lat="45.08938" lon="5.61683">
        <ele>1855.96</ele>
        <time>2022-02-19T08:43:03Z</time>
      </trkpt>
      <trkpt lat="45.08926" lon="5.61679">
        <ele>1854.52</ele>
        <time>2022-02-19T08:43:08Z</time>
      </trkpt>
      <trkpt lat="45.08924" lon="5.61673">
        <ele>1855.96</ele>
        <time>2022-02-19T08:43:10Z</time>
      </trkpt>
      <trkpt lat="45.08924" lon="5.61664">
        <ele>1850.68</ele>
        <time>2022-02-19T08:43:12Z</time>
      </trkpt>
      <trkpt lat="45.08926" lon="5.6166">
        <ele>1851.16</ele>
        <time>2022-02-19T08:43:13Z</time>
      </trkpt>
      <trkpt lat="45.08922" lon="5.61653">
        <ele>1847.31</ele>
        <time>2022-02-19T08:43:16Z</time>
      </trkpt>
      <trkpt lat="45.0892" lon="5.61645">
        <ele>1844.43</ele>
        <time>2022-02-19T08:43:18Z</time>
      </trkpt>
      <trkpt lat="45.08922" lon="5.61639">
        <ele>1843.47</ele>
        <time>2022-02-19T08:43:20Z</time>
      </trkpt>
      <trkpt lat="45.08919" lon="5.6164">
        <ele>1841.54</ele>
        <time>2022-02-19T08:43:24Z</time>
      </trkpt>
      <trkpt lat="45.08924" lon="5.61631">
        <ele>1837.22</ele>
        <time>2022-02-19T08:43:27Z</time>
      </trkpt>
      <trkpt lat="45.08926" lon="5.61627">
        <ele>1837.22</ele>
        <time>2022-02-19T08:43:28Z</time>
      </trkpt>
      <trkpt lat="45.0892" lon="5.6162">
        <ele>1834.81</ele>
        <time>2022-02-19T08:43:33Z</time>
      </trkpt>
      <trkpt lat="45.08908" lon="5.61604">
        <ele>1831.93</ele>
        <time>2022-02-19T08:43:38Z</time>
      </trkpt>
      <trkpt lat="45.08913" lon="5.61575">
        <ele>1830.01</ele>
        <time>2022-02-19T08:43:46Z</time>
      </trkpt>
      <trkpt lat="45.08911" lon="5.61569">
        <ele>1828.08</ele>
        <time>2022-02-19T08:43:47Z</time>
      </trkpt>
      <trkpt lat="45.08901" lon="5.61539">
        <ele>1829.05</ele>
        <time>2022-02-19T08:43:54Z</time>
      </trkpt>
      <trkpt lat="45.08901" lon="5.61535">
        <ele>1826.16</ele>
        <time>2022-02-19T08:43:55Z</time>
      </trkpt>
      <trkpt lat="45.089" lon="5.6152">
        <ele>1822.8</ele>
        <time>2022-02-19T08:44:02Z</time>
      </trkpt>
      <trkpt lat="45.08891" lon="5.61507">
        <ele>1821.35</ele>
        <time>2022-02-19T08:44:07Z</time>
      </trkpt>
      <trkpt lat="45.08885" lon="5.61497">
        <ele>1821.35</ele>
        <time>2022-02-19T08:44:10Z</time>
      </trkpt>
      <trkpt lat="45.08885" lon="5.61489">
        <ele>1818.95</ele>
        <time>2022-02-19T08:44:13Z</time>
      </trkpt>
      <trkpt lat="45.08886" lon="5.61488">
        <ele>1817.99</ele>
        <time>2022-02-19T08:44:14Z</time>
      </trkpt>
      <trkpt lat="45.08899" lon="5.61486">
        <ele>1815.59</ele>
        <time>2022-02-19T08:44:18Z</time>
      </trkpt>
      <trkpt lat="45.08904" lon="5.61478">
        <ele>1812.7</ele>
        <time>2022-02-19T08:44:21Z</time>
      </trkpt>
      <trkpt lat="45.08919" lon="5.61478">
        <ele>1810.78</ele>
        <time>2022-02-19T08:44:25Z</time>
      </trkpt>
      <trkpt lat="45.08915" lon="5.61454">
        <ele>1806.94</ele>
        <time>2022-02-19T08:44:31Z</time>
      </trkpt>
      <trkpt lat="45.08919" lon="5.61454">
        <ele>1806.45</ele>
        <time>2022-02-19T08:44:33Z</time>
      </trkpt>
      <trkpt lat="45.08921" lon="5.61451">
        <ele>1805.01</ele>
        <time>2022-02-19T08:44:34Z</time>
      </trkpt>
      <trkpt lat="45.08924" lon="5.61445">
        <ele>1803.09</ele>
        <time>2022-02-19T08:44:36Z</time>
      </trkpt>
      <trkpt lat="45.0893" lon="5.61447">
        <ele>1800.21</ele>
        <time>2022-02-19T08:44:40Z</time>
      </trkpt>
      <trkpt lat="45.08931" lon="5.61448">
        <ele>1802.61</ele>
        <time>2022-02-19T08:44:41Z</time>
      </trkpt>
      <trkpt lat="45.0893" lon="5.61448">
        <ele>1802.61</ele>
        <time>2022-02-19T08:44:59Z</time>
      </trkpt>
      <trkpt lat="45.08933" lon="5.61443">
        <ele>1799.73</ele>
        <time>2022-02-19T08:45:01Z</time>
      </trkpt>
      <trkpt lat="45.08933" lon="5.61436">
        <ele>1798.28</ele>
        <time>2022-02-19T08:45:03Z</time>
      </trkpt>
      <trkpt lat="45.08945" lon="5.61436">
        <ele>1793.96</ele>
        <time>2022-02-19T08:45:08Z</time>
      </trkpt>
      <trkpt lat="45.08949" lon="5.61428">
        <ele>1789.63</ele>
        <time>2022-02-19T08:45:11Z</time>
      </trkpt>
      <trkpt lat="45.08948" lon="5.61424">
        <ele>1789.63</ele>
        <time>2022-02-19T08:45:12Z</time>
      </trkpt>
      <trkpt lat="45.08946" lon="5.61423">
        <ele>1789.63</ele>
        <time>2022-02-19T08:45:24Z</time>
      </trkpt>
      <trkpt lat="45.08945" lon="5.61423">
        <ele>1789.15</ele>
        <time>2022-02-19T08:45:30Z</time>
      </trkpt>
      <trkpt lat="45.0895" lon="5.6141">
        <ele>1785.79</ele>
        <time>2022-02-19T08:45:35Z</time>
      </trkpt>
      <trkpt lat="45.08951" lon="5.61399">
        <ele>1782.9</ele>
        <time>2022-02-19T08:45:37Z</time>
      </trkpt>
      <trkpt lat="45.0895" lon="5.61394">
        <ele>1782.9</ele>
        <time>2022-02-19T08:45:38Z</time>
      </trkpt>
      <trkpt lat="45.08954" lon="5.61392">
        <ele>1778.58</ele>
        <time>2022-02-19T08:45:40Z</time>
      </trkpt>
      <trkpt lat="45.08961" lon="5.61388">
        <ele>1774.73</ele>
        <time>2022-02-19T08:45:43Z</time>
      </trkpt>
      <trkpt lat="45.0896" lon="5.61379">
        <ele>1773.29</ele>
        <time>2022-02-19T08:45:45Z</time>
      </trkpt>
      <trkpt lat="45.08957" lon="5.61375">
        <ele>1772.81</ele>
        <time>2022-02-19T08:45:46Z</time>
      </trkpt>
      <trkpt lat="45.08949" lon="5.61354">
        <ele>1771.37</ele>
        <time>2022-02-19T08:45:51Z</time>
      </trkpt>
      <trkpt lat="45.08948" lon="5.61341">
        <ele>1769.92</ele>
        <time>2022-02-19T08:45:53Z</time>
      </trkpt>
      <trkpt lat="45.08951" lon="5.61326">
        <ele>1765.6</ele>
        <time>2022-02-19T08:46:00Z</time>
      </trkpt>
      <trkpt lat="45.08954" lon="5.61324">
        <ele>1763.68</ele>
        <time>2022-02-19T08:46:01Z</time>
      </trkpt>
      <trkpt lat="45.08958" lon="5.61314">
        <ele>1760.79</ele>
        <time>2022-02-19T08:46:05Z</time>
      </trkpt>
      <trkpt lat="45.08964" lon="5.61314">
        <ele>1755.5</ele>
        <time>2022-02-19T08:46:09Z</time>
      </trkpt>
      <trkpt lat="45.08968" lon="5.61304">
        <ele>1752.14</ele>
        <time>2022-02-19T08:46:12Z</time>
      </trkpt>
      <trkpt lat="45.08969" lon="5.61299">
        <ele>1752.14</ele>
        <time>2022-02-19T08:46:13Z</time>
      </trkpt>
      <trkpt lat="45.08969" lon="5.61289">
        <ele>1750.7</ele>
        <time>2022-02-19T08:46:15Z</time>
      </trkpt>
      <trkpt lat="45.08969" lon="5.61279">
        <ele>1750.7</ele>
        <time>2022-02-19T08:46:17Z</time>
      </trkpt>
      <trkpt lat="45.08966" lon="5.61267">
        <ele>1750.22</ele>
        <time>2022-02-19T08:46:29Z</time>
      </trkpt>
      <trkpt lat="45.08961" lon="5.61257">
        <ele>1748.29</ele>
        <time>2022-02-19T08:46:57Z</time>
      </trkpt>
      <trkpt lat="45.08953" lon="5.61242">
        <ele>1745.89</ele>
        <time>2022-02-19T08:47:00Z</time>
      </trkpt>
      <trkpt lat="45.08941" lon="5.6122">
        <ele>1743.97</ele>
        <time>2022-02-19T08:47:05Z</time>
      </trkpt>
      <trkpt lat="45.08942" lon="5.61213">
        <ele>1739.64</ele>
        <time>2022-02-19T08:47:09Z</time>
      </trkpt>
      <trkpt lat="45.08941" lon="5.61203">
        <ele>1736.76</ele>
        <time>2022-02-19T08:47:12Z</time>
      </trkpt>
      <trkpt lat="45.08947" lon="5.61196">
        <ele>1733.39</ele>
        <time>2022-02-19T08:47:15Z</time>
      </trkpt>
      <trkpt lat="45.08952" lon="5.61198">
        <ele>1731.47</ele>
        <time>2022-02-19T08:47:17Z</time>
      </trkpt>
      <trkpt lat="45.08954" lon="5.61188">
        <ele>1727.63</ele>
        <time>2022-02-19T08:47:21Z</time>
      </trkpt>
      <trkpt lat="45.08952" lon="5.61184">
        <ele>1727.15</ele>
        <time>2022-02-19T08:47:22Z</time>
      </trkpt>
      <trkpt lat="45.08955" lon="5.6117">
        <ele>1721.86</ele>
        <time>2022-02-19T08:47:26Z</time>
      </trkpt>
      <trkpt lat="45.0897" lon="5.61174">
        <ele>1718.49</ele>
        <time>2022-02-19T08:47:30Z</time>
      </trkpt>
      <trkpt lat="45.08974" lon="5.61173">
        <ele>1715.13</ele>
        <time>2022-02-19T08:47:31Z</time>
      </trkpt>
      <trkpt lat="45.08978" lon="5.61166">
        <ele>1712.73</ele>
        <time>2022-02-19T08:47:33Z</time>
      </trkpt>
      <trkpt lat="45.08976" lon="5.61159">
        <ele>1712.73</ele>
        <time>2022-02-19T08:47:37Z</time>
      </trkpt>
      <trkpt lat="45.08974" lon="5.61152">
        <ele>1708.88</ele>
        <time>2022-02-19T08:47:41Z</time>
      </trkpt>
      <trkpt lat="45.08975" lon="5.61153">
        <ele>1708.88</ele>
        <time>2022-02-19T08:47:42Z</time>
      </trkpt>
      <trkpt lat="45.08977" lon="5.61153">
        <ele>1708.88</ele>
        <time>2022-02-19T08:47:43Z</time>
      </trkpt>
      <trkpt lat="45.08985" lon="5.61155">
        <ele>1707.44</ele>
        <time>2022-02-19T08:47:46Z</time>
      </trkpt>
      <trkpt lat="45.08988" lon="5.61154">
        <ele>1706.96</ele>
        <time>2022-02-19T08:47:47Z</time>
      </trkpt>
      <trkpt lat="45.08995" lon="5.61151">
        <ele>1705.52</ele>
        <time>2022-02-19T08:47:49Z</time>
      </trkpt>
      <trkpt lat="45.08992" lon="5.61139">
        <ele>1706</ele>
        <time>2022-02-19T08:47:58Z</time>
      </trkpt>
      <trkpt lat="45.08988" lon="5.6114">
        <ele>1705.04</ele>
        <time>2022-02-19T08:48:16Z</time>
      </trkpt>
      <trkpt lat="45.08987" lon="5.6114">
        <ele>1705.04</ele>
        <time>2022-02-19T08:48:26Z</time>
      </trkpt>
      <trkpt lat="45.08998" lon="5.61134">
        <ele>1700.23</ele>
        <time>2022-02-19T08:48:31Z</time>
      </trkpt>
      <trkpt lat="45.09006" lon="5.61123">
        <ele>1702.15</ele>
        <time>2022-02-19T08:48:35Z</time>
      </trkpt>
      <trkpt lat="45.09" lon="5.61118">
        <ele>1699.27</ele>
        <time>2022-02-19T08:48:37Z</time>
      </trkpt>
      <trkpt lat="45.08991" lon="5.61114">
        <ele>1695.42</ele>
        <time>2022-02-19T08:48:42Z</time>
      </trkpt>
      <trkpt lat="45.08991" lon="5.61109">
        <ele>1692.06</ele>
        <time>2022-02-19T08:48:44Z</time>
      </trkpt>
      <trkpt lat="45.08994" lon="5.61109">
        <ele>1692.06</ele>
        <time>2022-02-19T08:48:45Z</time>
      </trkpt>
      <trkpt lat="45.08996" lon="5.61108">
        <ele>1692.06</ele>
        <time>2022-02-19T08:48:47Z</time>
      </trkpt>
      <trkpt lat="45.08992" lon="5.61092">
        <ele>1689.17</ele>
        <time>2022-02-19T08:48:53Z</time>
      </trkpt>
      <trkpt lat="45.0899" lon="5.6109">
        <ele>1689.17</ele>
        <time>2022-02-19T08:48:54Z</time>
      </trkpt>
      <trkpt lat="45.08977" lon="5.61081">
        <ele>1686.29</ele>
        <time>2022-02-19T08:48:58Z</time>
      </trkpt>
      <trkpt lat="45.08963" lon="5.6107">
        <ele>1685.81</ele>
        <time>2022-02-19T08:49:05Z</time>
      </trkpt>
      <trkpt lat="45.0896" lon="5.61062">
        <ele>1683.89</ele>
        <time>2022-02-19T08:49:09Z</time>
      </trkpt>
      <trkpt lat="45.08959" lon="5.61061">
        <ele>1683.89</ele>
        <time>2022-02-19T08:49:10Z</time>
      </trkpt>
      <trkpt lat="45.0897" lon="5.61056">
        <ele>1682.44</ele>
        <time>2022-02-19T08:49:15Z</time>
      </trkpt>
      <trkpt lat="45.0898" lon="5.61059">
        <ele>1680.52</ele>
        <time>2022-02-19T08:49:18Z</time>
      </trkpt>
      <trkpt lat="45.08994" lon="5.61064">
        <ele>1679.08</ele>
        <time>2022-02-19T08:49:22Z</time>
      </trkpt>
      <trkpt lat="45.09007" lon="5.61061">
        <ele>1676.2</ele>
        <time>2022-02-19T08:49:25Z</time>
      </trkpt>
      <trkpt lat="45.09015" lon="5.61057">
        <ele>1677.64</ele>
        <time>2022-02-19T08:49:27Z</time>
      </trkpt>
      <trkpt lat="45.09029" lon="5.61047">
        <ele>1673.31</ele>
        <time>2022-02-19T08:49:31Z</time>
      </trkpt>
      <trkpt lat="45.09032" lon="5.61044">
        <ele>1673.31</ele>
        <time>2022-02-19T08:49:32Z</time>
      </trkpt>
      <trkpt lat="45.09033" lon="5.61041">
        <ele>1673.31</ele>
        <time>2022-02-19T08:49:33Z</time>
      </trkpt>
      <trkpt lat="45.09033" lon="5.61036">
        <ele>1673.31</ele>
        <time>2022-02-19T08:49:34Z</time>
      </trkpt>
      <trkpt lat="45.0903" lon="5.61033">
        <ele>1671.87</ele>
        <time>2022-02-19T08:49:35Z</time>
      </trkpt>
      <trkpt lat="45.09023" lon="5.61032">
        <ele>1670.91</ele>
        <time>2022-02-19T08:49:37Z</time>
      </trkpt>
      <trkpt lat="45.09011" lon="5.61028">
        <ele>1669.95</ele>
        <time>2022-02-19T08:49:40Z</time>
      </trkpt>
      <trkpt lat="45.09009" lon="5.61024">
        <ele>1669.47</ele>
        <time>2022-02-19T08:49:41Z</time>
      </trkpt>
      <trkpt lat="45.09008" lon="5.61019">
        <ele>1668.51</ele>
        <time>2022-02-19T08:49:42Z</time>
      </trkpt>
      <trkpt lat="45.09009" lon="5.61015">
        <ele>1667.06</ele>
        <time>2022-02-19T08:49:43Z</time>
      </trkpt>
      <trkpt lat="45.09015" lon="5.61008">
        <ele>1666.1</ele>
        <time>2022-02-19T08:49:45Z</time>
      </trkpt>
      <trkpt lat="45.09029" lon="5.60992">
        <ele>1664.66</ele>
        <time>2022-02-19T08:49:50Z</time>
      </trkpt>
      <trkpt lat="45.09047" lon="5.60965">
        <ele>1662.74</ele>
        <time>2022-02-19T08:49:59Z</time>
      </trkpt>
      <trkpt lat="45.09047" lon="5.60964">
        <ele>1661.78</ele>
        <time>2022-02-19T08:50:01Z</time>
      </trkpt>
      <trkpt lat="45.09047" lon="5.60965">
        <ele>1661.78</ele>
        <time>2022-02-19T08:50:18Z</time>
      </trkpt>
      <trkpt lat="45.09054" lon="5.60962">
        <ele>1658.41</ele>
        <time>2022-02-19T08:50:21Z</time>
      </trkpt>
      <trkpt lat="45.09058" lon="5.60961">
        <ele>1658.41</ele>
        <time>2022-02-19T08:50:22Z</time>
      </trkpt>
      <trkpt lat="45.09066" lon="5.60959">
        <ele>1654.57</ele>
        <time>2022-02-19T08:50:24Z</time>
      </trkpt>
      <trkpt lat="45.09074" lon="5.60957">
        <ele>1652.64</ele>
        <time>2022-02-19T08:50:26Z</time>
      </trkpt>
      <trkpt lat="45.09088" lon="5.60951">
        <ele>1650.24</ele>
        <time>2022-02-19T08:50:29Z</time>
      </trkpt>
      <trkpt lat="45.09095" lon="5.60947">
        <ele>1651.2</ele>
        <time>2022-02-19T08:50:32Z</time>
      </trkpt>
      <trkpt lat="45.09101" lon="5.60941">
        <ele>1651.2</ele>
        <time>2022-02-19T08:50:38Z</time>
      </trkpt>
      <trkpt lat="45.0909" lon="5.60941">
        <ele>1648.32</ele>
        <time>2022-02-19T08:50:45Z</time>
      </trkpt>
      <trkpt lat="45.0907" lon="5.60938">
        <ele>1646.88</ele>
        <time>2022-02-19T08:50:51Z</time>
      </trkpt>
      <trkpt lat="45.09071" lon="5.60927">
        <ele>1643.03</ele>
        <time>2022-02-19T08:50:56Z</time>
      </trkpt>
      <trkpt lat="45.09074" lon="5.60926">
        <ele>1643.03</ele>
        <time>2022-02-19T08:50:57Z</time>
      </trkpt>
      <trkpt lat="45.09077" lon="5.60924">
        <ele>1643.03</ele>
        <time>2022-02-19T08:50:58Z</time>
      </trkpt>
      <trkpt lat="45.09078" lon="5.60921">
        <ele>1643.03</ele>
        <time>2022-02-19T08:50:59Z</time>
      </trkpt>
      <trkpt lat="45.09076" lon="5.60898">
        <ele>1642.07</ele>
        <time>2022-02-19T08:51:03Z</time>
      </trkpt>
      <trkpt lat="45.09074" lon="5.60886">
        <ele>1640.63</ele>
        <time>2022-02-19T08:51:08Z</time>
      </trkpt>
      <trkpt lat="45.09076" lon="5.60878">
        <ele>1638.22</ele>
        <time>2022-02-19T08:51:12Z</time>
      </trkpt>
      <trkpt lat="45.09086" lon="5.6088">
        <ele>1636.78</ele>
        <time>2022-02-19T08:51:15Z</time>
      </trkpt>
      <trkpt lat="45.0909" lon="5.60881">
        <ele>1634.86</ele>
        <time>2022-02-19T08:51:16Z</time>
      </trkpt>
      <trkpt lat="45.09094" lon="5.60882">
        <ele>1634.86</ele>
        <time>2022-02-19T08:51:17Z</time>
      </trkpt>
      <trkpt lat="45.09106" lon="5.60887">
        <ele>1633.42</ele>
        <time>2022-02-19T08:51:21Z</time>
      </trkpt>
      <trkpt lat="45.09115" lon="5.6089">
        <ele>1633.42</ele>
        <time>2022-02-19T08:51:27Z</time>
      </trkpt>
      <trkpt lat="45.09116" lon="5.60886">
        <ele>1632.46</ele>
        <time>2022-02-19T08:51:28Z</time>
      </trkpt>
      <trkpt lat="45.09117" lon="5.60881">
        <ele>1631.49</ele>
        <time>2022-02-19T08:51:29Z</time>
      </trkpt>
      <trkpt lat="45.09116" lon="5.60876">
        <ele>1631.01</ele>
        <time>2022-02-19T08:51:30Z</time>
      </trkpt>
      <trkpt lat="45.09113" lon="5.60873">
        <ele>1630.53</ele>
        <time>2022-02-19T08:51:31Z</time>
      </trkpt>
      <trkpt lat="45.09101" lon="5.60855">
        <ele>1629.57</ele>
        <time>2022-02-19T08:51:40Z</time>
      </trkpt>
      <trkpt lat="45.09092" lon="5.60838">
        <ele>1626.69</ele>
        <time>2022-02-19T08:51:45Z</time>
      </trkpt>
      <trkpt lat="45.09094" lon="5.60813">
        <ele>1622.36</ele>
        <time>2022-02-19T08:51:52Z</time>
      </trkpt>
      <trkpt lat="45.09099" lon="5.60805">
        <ele>1622.36</ele>
        <time>2022-02-19T08:51:53Z</time>
      </trkpt>
      <trkpt lat="45.09113" lon="5.60778">
        <ele>1621.88</ele>
        <time>2022-02-19T08:52:01Z</time>
      </trkpt>
      <trkpt lat="45.09113" lon="5.60771">
        <ele>1623.32</ele>
        <time>2022-02-19T08:52:14Z</time>
      </trkpt>
      <trkpt lat="45.09111" lon="5.60767">
        <ele>1623.32</ele>
        <time>2022-02-19T08:52:29Z</time>
      </trkpt>
      <trkpt lat="45.09111" lon="5.60769">
        <ele>1622.84</ele>
        <time>2022-02-19T08:52:49Z</time>
      </trkpt>
      <trkpt lat="45.09111" lon="5.60769">
        <ele>1622.84</ele>
        <time>2022-02-19T08:53:16Z</time>
      </trkpt>
      <trkpt lat="45.0911" lon="5.60768">
        <ele>1622.84</ele>
        <time>2022-02-19T08:53:43Z</time>
      </trkpt>
      <trkpt lat="45.0911" lon="5.60767">
        <ele>1621.88</ele>
        <time>2022-02-19T08:54:04Z</time>
      </trkpt>
      <trkpt lat="45.09111" lon="5.60769">
        <ele>1622.36</ele>
        <time>2022-02-19T08:54:43Z</time>
      </trkpt>
      <trkpt lat="45.09111" lon="5.60769">
        <ele>1621.88</ele>
        <time>2022-02-19T08:55:22Z</time>
      </trkpt>
      <trkpt lat="45.09112" lon="5.60768">
        <ele>1622.36</ele>
        <time>2022-02-19T08:56:00Z</time>
      </trkpt>
      <trkpt lat="45.09111" lon="5.60768">
        <ele>1622.84</ele>
        <time>2022-02-19T08:56:21Z</time>
      </trkpt>
      <trkpt lat="45.0911" lon="5.60769">
        <ele>1623.32</ele>
        <time>2022-02-19T08:56:40Z</time>
      </trkpt>
      <trkpt lat="45.0911" lon="5.60769">
        <ele>1623.8</ele>
        <time>2022-02-19T08:57:03Z</time>
      </trkpt>
      <trkpt lat="45.09109" lon="5.60768">
        <ele>1622.36</ele>
        <time>2022-02-19T08:57:21Z</time>
      </trkpt>
      <trkpt lat="45.09109" lon="5.60768">
        <ele>1624.28</ele>
        <time>2022-02-19T08:57:27Z</time>
      </trkpt>
      <trkpt lat="45.09109" lon="5.60768">
        <ele>1622.84</ele>
        <time>2022-02-19T08:57:29Z</time>
      </trkpt>
      <trkpt lat="45.0911" lon="5.60767">
        <ele>1622.84</ele>
        <time>2022-02-19T08:57:52Z</time>
      </trkpt>
      <trkpt lat="45.09112" lon="5.60769">
        <ele>1622.84</ele>
        <time>2022-02-19T08:58:13Z</time>
      </trkpt>
      <trkpt lat="45.09113" lon="5.60776">
        <ele>1622.84</ele>
        <time>2022-02-19T08:58:20Z</time>
      </trkpt>
      <trkpt lat="45.09112" lon="5.60788">
        <ele>1622.84</ele>
        <time>2022-02-19T08:58:38Z</time>
      </trkpt>
      <trkpt lat="45.09112" lon="5.6079">
        <ele>1622.36</ele>
        <time>2022-02-19T08:58:55Z</time>
      </trkpt>
      <trkpt lat="45.09113" lon="5.60801">
        <ele>1623.8</ele>
        <time>2022-02-19T08:59:10Z</time>
      </trkpt>
      <trkpt lat="45.09119" lon="5.60814">
        <ele>1624.28</ele>
        <time>2022-02-19T08:59:23Z</time>
      </trkpt>
      <trkpt lat="45.09121" lon="5.60821">
        <ele>1624.28</ele>
        <time>2022-02-19T08:59:28Z</time>
      </trkpt>
      <trkpt lat="45.09124" lon="5.6083">
        <ele>1624.77</ele>
        <time>2022-02-19T08:59:39Z</time>
      </trkpt>
      <trkpt lat="45.09125" lon="5.60843">
        <ele>1626.21</ele>
        <time>2022-02-19T08:59:56Z</time>
      </trkpt>
      <trkpt lat="45.09125" lon="5.60856">
        <ele>1629.09</ele>
        <time>2022-02-19T09:00:12Z</time>
      </trkpt>
      <trkpt lat="45.09122" lon="5.60871">
        <ele>1630.53</ele>
        <time>2022-02-19T09:00:28Z</time>
      </trkpt>
      <trkpt lat="45.09123" lon="5.6089">
        <ele>1632.94</ele>
        <time>2022-02-19T09:00:48Z</time>
      </trkpt>
      <trkpt lat="45.09127" lon="5.60906">
        <ele>1634.86</ele>
        <time>2022-02-19T09:01:07Z</time>
      </trkpt>
      <trkpt lat="45.0913" lon="5.60918">
        <ele>1638.7</ele>
        <time>2022-02-19T09:01:25Z</time>
      </trkpt>
      <trkpt lat="45.09135" lon="5.6093">
        <ele>1640.63</ele>
        <time>2022-02-19T09:01:43Z</time>
      </trkpt>
      <trkpt lat="45.09142" lon="5.60942">
        <ele>1643.03</ele>
        <time>2022-02-19T09:02:02Z</time>
      </trkpt>
      <trkpt lat="45.0914" lon="5.60952">
        <ele>1646.4</ele>
        <time>2022-02-19T09:02:19Z</time>
      </trkpt>
      <trkpt lat="45.09147" lon="5.60965">
        <ele>1649.76</ele>
        <time>2022-02-19T09:02:40Z</time>
      </trkpt>
      <trkpt lat="45.09155" lon="5.60973">
        <ele>1651.68</ele>
        <time>2022-02-19T09:02:59Z</time>
      </trkpt>
      <trkpt lat="45.09166" lon="5.60979">
        <ele>1654.57</ele>
        <time>2022-02-19T09:03:20Z</time>
      </trkpt>
      <trkpt lat="45.09169" lon="5.60986">
        <ele>1657.93</ele>
        <time>2022-02-19T09:03:36Z</time>
      </trkpt>
      <trkpt lat="45.09161" lon="5.60994">
        <ele>1658.41</ele>
        <time>2022-02-19T09:03:51Z</time>
      </trkpt>
      <trkpt lat="45.09154" lon="5.60998">
        <ele>1661.78</ele>
        <time>2022-02-19T09:04:08Z</time>
      </trkpt>
      <trkpt lat="45.09147" lon="5.61009">
        <ele>1664.18</ele>
        <time>2022-02-19T09:04:26Z</time>
      </trkpt>
      <trkpt lat="45.09138" lon="5.61016">
        <ele>1666.58</ele>
        <time>2022-02-19T09:04:44Z</time>
      </trkpt>
      <trkpt lat="45.09133" lon="5.6102">
        <ele>1667.54</ele>
        <time>2022-02-19T09:04:52Z</time>
      </trkpt>
      <trkpt lat="45.09124" lon="5.61019">
        <ele>1670.91</ele>
        <time>2022-02-19T09:05:12Z</time>
      </trkpt>
      <trkpt lat="45.09116" lon="5.61018">
        <ele>1673.79</ele>
        <time>2022-02-19T09:05:29Z</time>
      </trkpt>
      <trkpt lat="45.09108" lon="5.61027">
        <ele>1676.68</ele>
        <time>2022-02-19T09:05:49Z</time>
      </trkpt>
      <trkpt lat="45.091" lon="5.61031">
        <ele>1678.12</ele>
        <time>2022-02-19T09:06:07Z</time>
      </trkpt>
      <trkpt lat="45.09092" lon="5.61032">
        <ele>1681</ele>
        <time>2022-02-19T09:06:23Z</time>
      </trkpt>
      <trkpt lat="45.09083" lon="5.61035">
        <ele>1683.89</ele>
        <time>2022-02-19T09:06:42Z</time>
      </trkpt>
      <trkpt lat="45.09071" lon="5.61039">
        <ele>1686.77</ele>
        <time>2022-02-19T09:07:02Z</time>
      </trkpt>
      <trkpt lat="45.0907" lon="5.61039">
        <ele>1685.81</ele>
        <time>2022-02-19T09:07:04Z</time>
      </trkpt>
      <trkpt lat="45.09065" lon="5.61042">
        <ele>1685.81</ele>
        <time>2022-02-19T09:07:20Z</time>
      </trkpt>
      <trkpt lat="45.09065" lon="5.61042">
        <ele>1684.85</ele>
        <time>2022-02-19T09:07:47Z</time>
      </trkpt>
      <trkpt lat="45.09064" lon="5.61041">
        <ele>1686.77</ele>
        <time>2022-02-19T09:08:03Z</time>
      </trkpt>
      <trkpt lat="45.09064" lon="5.61041">
        <ele>1685.81</ele>
        <time>2022-02-19T09:08:17Z</time>
      </trkpt>
      <trkpt lat="45.09066" lon="5.61041">
        <ele>1685.81</ele>
        <time>2022-02-19T09:08:56Z</time>
      </trkpt>
      <trkpt lat="45.09064" lon="5.61054">
        <ele>1689.17</ele>
        <time>2022-02-19T09:09:17Z</time>
      </trkpt>
      <trkpt lat="45.09063" lon="5.61069">
        <ele>1688.69</ele>
        <time>2022-02-19T09:09:32Z</time>
      </trkpt>
      <trkpt lat="45.09063" lon="5.61073">
        <ele>1689.65</ele>
        <time>2022-02-19T09:09:36Z</time>
      </trkpt>
      <trkpt lat="45.09056" lon="5.61087">
        <ele>1693.5</ele>
        <time>2022-02-19T09:09:57Z</time>
      </trkpt>
      <trkpt lat="45.09056" lon="5.61106">
        <ele>1694.94</ele>
        <time>2022-02-19T09:10:16Z</time>
      </trkpt>
      <trkpt lat="45.09053" lon="5.61123">
        <ele>1696.38</ele>
        <time>2022-02-19T09:10:33Z</time>
      </trkpt>
      <trkpt lat="45.09055" lon="5.61133">
        <ele>1699.75</ele>
        <time>2022-02-19T09:10:48Z</time>
      </trkpt>
      <trkpt lat="45.09059" lon="5.61144">
        <ele>1702.15</ele>
        <time>2022-02-19T09:11:07Z</time>
      </trkpt>
      <trkpt lat="45.09053" lon="5.61156">
        <ele>1705.04</ele>
        <time>2022-02-19T09:11:26Z</time>
      </trkpt>
      <trkpt lat="45.09051" lon="5.61169">
        <ele>1706.96</ele>
        <time>2022-02-19T09:11:43Z</time>
      </trkpt>
      <trkpt lat="45.09046" lon="5.61182">
        <ele>1710.32</ele>
        <time>2022-02-19T09:12:03Z</time>
      </trkpt>
      <trkpt lat="45.0904" lon="5.61195">
        <ele>1713.21</ele>
        <time>2022-02-19T09:12:22Z</time>
      </trkpt>
      <trkpt lat="45.09035" lon="5.61207">
        <ele>1715.61</ele>
        <time>2022-02-19T09:12:39Z</time>
      </trkpt>
      <trkpt lat="45.09036" lon="5.61219">
        <ele>1718.49</ele>
        <time>2022-02-19T09:12:56Z</time>
      </trkpt>
      <trkpt lat="45.09039" lon="5.61231">
        <ele>1721.86</ele>
        <time>2022-02-19T09:13:16Z</time>
      </trkpt>
      <trkpt lat="45.09039" lon="5.61232">
        <ele>1721.86</ele>
        <time>2022-02-19T09:13:17Z</time>
      </trkpt>
      <trkpt lat="45.09043" lon="5.61243">
        <ele>1725.22</ele>
        <time>2022-02-19T09:13:36Z</time>
      </trkpt>
      <trkpt lat="45.09036" lon="5.61253">
        <ele>1727.15</ele>
        <time>2022-02-19T09:13:53Z</time>
      </trkpt>
      <trkpt lat="45.0903" lon="5.61263">
        <ele>1729.07</ele>
        <time>2022-02-19T09:14:09Z</time>
      </trkpt>
      <trkpt lat="45.09022" lon="5.6127">
        <ele>1731.47</ele>
        <time>2022-02-19T09:14:29Z</time>
      </trkpt>
      <trkpt lat="45.09013" lon="5.61276">
        <ele>1735.8</ele>
        <time>2022-02-19T09:14:47Z</time>
      </trkpt>
      <trkpt lat="45.09005" lon="5.61279">
        <ele>1736.76</ele>
        <time>2022-02-19T09:14:59Z</time>
      </trkpt>
      <trkpt lat="45.09003" lon="5.6128">
        <ele>1735.32</ele>
        <time>2022-02-19T09:15:03Z</time>
      </trkpt>
      <trkpt lat="45.09001" lon="5.6128">
        <ele>1737.24</ele>
        <time>2022-02-19T09:15:06Z</time>
      </trkpt>
      <trkpt lat="45.08995" lon="5.61284">
        <ele>1738.68</ele>
        <time>2022-02-19T09:15:18Z</time>
      </trkpt>
      <trkpt lat="45.08987" lon="5.61292">
        <ele>1741.57</ele>
        <time>2022-02-19T09:15:39Z</time>
      </trkpt>
      <trkpt lat="45.08981" lon="5.61298">
        <ele>1744.93</ele>
        <time>2022-02-19T09:15:57Z</time>
      </trkpt>
      <trkpt lat="45.08977" lon="5.61307">
        <ele>1747.33</ele>
        <time>2022-02-19T09:16:14Z</time>
      </trkpt>
      <trkpt lat="45.08974" lon="5.61319">
        <ele>1750.22</ele>
        <time>2022-02-19T09:16:34Z</time>
      </trkpt>
      <trkpt lat="45.08971" lon="5.61326">
        <ele>1751.66</ele>
        <time>2022-02-19T09:16:52Z</time>
      </trkpt>
      <trkpt lat="45.08968" lon="5.61336">
        <ele>1755.02</ele>
        <time>2022-02-19T09:17:11Z</time>
      </trkpt>
      <trkpt lat="45.08968" lon="5.61348">
        <ele>1756.95</ele>
        <time>2022-02-19T09:17:31Z</time>
      </trkpt>
      <trkpt lat="45.08969" lon="5.61356">
        <ele>1758.87</ele>
        <time>2022-02-19T09:17:48Z</time>
      </trkpt>
      <trkpt lat="45.08965" lon="5.61352">
        <ele>1761.27</ele>
        <time>2022-02-19T09:18:04Z</time>
      </trkpt>
      <trkpt lat="45.08959" lon="5.61344">
        <ele>1763.2</ele>
        <time>2022-02-19T09:18:20Z</time>
      </trkpt>
      <trkpt lat="45.08952" lon="5.61337">
        <ele>1766.08</ele>
        <time>2022-02-19T09:18:38Z</time>
      </trkpt>
      <trkpt lat="45.08948" lon="5.6133">
        <ele>1768.48</ele>
        <time>2022-02-19T09:18:57Z</time>
      </trkpt>
      <trkpt lat="45.08939" lon="5.6132">
        <ele>1770.89</ele>
        <time>2022-02-19T09:19:14Z</time>
      </trkpt>
      <trkpt lat="45.08934" lon="5.61312">
        <ele>1772.81</ele>
        <time>2022-02-19T09:19:30Z</time>
      </trkpt>
      <trkpt lat="45.08928" lon="5.61304">
        <ele>1774.25</ele>
        <time>2022-02-19T09:19:46Z</time>
      </trkpt>
      <trkpt lat="45.08926" lon="5.61316">
        <ele>1777.13</ele>
        <time>2022-02-19T09:20:04Z</time>
      </trkpt>
      <trkpt lat="45.08926" lon="5.61324">
        <ele>1779.06</ele>
        <time>2022-02-19T09:20:21Z</time>
      </trkpt>
      <trkpt lat="45.08923" lon="5.61336">
        <ele>1782.42</ele>
        <time>2022-02-19T09:20:39Z</time>
      </trkpt>
      <trkpt lat="45.08917" lon="5.61341">
        <ele>1785.31</ele>
        <time>2022-02-19T09:20:56Z</time>
      </trkpt>
      <trkpt lat="45.08911" lon="5.61345">
        <ele>1786.75</ele>
        <time>2022-02-19T09:21:16Z</time>
      </trkpt>
      <trkpt lat="45.08909" lon="5.61346">
        <ele>1787.23</ele>
        <time>2022-02-19T09:21:48Z</time>
      </trkpt>
      <trkpt lat="45.08903" lon="5.61358">
        <ele>1790.11</ele>
        <time>2022-02-19T09:22:05Z</time>
      </trkpt>
      <trkpt lat="45.089" lon="5.61369">
        <ele>1792.52</ele>
        <time>2022-02-19T09:22:22Z</time>
      </trkpt>
      <trkpt lat="45.08902" lon="5.61383">
        <ele>1795.4</ele>
        <time>2022-02-19T09:22:40Z</time>
      </trkpt>
      <trkpt lat="45.08908" lon="5.61394">
        <ele>1798.76</ele>
        <time>2022-02-19T09:22:59Z</time>
      </trkpt>
      <trkpt lat="45.08907" lon="5.61405">
        <ele>1801.17</ele>
        <time>2022-02-19T09:23:17Z</time>
      </trkpt>
      <trkpt lat="45.089" lon="5.61417">
        <ele>1803.09</ele>
        <time>2022-02-19T09:23:35Z</time>
      </trkpt>
      <trkpt lat="45.08894" lon="5.61428">
        <ele>1804.05</ele>
        <time>2022-02-19T09:23:51Z</time>
      </trkpt>
      <trkpt lat="45.08895" lon="5.61443">
        <ele>1806.45</ele>
        <time>2022-02-19T09:24:10Z</time>
      </trkpt>
      <trkpt lat="45.08896" lon="5.61456">
        <ele>1808.86</ele>
        <time>2022-02-19T09:24:28Z</time>
      </trkpt>
      <trkpt lat="45.08897" lon="5.61467">
        <ele>1810.78</ele>
        <time>2022-02-19T09:24:44Z</time>
      </trkpt>
      <trkpt lat="45.08896" lon="5.61482">
        <ele>1813.66</ele>
        <time>2022-02-19T09:25:05Z</time>
      </trkpt>
      <trkpt lat="45.08896" lon="5.61494">
        <ele>1816.07</ele>
        <time>2022-02-19T09:25:23Z</time>
      </trkpt>
      <trkpt lat="45.08899" lon="5.61507">
        <ele>1818.95</ele>
        <time>2022-02-19T09:25:42Z</time>
      </trkpt>
      <trkpt lat="45.08902" lon="5.61516">
        <ele>1822.32</ele>
        <time>2022-02-19T09:25:58Z</time>
      </trkpt>
      <trkpt lat="45.08905" lon="5.61529">
        <ele>1824.72</ele>
        <time>2022-02-19T09:26:19Z</time>
      </trkpt>
      <trkpt lat="45.08905" lon="5.61544">
        <ele>1826.64</ele>
        <time>2022-02-19T09:26:35Z</time>
      </trkpt>
      <trkpt lat="45.08906" lon="5.61557">
        <ele>1829.53</ele>
        <time>2022-02-19T09:26:54Z</time>
      </trkpt>
      <trkpt lat="45.08906" lon="5.61572">
        <ele>1830.97</ele>
        <time>2022-02-19T09:27:11Z</time>
      </trkpt>
      <trkpt lat="45.08905" lon="5.61587">
        <ele>1833.37</ele>
        <time>2022-02-19T09:27:31Z</time>
      </trkpt>
      <trkpt lat="45.08905" lon="5.61598">
        <ele>1835.77</ele>
        <time>2022-02-19T09:27:49Z</time>
      </trkpt>
      <trkpt lat="45.08901" lon="5.61605">
        <ele>1838.18</ele>
        <time>2022-02-19T09:28:05Z</time>
      </trkpt>
      <trkpt lat="45.08896" lon="5.61615">
        <ele>1840.1</ele>
        <time>2022-02-19T09:28:23Z</time>
      </trkpt>
      <trkpt lat="45.08894" lon="5.61626">
        <ele>1842.5</ele>
        <time>2022-02-19T09:28:42Z</time>
      </trkpt>
      <trkpt lat="45.08893" lon="5.61637">
        <ele>1844.43</ele>
        <time>2022-02-19T09:29:01Z</time>
      </trkpt>
      <trkpt lat="45.08899" lon="5.61645">
        <ele>1846.83</ele>
        <time>2022-02-19T09:29:23Z</time>
      </trkpt>
      <trkpt lat="45.08902" lon="5.61653">
        <ele>1848.27</ele>
        <time>2022-02-19T09:29:41Z</time>
      </trkpt>
      <trkpt lat="45.08909" lon="5.61662">
        <ele>1850.19</ele>
        <time>2022-02-19T09:30:02Z</time>
      </trkpt>
      <trkpt lat="45.08915" lon="5.61669">
        <ele>1853.56</ele>
        <time>2022-02-19T09:30:20Z</time>
      </trkpt>
      <trkpt lat="45.0892" lon="5.61675">
        <ele>1855</ele>
        <time>2022-02-19T09:30:39Z</time>
      </trkpt>
      <trkpt lat="45.08926" lon="5.61682">
        <ele>1857.89</ele>
        <time>2022-02-19T09:30:58Z</time>
      </trkpt>
      <trkpt lat="45.08931" lon="5.61689">
        <ele>1859.33</ele>
        <time>2022-02-19T09:31:17Z</time>
      </trkpt>
      <trkpt lat="45.08937" lon="5.61699">
        <ele>1862.21</ele>
        <time>2022-02-19T09:31:37Z</time>
      </trkpt>
      <trkpt lat="45.08941" lon="5.61709">
        <ele>1864.13</ele>
        <time>2022-02-19T09:31:56Z</time>
      </trkpt>
      <trkpt lat="45.08935" lon="5.61713">
        <ele>1866.54</ele>
        <time>2022-02-19T09:32:12Z</time>
      </trkpt>
      <trkpt lat="45.08925" lon="5.61716">
        <ele>1868.94</ele>
        <time>2022-02-19T09:32:33Z</time>
      </trkpt>
      <trkpt lat="45.08916" lon="5.61719">
        <ele>1871.82</ele>
        <time>2022-02-19T09:32:53Z</time>
      </trkpt>
      <trkpt lat="45.08908" lon="5.61721">
        <ele>1874.23</ele>
        <time>2022-02-19T09:33:14Z</time>
      </trkpt>
      <trkpt lat="45.08905" lon="5.61725">
        <ele>1875.67</ele>
        <time>2022-02-19T09:33:31Z</time>
      </trkpt>
      <trkpt lat="45.08911" lon="5.61736">
        <ele>1878.07</ele>
        <time>2022-02-19T09:33:51Z</time>
      </trkpt>
      <trkpt lat="45.08916" lon="5.61743">
        <ele>1881.44</ele>
        <time>2022-02-19T09:34:08Z</time>
      </trkpt>
      <trkpt lat="45.08922" lon="5.61754">
        <ele>1883.36</ele>
        <time>2022-02-19T09:34:26Z</time>
      </trkpt>
      <trkpt lat="45.08927" lon="5.61762">
        <ele>1883.84</ele>
        <time>2022-02-19T09:34:45Z</time>
      </trkpt>
      <trkpt lat="45.08932" lon="5.6177">
        <ele>1884.8</ele>
        <time>2022-02-19T09:35:01Z</time>
      </trkpt>
      <trkpt lat="45.08938" lon="5.61775">
        <ele>1886.72</ele>
        <time>2022-02-19T09:35:19Z</time>
      </trkpt>
      <trkpt lat="45.08946" lon="5.6178">
        <ele>1889.13</ele>
        <time>2022-02-19T09:35:39Z</time>
      </trkpt>
      <trkpt lat="45.08946" lon="5.61784">
        <ele>1890.57</ele>
        <time>2022-02-19T09:35:53Z</time>
      </trkpt>
      <trkpt lat="45.0894" lon="5.61793">
        <ele>1893.45</ele>
        <time>2022-02-19T09:36:12Z</time>
      </trkpt>
      <trkpt lat="45.08934" lon="5.61801">
        <ele>1896.82</ele>
        <time>2022-02-19T09:36:27Z</time>
      </trkpt>
      <trkpt lat="45.08928" lon="5.61809">
        <ele>1899.7</ele>
        <time>2022-02-19T09:36:44Z</time>
      </trkpt>
      <trkpt lat="45.0892" lon="5.6181">
        <ele>1900.66</ele>
        <time>2022-02-19T09:37:02Z</time>
      </trkpt>
      <trkpt lat="45.08921" lon="5.61819">
        <ele>1903.07</ele>
        <time>2022-02-19T09:37:19Z</time>
      </trkpt>
      <trkpt lat="45.08923" lon="5.6183">
        <ele>1904.99</ele>
        <time>2022-02-19T09:37:38Z</time>
      </trkpt>
      <trkpt lat="45.08928" lon="5.61836">
        <ele>1906.43</ele>
        <time>2022-02-19T09:37:56Z</time>
      </trkpt>
      <trkpt lat="45.08934" lon="5.61839">
        <ele>1909.32</ele>
        <time>2022-02-19T09:38:14Z</time>
      </trkpt>
      <trkpt lat="45.08945" lon="5.61842">
        <ele>1911.24</ele>
        <time>2022-02-19T09:38:36Z</time>
      </trkpt>
      <trkpt lat="45.08954" lon="5.61843">
        <ele>1913.64</ele>
        <time>2022-02-19T09:38:54Z</time>
      </trkpt>
      <trkpt lat="45.08963" lon="5.61844">
        <ele>1916.53</ele>
        <time>2022-02-19T09:39:13Z</time>
      </trkpt>
      <trkpt lat="45.0897" lon="5.61852">
        <ele>1917.97</ele>
        <time>2022-02-19T09:39:34Z</time>
      </trkpt>
      <trkpt lat="45.08967" lon="5.61857">
        <ele>1919.89</ele>
        <time>2022-02-19T09:39:50Z</time>
      </trkpt>
      <trkpt lat="45.08961" lon="5.61867">
        <ele>1922.29</ele>
        <time>2022-02-19T09:40:07Z</time>
      </trkpt>
      <trkpt lat="45.08958" lon="5.61878">
        <ele>1925.18</ele>
        <time>2022-02-19T09:40:26Z</time>
      </trkpt>
      <trkpt lat="45.08954" lon="5.61887">
        <ele>1927.58</ele>
        <time>2022-02-19T09:40:43Z</time>
      </trkpt>
      <trkpt lat="45.08949" lon="5.61898">
        <ele>1929.98</ele>
        <time>2022-02-19T09:41:01Z</time>
      </trkpt>
      <trkpt lat="45.08946" lon="5.61909">
        <ele>1932.87</ele>
        <time>2022-02-19T09:41:19Z</time>
      </trkpt>
      <trkpt lat="45.08952" lon="5.61912">
        <ele>1934.31</ele>
        <time>2022-02-19T09:41:34Z</time>
      </trkpt>
      <trkpt lat="45.08962" lon="5.61918">
        <ele>1936.71</ele>
        <time>2022-02-19T09:41:55Z</time>
      </trkpt>
      <trkpt lat="45.08968" lon="5.61925">
        <ele>1938.64</ele>
        <time>2022-02-19T09:42:11Z</time>
      </trkpt>
      <trkpt lat="45.08976" lon="5.61934">
        <ele>1941.04</ele>
        <time>2022-02-19T09:42:31Z</time>
      </trkpt>
      <trkpt lat="45.08981" lon="5.61935">
        <ele>1942.96</ele>
        <time>2022-02-19T09:42:48Z</time>
      </trkpt>
      <trkpt lat="45.0898" lon="5.61945">
        <ele>1945.85</ele>
        <time>2022-02-19T09:43:07Z</time>
      </trkpt>
      <trkpt lat="45.08975" lon="5.61954">
        <ele>1946.81</ele>
        <time>2022-02-19T09:43:23Z</time>
      </trkpt>
      <trkpt lat="45.0897" lon="5.61966">
        <ele>1949.69</ele>
        <time>2022-02-19T09:43:41Z</time>
      </trkpt>
      <trkpt lat="45.08978" lon="5.61968">
        <ele>1952.57</ele>
        <time>2022-02-19T09:43:59Z</time>
      </trkpt>
      <trkpt lat="45.08977" lon="5.61979">
        <ele>1954.98</ele>
        <time>2022-02-19T09:44:17Z</time>
      </trkpt>
      <trkpt lat="45.0898" lon="5.61978">
        <ele>1955.46</ele>
        <time>2022-02-19T09:44:25Z</time>
      </trkpt>
      <trkpt lat="45.0899" lon="5.61977">
        <ele>1957.86</ele>
        <time>2022-02-19T09:44:43Z</time>
      </trkpt>
      <trkpt lat="45.08995" lon="5.6198">
        <ele>1958.34</ele>
        <time>2022-02-19T09:45:00Z</time>
      </trkpt>
      <trkpt lat="45.08995" lon="5.6198">
        <ele>1958.34</ele>
        <time>2022-02-19T09:45:17Z</time>
      </trkpt>
      <trkpt lat="45.08994" lon="5.61981">
        <ele>1957.86</ele>
        <time>2022-02-19T09:45:42Z</time>
      </trkpt>
      <trkpt lat="45.08997" lon="5.61982">
        <ele>1958.82</ele>
        <time>2022-02-19T09:46:08Z</time>
      </trkpt>
      <trkpt lat="45.09003" lon="5.61987">
        <ele>1961.71</ele>
        <time>2022-02-19T09:46:23Z</time>
      </trkpt>
      <trkpt lat="45.09007" lon="5.61992">
        <ele>1963.63</ele>
        <time>2022-02-19T09:46:38Z</time>
      </trkpt>
      <trkpt lat="45.0901" lon="5.61997">
        <ele>1965.55</ele>
        <time>2022-02-19T09:46:54Z</time>
      </trkpt>
      <trkpt lat="45.09013" lon="5.61999">
        <ele>1966.03</ele>
        <time>2022-02-19T09:47:08Z</time>
      </trkpt>
      <trkpt lat="45.09013" lon="5.61999">
        <ele>1965.07</ele>
        <time>2022-02-19T09:47:11Z</time>
      </trkpt>
      <trkpt lat="45.09013" lon="5.62">
        <ele>1966.51</ele>
        <time>2022-02-19T09:47:15Z</time>
      </trkpt>
      <trkpt lat="45.09012" lon="5.61999">
        <ele>1965.07</ele>
        <time>2022-02-19T09:47:20Z</time>
      </trkpt>
      <trkpt lat="45.09012" lon="5.62002">
        <ele>1966.51</ele>
        <time>2022-02-19T09:47:37Z</time>
      </trkpt>
      <trkpt lat="45.0901" lon="5.62002">
        <ele>1964.11</ele>
        <time>2022-02-19T09:47:52Z</time>
      </trkpt>
      <trkpt lat="45.09011" lon="5.62002">
        <ele>1963.63</ele>
        <time>2022-02-19T09:48:28Z</time>
      </trkpt>
      <trkpt lat="45.09011" lon="5.62001">
        <ele>1963.63</ele>
        <time>2022-02-19T09:49:01Z</time>
      </trkpt>
      <trkpt lat="45.09012" lon="5.62002">
        <ele>1963.63</ele>
        <time>2022-02-19T09:49:50Z</time>
      </trkpt>
      <trkpt lat="45.09012" lon="5.62002">
        <ele>1964.11</ele>
        <time>2022-02-19T09:50:19Z</time>
      </trkpt>
      <trkpt lat="45.09012" lon="5.62002">
        <ele>1965.07</ele>
        <time>2022-02-19T09:50:43Z</time>
      </trkpt>
      <trkpt lat="45.09012" lon="5.62002">
        <ele>1964.59</ele>
        <time>2022-02-19T09:51:20Z</time>
      </trkpt>
      <trkpt lat="45.09011" lon="5.62001">
        <ele>1964.59</ele>
        <time>2022-02-19T09:52:03Z</time>
      </trkpt>
      <trkpt lat="45.09012" lon="5.62003">
        <ele>1964.59</ele>
        <time>2022-02-19T09:52:52Z</time>
      </trkpt>
      <trkpt lat="45.09012" lon="5.62002">
        <ele>1964.59</ele>
        <time>2022-02-19T09:53:36Z</time>
      </trkpt>
      <trkpt lat="45.09012" lon="5.62003">
        <ele>1964.59</ele>
        <time>2022-02-19T09:54:21Z</time>
      </trkpt>
      <trkpt lat="45.09012" lon="5.62003">
        <ele>1964.59</ele>
        <time>2022-02-19T09:55:04Z</time>
      </trkpt>
      <trkpt lat="45.09012" lon="5.62003">
        <ele>1964.59</ele>
        <time>2022-02-19T09:55:47Z</time>
      </trkpt>
      <trkpt lat="45.09012" lon="5.62002">
        <ele>1966.03</ele>
        <time>2022-02-19T09:56:00Z</time>
      </trkpt>
      <trkpt lat="45.09014" lon="5.62001">
        <ele>1962.19</ele>
        <time>2022-02-19T09:56:09Z</time>
      </trkpt>
      <trkpt lat="45.09014" lon="5.62">
        <ele>1965.55</ele>
        <time>2022-02-19T09:56:10Z</time>
      </trkpt>
      <trkpt lat="45.09014" lon="5.62">
        <ele>1965.07</ele>
        <time>2022-02-19T09:56:47Z</time>
      </trkpt>
      <trkpt lat="45.09014" lon="5.62">
        <ele>1965.07</ele>
        <time>2022-02-19T09:57:18Z</time>
      </trkpt>
      <trkpt lat="45.09014" lon="5.62">
        <ele>1965.07</ele>
        <time>2022-02-19T09:57:47Z</time>
      </trkpt>
      <trkpt lat="45.09013" lon="5.62">
        <ele>1965.07</ele>
        <time>2022-02-19T09:58:24Z</time>
      </trkpt>
      <trkpt lat="45.09015" lon="5.61999">
        <ele>1964.11</ele>
        <time>2022-02-19T09:58:49Z</time>
      </trkpt>
      <trkpt lat="45.09014" lon="5.61999">
        <ele>1965.07</ele>
        <time>2022-02-19T09:59:30Z</time>
      </trkpt>
      <trkpt lat="45.09013" lon="5.62">
        <ele>1965.07</ele>
        <time>2022-02-19T10:00:13Z</time>
      </trkpt>
      <trkpt lat="45.09013" lon="5.62">
        <ele>1965.07</ele>
        <time>2022-02-19T10:00:57Z</time>
      </trkpt>
      <trkpt lat="45.09013" lon="5.62">
        <ele>1965.07</ele>
        <time>2022-02-19T10:01:40Z</time>
      </trkpt>
      <trkpt lat="45.09013" lon="5.62">
        <ele>1965.07</ele>
        <time>2022-02-19T10:02:16Z</time>
      </trkpt>
      <trkpt lat="45.09014" lon="5.62">
        <ele>1965.07</ele>
        <time>2022-02-19T10:02:42Z</time>
      </trkpt>
      <trkpt lat="45.09013" lon="5.62">
        <ele>1966.99</ele>
        <time>2022-02-19T10:03:17Z</time>
      </trkpt>
      <trkpt lat="45.09013" lon="5.62">
        <ele>1966.99</ele>
        <time>2022-02-19T10:03:55Z</time>
      </trkpt>
      <trkpt lat="45.09013" lon="5.62">
        <ele>1966.99</ele>
        <time>2022-02-19T10:04:34Z</time>
      </trkpt>
      <trkpt lat="45.09013" lon="5.62">
        <ele>1966.99</ele>
        <time>2022-02-19T10:05:13Z</time>
      </trkpt>
      <trkpt lat="45.09014" lon="5.62">
        <ele>1966.99</ele>
        <time>2022-02-19T10:05:49Z</time>
      </trkpt>
      <trkpt lat="45.09013" lon="5.62">
        <ele>1966.99</ele>
        <time>2022-02-19T10:06:22Z</time>
      </trkpt>
      <trkpt lat="45.09014" lon="5.62">
        <ele>1966.99</ele>
        <time>2022-02-19T10:07:12Z</time>
      </trkpt>
      <trkpt lat="45.09014" lon="5.62">
        <ele>1966.03</ele>
        <time>2022-02-19T10:07:49Z</time>
      </trkpt>
      <trkpt lat="45.09013" lon="5.62">
        <ele>1966.03</ele>
        <time>2022-02-19T10:08:31Z</time>
      </trkpt>
      <trkpt lat="45.09013" lon="5.62">
        <ele>1966.03</ele>
        <time>2022-02-19T10:09:10Z</time>
      </trkpt>
      <trkpt lat="45.09014" lon="5.62001">
        <ele>1966.03</ele>
        <time>2022-02-19T10:09:48Z</time>
      </trkpt>
      <trkpt lat="45.09013" lon="5.62">
        <ele>1967.48</ele>
        <time>2022-02-19T10:10:27Z</time>
      </trkpt>
      <trkpt lat="45.09015" lon="5.61998">
        <ele>1967.48</ele>
        <time>2022-02-19T10:10:44Z</time>
      </trkpt>
      <trkpt lat="45.09016" lon="5.62001">
        <ele>1966.03</ele>
        <time>2022-02-19T10:10:59Z</time>
      </trkpt>
      <trkpt lat="45.09015" lon="5.62">
        <ele>1965.55</ele>
        <time>2022-02-19T10:11:28Z</time>
      </trkpt>
      <trkpt lat="45.09015" lon="5.61999">
        <ele>1966.99</ele>
        <time>2022-02-19T10:11:37Z</time>
      </trkpt>
      <trkpt lat="45.09013" lon="5.61998">
        <ele>1967.48</ele>
        <time>2022-02-19T10:12:00Z</time>
      </trkpt>
      <trkpt lat="45.09012" lon="5.61997">
        <ele>1966.03</ele>
        <time>2022-02-19T10:12:04Z</time>
      </trkpt>
      <trkpt lat="45.09007" lon="5.6199">
        <ele>1964.59</ele>
        <time>2022-02-19T10:12:19Z</time>
      </trkpt>
      <trkpt lat="45.09006" lon="5.61987">
        <ele>1962.67</ele>
        <time>2022-02-19T10:12:37Z</time>
      </trkpt>
      <trkpt lat="45.09002" lon="5.61985">
        <ele>1961.71</ele>
        <time>2022-02-19T10:12:50Z</time>
      </trkpt>
      <trkpt lat="45.08997" lon="5.61982">
        <ele>1960.27</ele>
        <time>2022-02-19T10:13:04Z</time>
      </trkpt>
      <trkpt lat="45.08991" lon="5.61979">
        <ele>1958.34</ele>
        <time>2022-02-19T10:13:18Z</time>
      </trkpt>
      <trkpt lat="45.08988" lon="5.61978">
        <ele>1956.9</ele>
        <time>2022-02-19T10:13:29Z</time>
      </trkpt>
      <trkpt lat="45.08987" lon="5.61977">
        <ele>1956.9</ele>
        <time>2022-02-19T10:13:59Z</time>
      </trkpt>
      <trkpt lat="45.08988" lon="5.61978">
        <ele>1958.34</ele>
        <time>2022-02-19T10:14:17Z</time>
      </trkpt>
      <trkpt lat="45.08986" lon="5.6198">
        <ele>1958.34</ele>
        <time>2022-02-19T10:14:39Z</time>
      </trkpt>
      <trkpt lat="45.08983" lon="5.61978">
        <ele>1958.82</ele>
        <time>2022-02-19T10:14:51Z</time>
      </trkpt>
      <trkpt lat="45.08983" lon="5.61977">
        <ele>1957.38</ele>
        <time>2022-02-19T10:14:56Z</time>
      </trkpt>
      <trkpt lat="45.08982" lon="5.61976">
        <ele>1957.38</ele>
        <time>2022-02-19T10:15:16Z</time>
      </trkpt>
      <trkpt lat="45.08983" lon="5.61978">
        <ele>1957.38</ele>
        <time>2022-02-19T10:15:42Z</time>
      </trkpt>
      <trkpt lat="45.08983" lon="5.61978">
        <ele>1956.9</ele>
        <time>2022-02-19T10:16:00Z</time>
      </trkpt>
      <trkpt lat="45.08982" lon="5.61976">
        <ele>1956.42</ele>
        <time>2022-02-19T10:16:24Z</time>
      </trkpt>
      <trkpt lat="45.08982" lon="5.61976">
        <ele>1956.42</ele>
        <time>2022-02-19T10:16:48Z</time>
      </trkpt>
      <trkpt lat="45.08982" lon="5.61976">
        <ele>1957.38</ele>
        <time>2022-02-19T10:17:10Z</time>
      </trkpt>
      <trkpt lat="45.08982" lon="5.61976">
        <ele>1957.38</ele>
        <time>2022-02-19T10:17:11Z</time>
      </trkpt>
      <trkpt lat="45.08982" lon="5.61976">
        <ele>1956.9</ele>
        <time>2022-02-19T10:17:25Z</time>
      </trkpt>
      <trkpt lat="45.0898" lon="5.61976">
        <ele>1956.42</ele>
        <time>2022-02-19T10:17:36Z</time>
      </trkpt>
      <trkpt lat="45.08982" lon="5.61971">
        <ele>1956.42</ele>
        <time>2022-02-19T10:17:38Z</time>
      </trkpt>
      <trkpt lat="45.08983" lon="5.61969">
        <ele>1954.98</ele>
        <time>2022-02-19T10:17:39Z</time>
      </trkpt>
      <trkpt lat="45.08985" lon="5.61967">
        <ele>1954.98</ele>
        <time>2022-02-19T10:17:40Z</time>
      </trkpt>
      <trkpt lat="45.08985" lon="5.61958">
        <ele>1952.57</ele>
        <time>2022-02-19T10:17:43Z</time>
      </trkpt>
      <trkpt lat="45.08982" lon="5.61957">
        <ele>1952.09</ele>
        <time>2022-02-19T10:17:44Z</time>
      </trkpt>
      <trkpt lat="45.0898" lon="5.61957">
        <ele>1952.09</ele>
        <time>2022-02-19T10:17:45Z</time>
      </trkpt>
      <trkpt lat="45.08978" lon="5.61958">
        <ele>1951.13</ele>
        <time>2022-02-19T10:17:46Z</time>
      </trkpt>
      <trkpt lat="45.08966" lon="5.61956">
        <ele>1949.21</ele>
        <time>2022-02-19T10:17:50Z</time>
      </trkpt>
      <trkpt lat="45.08967" lon="5.61952">
        <ele>1948.73</ele>
        <time>2022-02-19T10:17:51Z</time>
      </trkpt>
      <trkpt lat="45.0897" lon="5.61949">
        <ele>1947.29</ele>
        <time>2022-02-19T10:17:52Z</time>
      </trkpt>
      <trkpt lat="45.08973" lon="5.61946">
        <ele>1946.81</ele>
        <time>2022-02-19T10:17:53Z</time>
      </trkpt>
      <trkpt lat="45.08975" lon="5.61943">
        <ele>1946.81</ele>
        <time>2022-02-19T10:17:54Z</time>
      </trkpt>
      <trkpt lat="45.08977" lon="5.61939">
        <ele>1945.36</ele>
        <time>2022-02-19T10:17:55Z</time>
      </trkpt>
      <trkpt lat="45.08978" lon="5.61935">
        <ele>1945.36</ele>
        <time>2022-02-19T10:17:56Z</time>
      </trkpt>
      <trkpt lat="45.08976" lon="5.61933">
        <ele>1942.96</ele>
        <time>2022-02-19T10:17:57Z</time>
      </trkpt>
      <trkpt lat="45.08973" lon="5.61931">
        <ele>1942</ele>
        <time>2022-02-19T10:17:58Z</time>
      </trkpt>
      <trkpt lat="45.08971" lon="5.61922">
        <ele>1941.52</ele>
        <time>2022-02-19T10:18:00Z</time>
      </trkpt>
      <trkpt lat="45.08974" lon="5.61918">
        <ele>1939.12</ele>
        <time>2022-02-19T10:18:01Z</time>
      </trkpt>
      <trkpt lat="45.08976" lon="5.61916">
        <ele>1938.64</ele>
        <time>2022-02-19T10:18:02Z</time>
      </trkpt>
      <trkpt lat="45.08979" lon="5.6191">
        <ele>1938.64</ele>
        <time>2022-02-19T10:18:03Z</time>
      </trkpt>
      <trkpt lat="45.08978" lon="5.61906">
        <ele>1935.75</ele>
        <time>2022-02-19T10:18:04Z</time>
      </trkpt>
      <trkpt lat="45.08975" lon="5.61903">
        <ele>1931.43</ele>
        <time>2022-02-19T10:18:05Z</time>
      </trkpt>
      <trkpt lat="45.08964" lon="5.61898">
        <ele>1933.83</ele>
        <time>2022-02-19T10:18:08Z</time>
      </trkpt>
      <trkpt lat="45.08956" lon="5.61898">
        <ele>1932.39</ele>
        <time>2022-02-19T10:18:11Z</time>
      </trkpt>
      <trkpt lat="45.0895" lon="5.61899">
        <ele>1932.39</ele>
        <time>2022-02-19T10:18:18Z</time>
      </trkpt>
      <trkpt lat="45.0895" lon="5.61899">
        <ele>1933.83</ele>
        <time>2022-02-19T10:18:20Z</time>
      </trkpt>
      <trkpt lat="45.08947" lon="5.61898">
        <ele>1930.46</ele>
        <time>2022-02-19T10:18:22Z</time>
      </trkpt>
      <trkpt lat="45.08944" lon="5.61883">
        <ele>1926.14</ele>
        <time>2022-02-19T10:18:25Z</time>
      </trkpt>
      <trkpt lat="45.08938" lon="5.61875">
        <ele>1920.85</ele>
        <time>2022-02-19T10:18:27Z</time>
      </trkpt>
      <trkpt lat="45.08932" lon="5.61874">
        <ele>1920.85</ele>
        <time>2022-02-19T10:18:28Z</time>
      </trkpt>
      <trkpt lat="45.08928" lon="5.61868">
        <ele>1919.41</ele>
        <time>2022-02-19T10:18:30Z</time>
      </trkpt>
      <trkpt lat="45.08936" lon="5.61854">
        <ele>1916.53</ele>
        <time>2022-02-19T10:18:33Z</time>
      </trkpt>
      <trkpt lat="45.08936" lon="5.61845">
        <ele>1911.72</ele>
        <time>2022-02-19T10:18:35Z</time>
      </trkpt>
      <trkpt lat="45.08933" lon="5.61843">
        <ele>1913.16</ele>
        <time>2022-02-19T10:18:36Z</time>
      </trkpt>
      <trkpt lat="45.08931" lon="5.61836">
        <ele>1908.83</ele>
        <time>2022-02-19T10:18:37Z</time>
      </trkpt>
      <trkpt lat="45.08931" lon="5.61833">
        <ele>1908.83</ele>
        <time>2022-02-19T10:18:38Z</time>
      </trkpt>
      <trkpt lat="45.08933" lon="5.61829">
        <ele>1907.39</ele>
        <time>2022-02-19T10:18:39Z</time>
      </trkpt>
      <trkpt lat="45.0894" lon="5.61823">
        <ele>1905.95</ele>
        <time>2022-02-19T10:18:41Z</time>
      </trkpt>
      <trkpt lat="45.08933" lon="5.61811">
        <ele>1902.11</ele>
        <time>2022-02-19T10:18:45Z</time>
      </trkpt>
      <trkpt lat="45.08924" lon="5.61807">
        <ele>1902.11</ele>
        <time>2022-02-19T10:18:47Z</time>
      </trkpt>
      <trkpt lat="45.08931" lon="5.618">
        <ele>1897.78</ele>
        <time>2022-02-19T10:18:50Z</time>
      </trkpt>
      <trkpt lat="45.08939" lon="5.61798">
        <ele>1895.38</ele>
        <time>2022-02-19T10:18:52Z</time>
      </trkpt>
      <trkpt lat="45.08928" lon="5.61781">
        <ele>1892.49</ele>
        <time>2022-02-19T10:18:57Z</time>
      </trkpt>
      <trkpt lat="45.08928" lon="5.61769">
        <ele>1887.21</ele>
        <time>2022-02-19T10:19:00Z</time>
      </trkpt>
      <trkpt lat="45.08933" lon="5.61768">
        <ele>1887.21</ele>
        <time>2022-02-19T10:19:01Z</time>
      </trkpt>
      <trkpt lat="45.08945" lon="5.61767">
        <ele>1888.65</ele>
        <time>2022-02-19T10:19:04Z</time>
      </trkpt>
      <trkpt lat="45.0895" lon="5.61765">
        <ele>1885.76</ele>
        <time>2022-02-19T10:19:05Z</time>
      </trkpt>
      <trkpt lat="45.08956" lon="5.6176">
        <ele>1885.28</ele>
        <time>2022-02-19T10:19:07Z</time>
      </trkpt>
      <trkpt lat="45.08951" lon="5.61751">
        <ele>1880.96</ele>
        <time>2022-02-19T10:19:11Z</time>
      </trkpt>
      <trkpt lat="45.08944" lon="5.61748">
        <ele>1879.51</ele>
        <time>2022-02-19T10:19:13Z</time>
      </trkpt>
      <trkpt lat="45.08945" lon="5.61738">
        <ele>1874.71</ele>
        <time>2022-02-19T10:19:15Z</time>
      </trkpt>
      <trkpt lat="45.08952" lon="5.6173">
        <ele>1873.75</ele>
        <time>2022-02-19T10:19:17Z</time>
      </trkpt>
      <trkpt lat="45.0895" lon="5.61724">
        <ele>1872.3</ele>
        <time>2022-02-19T10:19:19Z</time>
      </trkpt>
      <trkpt lat="45.08952" lon="5.61711">
        <ele>1866.06</ele>
        <time>2022-02-19T10:19:23Z</time>
      </trkpt>
      <trkpt lat="45.08956" lon="5.61708">
        <ele>1867.02</ele>
        <time>2022-02-19T10:19:24Z</time>
      </trkpt>
      <trkpt lat="45.08952" lon="5.61696">
        <ele>1862.69</ele>
        <time>2022-02-19T10:19:28Z</time>
      </trkpt>
      <trkpt lat="45.08924" lon="5.61683">
        <ele>1861.25</ele>
        <time>2022-02-19T10:19:37Z</time>
      </trkpt>
      <trkpt lat="45.08921" lon="5.61682">
        <ele>1861.25</ele>
        <time>2022-02-19T10:19:38Z</time>
      </trkpt>
      <trkpt lat="45.08922" lon="5.61672">
        <ele>1856.44</ele>
        <time>2022-02-19T10:19:42Z</time>
      </trkpt>
      <trkpt lat="45.08923" lon="5.61661">
        <ele>1853.08</ele>
        <time>2022-02-19T10:19:45Z</time>
      </trkpt>
      <trkpt lat="45.08923" lon="5.61657">
        <ele>1853.56</ele>
        <time>2022-02-19T10:19:46Z</time>
      </trkpt>
      <trkpt lat="45.08924" lon="5.61653">
        <ele>1848.27</ele>
        <time>2022-02-19T10:19:47Z</time>
      </trkpt>
      <trkpt lat="45.08928" lon="5.61649">
        <ele>1848.27</ele>
        <time>2022-02-19T10:19:48Z</time>
      </trkpt>
      <trkpt lat="45.08927" lon="5.6164">
        <ele>1846.35</ele>
        <time>2022-02-19T10:19:50Z</time>
      </trkpt>
      <trkpt lat="45.08927" lon="5.61628">
        <ele>1841.06</ele>
        <time>2022-02-19T10:19:52Z</time>
      </trkpt>
      <trkpt lat="45.08926" lon="5.61615">
        <ele>1838.66</ele>
        <time>2022-02-19T10:19:56Z</time>
      </trkpt>
      <trkpt lat="45.08923" lon="5.61611">
        <ele>1835.29</ele>
        <time>2022-02-19T10:19:57Z</time>
      </trkpt>
      <trkpt lat="45.08923" lon="5.61602">
        <ele>1831.45</ele>
        <time>2022-02-19T10:19:58Z</time>
      </trkpt>
      <trkpt lat="45.08923" lon="5.61594">
        <ele>1832.89</ele>
        <time>2022-02-19T10:19:59Z</time>
      </trkpt>
      <trkpt lat="45.08911" lon="5.61561">
        <ele>1830.97</ele>
        <time>2022-02-19T10:20:05Z</time>
      </trkpt>
      <trkpt lat="45.08908" lon="5.61555">
        <ele>1830.97</ele>
        <time>2022-02-19T10:20:06Z</time>
      </trkpt>
      <trkpt lat="45.08897" lon="5.61529">
        <ele>1829.05</ele>
        <time>2022-02-19T10:20:13Z</time>
      </trkpt>
      <trkpt lat="45.08886" lon="5.61509">
        <ele>1826.64</ele>
        <time>2022-02-19T10:20:18Z</time>
      </trkpt>
      <trkpt lat="45.08894" lon="5.61507">
        <ele>1822.32</ele>
        <time>2022-02-19T10:20:22Z</time>
      </trkpt>
      <trkpt lat="45.089" lon="5.61508">
        <ele>1821.84</ele>
        <time>2022-02-19T10:20:24Z</time>
      </trkpt>
      <trkpt lat="45.08901" lon="5.61499">
        <ele>1819.43</ele>
        <time>2022-02-19T10:20:27Z</time>
      </trkpt>
      <trkpt lat="45.08893" lon="5.61482">
        <ele>1817.03</ele>
        <time>2022-02-19T10:20:31Z</time>
      </trkpt>
      <trkpt lat="45.08897" lon="5.61472">
        <ele>1813.66</ele>
        <time>2022-02-19T10:20:35Z</time>
      </trkpt>
      <trkpt lat="45.08907" lon="5.61477">
        <ele>1811.74</ele>
        <time>2022-02-19T10:20:37Z</time>
      </trkpt>
      <trkpt lat="45.08914" lon="5.61465">
        <ele>1809.34</ele>
        <time>2022-02-19T10:20:42Z</time>
      </trkpt>
      <trkpt lat="45.08892" lon="5.61424">
        <ele>1806.94</ele>
        <time>2022-02-19T10:20:50Z</time>
      </trkpt>
      <trkpt lat="45.08892" lon="5.61402">
        <ele>1805.01</ele>
        <time>2022-02-19T10:20:56Z</time>
      </trkpt>
      <trkpt lat="45.08891" lon="5.61388">
        <ele>1801.65</ele>
        <time>2022-02-19T10:20:59Z</time>
      </trkpt>
      <trkpt lat="45.08894" lon="5.61384">
        <ele>1798.76</ele>
        <time>2022-02-19T10:21:00Z</time>
      </trkpt>
      <trkpt lat="45.08896" lon="5.61377">
        <ele>1798.76</ele>
        <time>2022-02-19T10:21:01Z</time>
      </trkpt>
      <trkpt lat="45.08894" lon="5.61365">
        <ele>1796.84</ele>
        <time>2022-02-19T10:21:03Z</time>
      </trkpt>
      <trkpt lat="45.08896" lon="5.61356">
        <ele>1792.52</ele>
        <time>2022-02-19T10:21:05Z</time>
      </trkpt>
      <trkpt lat="45.08898" lon="5.61352">
        <ele>1792.52</ele>
        <time>2022-02-19T10:21:06Z</time>
      </trkpt>
      <trkpt lat="45.08896" lon="5.61337">
        <ele>1788.67</ele>
        <time>2022-02-19T10:21:09Z</time>
      </trkpt>
      <trkpt lat="45.08894" lon="5.61333">
        <ele>1788.67</ele>
        <time>2022-02-19T10:21:10Z</time>
      </trkpt>
      <trkpt lat="45.08889" lon="5.61328">
        <ele>1788.67</ele>
        <time>2022-02-19T10:21:12Z</time>
      </trkpt>
      <trkpt lat="45.08878" lon="5.61314">
        <ele>1788.67</ele>
        <time>2022-02-19T10:21:19Z</time>
      </trkpt>
      <trkpt lat="45.08878" lon="5.61297">
        <ele>1786.75</ele>
        <time>2022-02-19T10:21:22Z</time>
      </trkpt>
      <trkpt lat="45.08879" lon="5.61292">
        <ele>1786.75</ele>
        <time>2022-02-19T10:21:23Z</time>
      </trkpt>
      <trkpt lat="45.08882" lon="5.61279">
        <ele>1786.27</ele>
        <time>2022-02-19T10:21:27Z</time>
      </trkpt>
      <trkpt lat="45.08886" lon="5.61278">
        <ele>1785.31</ele>
        <time>2022-02-19T10:21:41Z</time>
      </trkpt>
      <trkpt lat="45.08887" lon="5.61277">
        <ele>1784.34</ele>
        <time>2022-02-19T10:21:45Z</time>
      </trkpt>
      <trkpt lat="45.08886" lon="5.61259">
        <ele>1779.54</ele>
        <time>2022-02-19T10:21:51Z</time>
      </trkpt>
      <trkpt lat="45.08882" lon="5.61253">
        <ele>1775.69</ele>
        <time>2022-02-19T10:21:53Z</time>
      </trkpt>
      <trkpt lat="45.08883" lon="5.61245">
        <ele>1772.81</ele>
        <time>2022-02-19T10:21:56Z</time>
      </trkpt>
      <trkpt lat="45.08884" lon="5.61236">
        <ele>1769.92</ele>
        <time>2022-02-19T10:21:59Z</time>
      </trkpt>
      <trkpt lat="45.08886" lon="5.6123">
        <ele>1766.08</ele>
        <time>2022-02-19T10:22:02Z</time>
      </trkpt>
      <trkpt lat="45.08891" lon="5.61223">
        <ele>1762.23</ele>
        <time>2022-02-19T10:22:06Z</time>
      </trkpt>
      <trkpt lat="45.08892" lon="5.6122">
        <ele>1761.75</ele>
        <time>2022-02-19T10:22:07Z</time>
      </trkpt>
      <trkpt lat="45.08897" lon="5.61216">
        <ele>1758.39</ele>
        <time>2022-02-19T10:22:09Z</time>
      </trkpt>
      <trkpt lat="45.08903" lon="5.61217">
        <ele>1755.99</ele>
        <time>2022-02-19T10:22:11Z</time>
      </trkpt>
      <trkpt lat="45.08905" lon="5.61219">
        <ele>1755.99</ele>
        <time>2022-02-19T10:22:12Z</time>
      </trkpt>
      <trkpt lat="45.08912" lon="5.61204">
        <ele>1749.26</ele>
        <time>2022-02-19T10:22:18Z</time>
      </trkpt>
      <trkpt lat="45.08918" lon="5.61205">
        <ele>1745.89</ele>
        <time>2022-02-19T10:22:20Z</time>
      </trkpt>
      <trkpt lat="45.08921" lon="5.61205">
        <ele>1745.41</ele>
        <time>2022-02-19T10:22:21Z</time>
      </trkpt>
      <trkpt lat="45.08922" lon="5.61198">
        <ele>1743.97</ele>
        <time>2022-02-19T10:22:23Z</time>
      </trkpt>
      <trkpt lat="45.08921" lon="5.61188">
        <ele>1740.6</ele>
        <time>2022-02-19T10:22:27Z</time>
      </trkpt>
      <trkpt lat="45.08925" lon="5.61185">
        <ele>1739.16</ele>
        <time>2022-02-19T10:22:29Z</time>
      </trkpt>
      <trkpt lat="45.08926" lon="5.61178">
        <ele>1736.76</ele>
        <time>2022-02-19T10:22:31Z</time>
      </trkpt>
      <trkpt lat="45.08932" lon="5.61178">
        <ele>1731.95</ele>
        <time>2022-02-19T10:22:33Z</time>
      </trkpt>
      <trkpt lat="45.08937" lon="5.61185">
        <ele>1731.95</ele>
        <time>2022-02-19T10:22:41Z</time>
      </trkpt>
      <trkpt lat="45.08936" lon="5.61186">
        <ele>1730.99</ele>
        <time>2022-02-19T10:22:48Z</time>
      </trkpt>
      <trkpt lat="45.08939" lon="5.61182">
        <ele>1732.43</ele>
        <time>2022-02-19T10:23:07Z</time>
      </trkpt>
      <trkpt lat="45.0894" lon="5.61182">
        <ele>1732.43</ele>
        <time>2022-02-19T10:23:11Z</time>
      </trkpt>
      <trkpt lat="45.08944" lon="5.61184">
        <ele>1730.51</ele>
        <time>2022-02-19T10:23:14Z</time>
      </trkpt>
      <trkpt lat="45.08943" lon="5.61174">
        <ele>1727.15</ele>
        <time>2022-02-19T10:23:17Z</time>
      </trkpt>
      <trkpt lat="45.08941" lon="5.61166">
        <ele>1726.18</ele>
        <time>2022-02-19T10:23:19Z</time>
      </trkpt>
      <trkpt lat="45.08946" lon="5.61163">
        <ele>1721.86</ele>
        <time>2022-02-19T10:23:21Z</time>
      </trkpt>
      <trkpt lat="45.08949" lon="5.61152">
        <ele>1718.01</ele>
        <time>2022-02-19T10:23:24Z</time>
      </trkpt>
      <trkpt lat="45.08955" lon="5.61151">
        <ele>1713.21</ele>
        <time>2022-02-19T10:23:27Z</time>
      </trkpt>
      <trkpt lat="45.08963" lon="5.61155">
        <ele>1712.25</ele>
        <time>2022-02-19T10:23:30Z</time>
      </trkpt>
      <trkpt lat="45.08967" lon="5.61146">
        <ele>1709.36</ele>
        <time>2022-02-19T10:23:33Z</time>
      </trkpt>
      <trkpt lat="45.08975" lon="5.61137">
        <ele>1706.48</ele>
        <time>2022-02-19T10:23:36Z</time>
      </trkpt>
      <trkpt lat="45.08986" lon="5.6113">
        <ele>1704.07</ele>
        <time>2022-02-19T10:23:43Z</time>
      </trkpt>
      <trkpt lat="45.08983" lon="5.61118">
        <ele>1700.23</ele>
        <time>2022-02-19T10:23:47Z</time>
      </trkpt>
      <trkpt lat="45.0898" lon="5.61116">
        <ele>1700.23</ele>
        <time>2022-02-19T10:23:48Z</time>
      </trkpt>
      <trkpt lat="45.08958" lon="5.61106">
        <ele>1697.83</ele>
        <time>2022-02-19T10:23:55Z</time>
      </trkpt>
      <trkpt lat="45.0895" lon="5.61101">
        <ele>1696.86</ele>
        <time>2022-02-19T10:23:57Z</time>
      </trkpt>
      <trkpt lat="45.08953" lon="5.61096">
        <ele>1693.5</ele>
        <time>2022-02-19T10:24:00Z</time>
      </trkpt>
      <trkpt lat="45.08955" lon="5.61094">
        <ele>1693.5</ele>
        <time>2022-02-19T10:24:01Z</time>
      </trkpt>
      <trkpt lat="45.08956" lon="5.61081">
        <ele>1690.14</ele>
        <time>2022-02-19T10:24:04Z</time>
      </trkpt>
      <trkpt lat="45.0897" lon="5.61074">
        <ele>1688.21</ele>
        <time>2022-02-19T10:24:07Z</time>
      </trkpt>
      <trkpt lat="45.08978" lon="5.61073">
        <ele>1685.81</ele>
        <time>2022-02-19T10:24:10Z</time>
      </trkpt>
      <trkpt lat="45.08991" lon="5.61064">
        <ele>1684.37</ele>
        <time>2022-02-19T10:24:13Z</time>
      </trkpt>
      <trkpt lat="45.09001" lon="5.6106">
        <ele>1679.56</ele>
        <time>2022-02-19T10:24:15Z</time>
      </trkpt>
      <trkpt lat="45.09012" lon="5.61058">
        <ele>1676.2</ele>
        <time>2022-02-19T10:24:17Z</time>
      </trkpt>
      <trkpt lat="45.09016" lon="5.61057">
        <ele>1676.68</ele>
        <time>2022-02-19T10:24:18Z</time>
      </trkpt>
      <trkpt lat="45.09032" lon="5.61045">
        <ele>1675.23</ele>
        <time>2022-02-19T10:24:22Z</time>
      </trkpt>
      <trkpt lat="45.09033" lon="5.6104">
        <ele>1673.31</ele>
        <time>2022-02-19T10:24:23Z</time>
      </trkpt>
      <trkpt lat="45.09032" lon="5.61036">
        <ele>1673.31</ele>
        <time>2022-02-19T10:24:24Z</time>
      </trkpt>
      <trkpt lat="45.09031" lon="5.61032">
        <ele>1671.87</ele>
        <time>2022-02-19T10:24:25Z</time>
      </trkpt>
      <trkpt lat="45.09032" lon="5.61028">
        <ele>1669.95</ele>
        <time>2022-02-19T10:24:26Z</time>
      </trkpt>
      <trkpt lat="45.09033" lon="5.61022">
        <ele>1669.95</ele>
        <time>2022-02-19T10:24:27Z</time>
      </trkpt>
      <trkpt lat="45.09031" lon="5.61018">
        <ele>1669.95</ele>
        <time>2022-02-19T10:24:28Z</time>
      </trkpt>
      <trkpt lat="45.09027" lon="5.61015">
        <ele>1668.99</ele>
        <time>2022-02-19T10:24:29Z</time>
      </trkpt>
      <trkpt lat="45.09022" lon="5.61013">
        <ele>1668.02</ele>
        <time>2022-02-19T10:24:30Z</time>
      </trkpt>
      <trkpt lat="45.09019" lon="5.61009">
        <ele>1667.54</ele>
        <time>2022-02-19T10:24:31Z</time>
      </trkpt>
      <trkpt lat="45.09018" lon="5.61004">
        <ele>1665.62</ele>
        <time>2022-02-19T10:24:32Z</time>
      </trkpt>
      <trkpt lat="45.09019" lon="5.60998">
        <ele>1664.18</ele>
        <time>2022-02-19T10:24:33Z</time>
      </trkpt>
      <trkpt lat="45.09022" lon="5.60993">
        <ele>1661.78</ele>
        <time>2022-02-19T10:24:34Z</time>
      </trkpt>
      <trkpt lat="45.09025" lon="5.60987">
        <ele>1660.81</ele>
        <time>2022-02-19T10:24:35Z</time>
      </trkpt>
      <trkpt lat="45.09029" lon="5.60983">
        <ele>1660.81</ele>
        <time>2022-02-19T10:24:36Z</time>
      </trkpt>
      <trkpt lat="45.09036" lon="5.60972">
        <ele>1662.74</ele>
        <time>2022-02-19T10:24:38Z</time>
      </trkpt>
      <trkpt lat="45.09043" lon="5.60965">
        <ele>1662.26</ele>
        <time>2022-02-19T10:24:50Z</time>
      </trkpt>
      <trkpt lat="45.09044" lon="5.60964">
        <ele>1657.45</ele>
        <time>2022-02-19T10:25:11Z</time>
      </trkpt>
      <trkpt lat="45.09044" lon="5.60964">
        <ele>1666.1</ele>
        <time>2022-02-19T10:25:12Z</time>
      </trkpt>
      <trkpt lat="45.09044" lon="5.60964">
        <ele>1660.81</ele>
        <time>2022-02-19T10:25:13Z</time>
      </trkpt>
      <trkpt lat="45.09045" lon="5.60965">
        <ele>1660.81</ele>
        <time>2022-02-19T10:25:20Z</time>
      </trkpt>
      <trkpt lat="45.09057" lon="5.60963">
        <ele>1658.41</ele>
        <time>2022-02-19T10:25:24Z</time>
      </trkpt>
      <trkpt lat="45.09071" lon="5.60963">
        <ele>1653.6</ele>
        <time>2022-02-19T10:25:26Z</time>
      </trkpt>
      <trkpt lat="45.09092" lon="5.60961">
        <ele>1652.16</ele>
        <time>2022-02-19T10:25:29Z</time>
      </trkpt>
      <trkpt lat="45.09103" lon="5.6096">
        <ele>1654.09</ele>
        <time>2022-02-19T10:25:32Z</time>
      </trkpt>
      <trkpt lat="45.09109" lon="5.60955">
        <ele>1656.01</ele>
        <time>2022-02-19T10:25:34Z</time>
      </trkpt>
      <trkpt lat="45.09116" lon="5.60951">
        <ele>1651.2</ele>
        <time>2022-02-19T10:25:36Z</time>
      </trkpt>
      <trkpt lat="45.09121" lon="5.60951">
        <ele>1650.24</ele>
        <time>2022-02-19T10:25:38Z</time>
      </trkpt>
      <trkpt lat="45.0913" lon="5.60948">
        <ele>1648.32</ele>
        <time>2022-02-19T10:25:42Z</time>
      </trkpt>
      <trkpt lat="45.09142" lon="5.60952">
        <ele>1645.91</ele>
        <time>2022-02-19T10:25:45Z</time>
      </trkpt>
      <trkpt lat="45.09154" lon="5.60944">
        <ele>1644.95</ele>
        <time>2022-02-19T10:25:48Z</time>
      </trkpt>
      <trkpt lat="45.09157" lon="5.60939">
        <ele>1646.88</ele>
        <time>2022-02-19T10:25:55Z</time>
      </trkpt>
      <trkpt lat="45.09158" lon="5.60939">
        <ele>1646.88</ele>
        <time>2022-02-19T10:25:57Z</time>
      </trkpt>
      <trkpt lat="45.09165" lon="5.6094">
        <ele>1645.43</ele>
        <time>2022-02-19T10:26:00Z</time>
      </trkpt>
      <trkpt lat="45.09172" lon="5.6094">
        <ele>1644.95</ele>
        <time>2022-02-19T10:26:02Z</time>
      </trkpt>
      <trkpt lat="45.09188" lon="5.60935">
        <ele>1642.55</ele>
        <time>2022-02-19T10:26:06Z</time>
      </trkpt>
      <trkpt lat="45.09192" lon="5.60931">
        <ele>1643.51</ele>
        <time>2022-02-19T10:26:07Z</time>
      </trkpt>
      <trkpt lat="45.09199" lon="5.60924">
        <ele>1641.59</ele>
        <time>2022-02-19T10:26:10Z</time>
      </trkpt>
      <trkpt lat="45.09211" lon="5.60915">
        <ele>1642.07</ele>
        <time>2022-02-19T10:26:13Z</time>
      </trkpt>
      <trkpt lat="45.09216" lon="5.6091">
        <ele>1642.07</ele>
        <time>2022-02-19T10:26:14Z</time>
      </trkpt>
      <trkpt lat="45.09221" lon="5.60904">
        <ele>1638.22</ele>
        <time>2022-02-19T10:26:15Z</time>
      </trkpt>
      <trkpt lat="45.09226" lon="5.60897">
        <ele>1635.34</ele>
        <time>2022-02-19T10:26:16Z</time>
      </trkpt>
      <trkpt lat="45.0923" lon="5.60892">
        <ele>1637.26</ele>
        <time>2022-02-19T10:26:17Z</time>
      </trkpt>
      <trkpt lat="45.09234" lon="5.60887">
        <ele>1638.22</ele>
        <time>2022-02-19T10:26:18Z</time>
      </trkpt>
      <trkpt lat="45.09237" lon="5.60885">
        <ele>1636.78</ele>
        <time>2022-02-19T10:26:19Z</time>
      </trkpt>
      <trkpt lat="45.0924" lon="5.60884">
        <ele>1639.19</ele>
        <time>2022-02-19T10:26:20Z</time>
      </trkpt>
      <trkpt lat="45.09242" lon="5.60883">
        <ele>1637.26</ele>
        <time>2022-02-19T10:26:21Z</time>
      </trkpt>
      <trkpt lat="45.09243" lon="5.60882">
        <ele>1637.74</ele>
        <time>2022-02-19T10:26:22Z</time>
      </trkpt>
      <trkpt lat="45.09244" lon="5.60881">
        <ele>1638.22</ele>
        <time>2022-02-19T10:26:23Z</time>
      </trkpt>
      <trkpt lat="45.09257" lon="5.60875">
        <ele>1637.26</ele>
        <time>2022-02-19T10:26:30Z</time>
      </trkpt>
      <trkpt lat="45.09285" lon="5.60877">
        <ele>1635.34</ele>
        <time>2022-02-19T10:26:40Z</time>
      </trkpt>
      <trkpt lat="45.09294" lon="5.60875">
        <ele>1636.3</ele>
        <time>2022-02-19T10:26:48Z</time>
      </trkpt>
      <trkpt lat="45.09297" lon="5.6087">
        <ele>1636.3</ele>
        <time>2022-02-19T10:26:53Z</time>
      </trkpt>
      <trkpt lat="45.09308" lon="5.60862">
        <ele>1637.26</ele>
        <time>2022-02-19T10:27:06Z</time>
      </trkpt>
      <trkpt lat="45.09309" lon="5.6086">
        <ele>1637.74</ele>
        <time>2022-02-19T10:27:10Z</time>
      </trkpt>
      <trkpt lat="45.09323" lon="5.6086">
        <ele>1637.26</ele>
        <time>2022-02-19T10:27:22Z</time>
      </trkpt>
      <trkpt lat="45.09332" lon="5.6086">
        <ele>1634.38</ele>
        <time>2022-02-19T10:27:27Z</time>
      </trkpt>
      <trkpt lat="45.09336" lon="5.6086">
        <ele>1634.38</ele>
        <time>2022-02-19T10:27:28Z</time>
      </trkpt>
      <trkpt lat="45.0935" lon="5.60859">
        <ele>1632.46</ele>
        <time>2022-02-19T10:27:31Z</time>
      </trkpt>
      <trkpt lat="45.09359" lon="5.60859">
        <ele>1636.3</ele>
        <time>2022-02-19T10:27:33Z</time>
      </trkpt>
      <trkpt lat="45.09368" lon="5.60862">
        <ele>1633.42</ele>
        <time>2022-02-19T10:27:36Z</time>
      </trkpt>
      <trkpt lat="45.09372" lon="5.60865">
        <ele>1634.86</ele>
        <time>2022-02-19T10:27:43Z</time>
      </trkpt>
      <trkpt lat="45.09385" lon="5.60871">
        <ele>1635.34</ele>
        <time>2022-02-19T10:27:55Z</time>
      </trkpt>
      <trkpt lat="45.09392" lon="5.60874">
        <ele>1632.46</ele>
        <time>2022-02-19T10:27:57Z</time>
      </trkpt>
      <trkpt lat="45.0944" lon="5.60876">
        <ele>1632.46</ele>
        <time>2022-02-19T10:28:11Z</time>
      </trkpt>
      <trkpt lat="45.0947" lon="5.60881">
        <ele>1631.01</ele>
        <time>2022-02-19T10:28:21Z</time>
      </trkpt>
      <trkpt lat="45.09479" lon="5.60886">
        <ele>1627.17</ele>
        <time>2022-02-19T10:28:28Z</time>
      </trkpt>
      <trkpt lat="45.09483" lon="5.60886">
        <ele>1630.53</ele>
        <time>2022-02-19T10:28:29Z</time>
      </trkpt>
      <trkpt lat="45.09491" lon="5.60888">
        <ele>1629.09</ele>
        <time>2022-02-19T10:28:32Z</time>
      </trkpt>
      <trkpt lat="45.09493" lon="5.60889">
        <ele>1629.57</ele>
        <time>2022-02-19T10:28:42Z</time>
      </trkpt>
      <trkpt lat="45.09496" lon="5.60884">
        <ele>1628.13</ele>
        <time>2022-02-19T10:29:01Z</time>
      </trkpt>
      <trkpt lat="45.09497" lon="5.60883">
        <ele>1628.13</ele>
        <time>2022-02-19T10:29:02Z</time>
      </trkpt>
      <trkpt lat="45.09499" lon="5.60881">
        <ele>1628.13</ele>
        <time>2022-02-19T10:29:03Z</time>
      </trkpt>
      <trkpt lat="45.09507" lon="5.6088">
        <ele>1627.65</ele>
        <time>2022-02-19T10:29:11Z</time>
      </trkpt>
      <trkpt lat="45.09509" lon="5.60882">
        <ele>1627.65</ele>
        <time>2022-02-19T10:29:12Z</time>
      </trkpt>
      <trkpt lat="45.09516" lon="5.60885">
        <ele>1627.17</ele>
        <time>2022-02-19T10:29:15Z</time>
      </trkpt>
      <trkpt lat="45.09518" lon="5.60883">
        <ele>1627.17</ele>
        <time>2022-02-19T10:29:16Z</time>
      </trkpt>
      <trkpt lat="45.09519" lon="5.60882">
        <ele>1627.17</ele>
        <time>2022-02-19T10:29:17Z</time>
      </trkpt>
      <trkpt lat="45.09521" lon="5.60879">
        <ele>1626.21</ele>
        <time>2022-02-19T10:29:18Z</time>
      </trkpt>
      <trkpt lat="45.09523" lon="5.60876">
        <ele>1626.21</ele>
        <time>2022-02-19T10:29:19Z</time>
      </trkpt>
      <trkpt lat="45.09526" lon="5.6087">
        <ele>1624.77</ele>
        <time>2022-02-19T10:29:21Z</time>
      </trkpt>
      <trkpt lat="45.09529" lon="5.60868">
        <ele>1624.77</ele>
        <time>2022-02-19T10:29:22Z</time>
      </trkpt>
      <trkpt lat="45.09531" lon="5.60868">
        <ele>1624.28</ele>
        <time>2022-02-19T10:29:23Z</time>
      </trkpt>
      <trkpt lat="45.09533" lon="5.60868">
        <ele>1624.28</ele>
        <time>2022-02-19T10:29:24Z</time>
      </trkpt>
      <trkpt lat="45.09533" lon="5.60866">
        <ele>1623.8</ele>
        <time>2022-02-19T10:29:29Z</time>
      </trkpt>
      <trkpt lat="45.09534" lon="5.60865">
        <ele>1622.84</ele>
        <time>2022-02-19T10:29:30Z</time>
      </trkpt>
      <trkpt lat="45.09534" lon="5.60862">
        <ele>1621.4</ele>
        <time>2022-02-19T10:29:31Z</time>
      </trkpt>
      <trkpt lat="45.09533" lon="5.60857">
        <ele>1619.96</ele>
        <time>2022-02-19T10:29:34Z</time>
      </trkpt>
      <trkpt lat="45.09527" lon="5.6084">
        <ele>1612.27</ele>
        <time>2022-02-19T10:29:42Z</time>
      </trkpt>
      <trkpt lat="45.09529" lon="5.60841">
        <ele>1612.27</ele>
        <time>2022-02-19T10:29:43Z</time>
      </trkpt>
      <trkpt lat="45.09535" lon="5.60836">
        <ele>1608.9</ele>
        <time>2022-02-19T10:29:48Z</time>
      </trkpt>
      <trkpt lat="45.09531" lon="5.60833">
        <ele>1607.46</ele>
        <time>2022-02-19T10:29:51Z</time>
      </trkpt>
      <trkpt lat="45.09532" lon="5.60831">
        <ele>1606.98</ele>
        <time>2022-02-19T10:29:53Z</time>
      </trkpt>
      <trkpt lat="45.09531" lon="5.60827">
        <ele>1604.58</ele>
        <time>2022-02-19T10:29:56Z</time>
      </trkpt>
      <trkpt lat="45.09524" lon="5.60824">
        <ele>1603.62</ele>
        <time>2022-02-19T10:30:07Z</time>
      </trkpt>
      <trkpt lat="45.09523" lon="5.60825">
        <ele>1604.1</ele>
        <time>2022-02-19T10:30:17Z</time>
      </trkpt>
      <trkpt lat="45.0953" lon="5.60819">
        <ele>1600.73</ele>
        <time>2022-02-19T10:30:21Z</time>
      </trkpt>
      <trkpt lat="45.09531" lon="5.60819">
        <ele>1600.73</ele>
        <time>2022-02-19T10:30:22Z</time>
      </trkpt>
      <trkpt lat="45.09523" lon="5.60807">
        <ele>1595.93</ele>
        <time>2022-02-19T10:30:27Z</time>
      </trkpt>
      <trkpt lat="45.09518" lon="5.60806">
        <ele>1594.96</ele>
        <time>2022-02-19T10:30:29Z</time>
      </trkpt>
      <trkpt lat="45.09504" lon="5.60799">
        <ele>1593.04</ele>
        <time>2022-02-19T10:30:35Z</time>
      </trkpt>
      <trkpt lat="45.09506" lon="5.60794">
        <ele>1590.64</ele>
        <time>2022-02-19T10:30:39Z</time>
      </trkpt>
      <trkpt lat="45.0951" lon="5.60796">
        <ele>1590.16</ele>
        <time>2022-02-19T10:30:49Z</time>
      </trkpt>
      <trkpt lat="45.09509" lon="5.60795">
        <ele>1590.16</ele>
        <time>2022-02-19T10:30:58Z</time>
      </trkpt>
      <trkpt lat="45.0952" lon="5.60787">
        <ele>1586.79</ele>
        <time>2022-02-19T10:31:04Z</time>
      </trkpt>
      <trkpt lat="45.09517" lon="5.60783">
        <ele>1584.39</ele>
        <time>2022-02-19T10:31:05Z</time>
      </trkpt>
      <trkpt lat="45.09513" lon="5.6078">
        <ele>1584.39</ele>
        <time>2022-02-19T10:31:06Z</time>
      </trkpt>
      <trkpt lat="45.09509" lon="5.60778">
        <ele>1583.91</ele>
        <time>2022-02-19T10:31:07Z</time>
      </trkpt>
      <trkpt lat="45.09506" lon="5.60777">
        <ele>1582.95</ele>
        <time>2022-02-19T10:31:08Z</time>
      </trkpt>
      <trkpt lat="45.09503" lon="5.60777">
        <ele>1582.95</ele>
        <time>2022-02-19T10:31:10Z</time>
      </trkpt>
      <trkpt lat="45.09485" lon="5.60765">
        <ele>1580.06</ele>
        <time>2022-02-19T10:31:18Z</time>
      </trkpt>
      <trkpt lat="45.09483" lon="5.60763">
        <ele>1580.06</ele>
        <time>2022-02-19T10:31:19Z</time>
      </trkpt>
      <trkpt lat="45.09473" lon="5.60758">
        <ele>1577.66</ele>
        <time>2022-02-19T10:31:22Z</time>
      </trkpt>
      <trkpt lat="45.09466" lon="5.60756">
        <ele>1577.66</ele>
        <time>2022-02-19T10:31:25Z</time>
      </trkpt>
      <trkpt lat="45.09456" lon="5.60745">
        <ele>1576.22</ele>
        <time>2022-02-19T10:31:29Z</time>
      </trkpt>
      <trkpt lat="45.09449" lon="5.60737">
        <ele>1571.89</ele>
        <time>2022-02-19T10:31:31Z</time>
      </trkpt>
      <trkpt lat="45.09454" lon="5.60731">
        <ele>1569.49</ele>
        <time>2022-02-19T10:31:35Z</time>
      </trkpt>
      <trkpt lat="45.09459" lon="5.6073">
        <ele>1567.09</ele>
        <time>2022-02-19T10:31:42Z</time>
      </trkpt>
      <trkpt lat="45.0946" lon="5.60725">
        <ele>1564.68</ele>
        <time>2022-02-19T10:31:45Z</time>
      </trkpt>
      <trkpt lat="45.09465" lon="5.6072">
        <ele>1562.28</ele>
        <time>2022-02-19T10:31:47Z</time>
      </trkpt>
      <trkpt lat="45.09467" lon="5.6072">
        <ele>1561.32</ele>
        <time>2022-02-19T10:31:48Z</time>
      </trkpt>
      <trkpt lat="45.09469" lon="5.60721">
        <ele>1561.32</ele>
        <time>2022-02-19T10:31:49Z</time>
      </trkpt>
      <trkpt lat="45.09467" lon="5.60719">
        <ele>1560.36</ele>
        <time>2022-02-19T10:31:56Z</time>
      </trkpt>
      <trkpt lat="45.09465" lon="5.60714">
        <ele>1559.4</ele>
        <time>2022-02-19T10:31:59Z</time>
      </trkpt>
      <trkpt lat="45.09462" lon="5.60713">
        <ele>1558.43</ele>
        <time>2022-02-19T10:32:00Z</time>
      </trkpt>
      <trkpt lat="45.09459" lon="5.60713">
        <ele>1557.47</ele>
        <time>2022-02-19T10:32:01Z</time>
      </trkpt>
      <trkpt lat="45.09457" lon="5.60712">
        <ele>1557.47</ele>
        <time>2022-02-19T10:32:02Z</time>
      </trkpt>
      <trkpt lat="45.0945" lon="5.60706">
        <ele>1555.55</ele>
        <time>2022-02-19T10:32:06Z</time>
      </trkpt>
      <trkpt lat="45.09444" lon="5.60702">
        <ele>1554.11</ele>
        <time>2022-02-19T10:32:09Z</time>
      </trkpt>
      <trkpt lat="45.0944" lon="5.60698">
        <ele>1552.19</ele>
        <time>2022-02-19T10:32:13Z</time>
      </trkpt>
      <trkpt lat="45.09439" lon="5.60696">
        <ele>1551.71</ele>
        <time>2022-02-19T10:32:15Z</time>
      </trkpt>
      <trkpt lat="45.09434" lon="5.60687">
        <ele>1547.38</ele>
        <time>2022-02-19T10:32:24Z</time>
      </trkpt>
      <trkpt lat="45.0943" lon="5.60685">
        <ele>1545.46</ele>
        <time>2022-02-19T10:32:25Z</time>
      </trkpt>
      <trkpt lat="45.09424" lon="5.60682">
        <ele>1544.5</ele>
        <time>2022-02-19T10:32:27Z</time>
      </trkpt>
      <trkpt lat="45.09416" lon="5.60681">
        <ele>1544.5</ele>
        <time>2022-02-19T10:32:37Z</time>
      </trkpt>
      <trkpt lat="45.09407" lon="5.60679">
        <ele>1543.53</ele>
        <time>2022-02-19T10:32:49Z</time>
      </trkpt>
      <trkpt lat="45.09406" lon="5.60673">
        <ele>1542.09</ele>
        <time>2022-02-19T10:33:05Z</time>
      </trkpt>
      <trkpt lat="45.09405" lon="5.60671">
        <ele>1540.65</ele>
        <time>2022-02-19T10:33:06Z</time>
      </trkpt>
      <trkpt lat="45.09403" lon="5.60669">
        <ele>1538.73</ele>
        <time>2022-02-19T10:33:07Z</time>
      </trkpt>
      <trkpt lat="45.09401" lon="5.60667">
        <ele>1540.17</ele>
        <time>2022-02-19T10:33:08Z</time>
      </trkpt>
      <trkpt lat="45.094" lon="5.60666">
        <ele>1538.25</ele>
        <time>2022-02-19T10:33:09Z</time>
      </trkpt>
      <trkpt lat="45.09399" lon="5.60665">
        <ele>1538.25</ele>
        <time>2022-02-19T10:33:10Z</time>
      </trkpt>
      <trkpt lat="45.094" lon="5.60663">
        <ele>1537.77</ele>
        <time>2022-02-19T10:33:11Z</time>
      </trkpt>
      <trkpt lat="45.09403" lon="5.60661">
        <ele>1536.32</ele>
        <time>2022-02-19T10:33:12Z</time>
      </trkpt>
      <trkpt lat="45.09405" lon="5.6066">
        <ele>1536.32</ele>
        <time>2022-02-19T10:33:13Z</time>
      </trkpt>
      <trkpt lat="45.09407" lon="5.60658">
        <ele>1535.36</ele>
        <time>2022-02-19T10:33:20Z</time>
      </trkpt>
      <trkpt lat="45.09407" lon="5.60657">
        <ele>1535.84</ele>
        <time>2022-02-19T10:33:21Z</time>
      </trkpt>
      <trkpt lat="45.09409" lon="5.60656">
        <ele>1534.4</ele>
        <time>2022-02-19T10:33:22Z</time>
      </trkpt>
      <trkpt lat="45.0941" lon="5.60655">
        <ele>1533.92</ele>
        <time>2022-02-19T10:33:27Z</time>
      </trkpt>
      <trkpt lat="45.09411" lon="5.60654">
        <ele>1533.44</ele>
        <time>2022-02-19T10:33:28Z</time>
      </trkpt>
      <trkpt lat="45.09413" lon="5.60653">
        <ele>1532.96</ele>
        <time>2022-02-19T10:33:29Z</time>
      </trkpt>
      <trkpt lat="45.09415" lon="5.60652">
        <ele>1532</ele>
        <time>2022-02-19T10:33:30Z</time>
      </trkpt>
      <trkpt lat="45.09418" lon="5.60652">
        <ele>1531.52</ele>
        <time>2022-02-19T10:33:31Z</time>
      </trkpt>
      <trkpt lat="45.09419" lon="5.60652">
        <ele>1531.52</ele>
        <time>2022-02-19T10:33:32Z</time>
      </trkpt>
      <trkpt lat="45.09422" lon="5.60651">
        <ele>1531.04</ele>
        <time>2022-02-19T10:33:35Z</time>
      </trkpt>
      <trkpt lat="45.09422" lon="5.60649">
        <ele>1530.08</ele>
        <time>2022-02-19T10:33:36Z</time>
      </trkpt>
      <trkpt lat="45.09418" lon="5.60645">
        <ele>1528.15</ele>
        <time>2022-02-19T10:33:38Z</time>
      </trkpt>
      <trkpt lat="45.09416" lon="5.60644">
        <ele>1528.15</ele>
        <time>2022-02-19T10:33:39Z</time>
      </trkpt>
      <trkpt lat="45.09414" lon="5.60643">
        <ele>1528.15</ele>
        <time>2022-02-19T10:33:40Z</time>
      </trkpt>
      <trkpt lat="45.09411" lon="5.60642">
        <ele>1528.63</ele>
        <time>2022-02-19T10:33:41Z</time>
      </trkpt>
      <trkpt lat="45.09398" lon="5.60637">
        <ele>1526.23</ele>
        <time>2022-02-19T10:33:46Z</time>
      </trkpt>
      <trkpt lat="45.0939" lon="5.60632">
        <ele>1525.27</ele>
        <time>2022-02-19T10:33:50Z</time>
      </trkpt>
      <trkpt lat="45.0939" lon="5.60629">
        <ele>1524.79</ele>
        <time>2022-02-19T10:33:51Z</time>
      </trkpt>
      <trkpt lat="45.09395" lon="5.60626">
        <ele>1523.83</ele>
        <time>2022-02-19T10:33:53Z</time>
      </trkpt>
      <trkpt lat="45.09398" lon="5.60626">
        <ele>1522.39</ele>
        <time>2022-02-19T10:33:54Z</time>
      </trkpt>
      <trkpt lat="45.09405" lon="5.60627">
        <ele>1521.9</ele>
        <time>2022-02-19T10:33:58Z</time>
      </trkpt>
      <trkpt lat="45.09404" lon="5.60621">
        <ele>1520.46</ele>
        <time>2022-02-19T10:34:01Z</time>
      </trkpt>
      <trkpt lat="45.09402" lon="5.6062">
        <ele>1519.5</ele>
        <time>2022-02-19T10:34:02Z</time>
      </trkpt>
      <trkpt lat="45.09403" lon="5.60611">
        <ele>1515.66</ele>
        <time>2022-02-19T10:34:08Z</time>
      </trkpt>
      <trkpt lat="45.0941" lon="5.60612">
        <ele>1514.21</ele>
        <time>2022-02-19T10:34:10Z</time>
      </trkpt>
      <trkpt lat="45.09431" lon="5.6061">
        <ele>1512.29</ele>
        <time>2022-02-19T10:34:17Z</time>
      </trkpt>
      <trkpt lat="45.09439" lon="5.60609">
        <ele>1510.37</ele>
        <time>2022-02-19T10:34:21Z</time>
      </trkpt>
      <trkpt lat="45.09435" lon="5.60602">
        <ele>1508.93</ele>
        <time>2022-02-19T10:34:25Z</time>
      </trkpt>
      <trkpt lat="45.09425" lon="5.60594">
        <ele>1507.48</ele>
        <time>2022-02-19T10:34:32Z</time>
      </trkpt>
      <trkpt lat="45.09422" lon="5.60586">
        <ele>1506.04</ele>
        <time>2022-02-19T10:34:37Z</time>
      </trkpt>
      <trkpt lat="45.09422" lon="5.60582">
        <ele>1503.16</ele>
        <time>2022-02-19T10:34:50Z</time>
      </trkpt>
      <trkpt lat="45.09419" lon="5.60577">
        <ele>1501.72</ele>
        <time>2022-02-19T10:34:54Z</time>
      </trkpt>
      <trkpt lat="45.09419" lon="5.60571">
        <ele>1499.31</ele>
        <time>2022-02-19T10:35:07Z</time>
      </trkpt>
      <trkpt lat="45.09418" lon="5.60567">
        <ele>1497.87</ele>
        <time>2022-02-19T10:35:22Z</time>
      </trkpt>
      <trkpt lat="45.09415" lon="5.60561">
        <ele>1495.47</ele>
        <time>2022-02-19T10:35:41Z</time>
      </trkpt>
      <trkpt lat="45.09404" lon="5.60547">
        <ele>1494.03</ele>
        <time>2022-02-19T10:36:00Z</time>
      </trkpt>
      <trkpt lat="45.09399" lon="5.60543">
        <ele>1492.1</ele>
        <time>2022-02-19T10:36:12Z</time>
      </trkpt>
      <trkpt lat="45.09394" lon="5.60536">
        <ele>1490.66</ele>
        <time>2022-02-19T10:36:33Z</time>
      </trkpt>
      <trkpt lat="45.09395" lon="5.60537">
        <ele>1490.18</ele>
        <time>2022-02-19T10:36:54Z</time>
      </trkpt>
      <trkpt lat="45.09396" lon="5.60538">
        <ele>1489.7</ele>
        <time>2022-02-19T10:37:12Z</time>
      </trkpt>
      <trkpt lat="45.09396" lon="5.60537">
        <ele>1489.22</ele>
        <time>2022-02-19T10:37:17Z</time>
      </trkpt>
      <trkpt lat="45.09401" lon="5.60525">
        <ele>1485.85</ele>
        <time>2022-02-19T10:37:30Z</time>
      </trkpt>
      <trkpt lat="45.09398" lon="5.60524">
        <ele>1484.89</ele>
        <time>2022-02-19T10:37:41Z</time>
      </trkpt>
      <trkpt lat="45.094" lon="5.60521">
        <ele>1483.45</ele>
        <time>2022-02-19T10:37:44Z</time>
      </trkpt>
      <trkpt lat="45.09402" lon="5.6052">
        <ele>1483.45</ele>
        <time>2022-02-19T10:37:46Z</time>
      </trkpt>
      <trkpt lat="45.09409" lon="5.60512">
        <ele>1482.49</ele>
        <time>2022-02-19T10:37:55Z</time>
      </trkpt>
      <trkpt lat="45.09412" lon="5.60502">
        <ele>1480.09</ele>
        <time>2022-02-19T10:37:59Z</time>
      </trkpt>
      <trkpt lat="45.09417" lon="5.60496">
        <ele>1477.68</ele>
        <time>2022-02-19T10:38:02Z</time>
      </trkpt>
      <trkpt lat="45.09417" lon="5.60497">
        <ele>1477.2</ele>
        <time>2022-02-19T10:38:04Z</time>
      </trkpt>
      <trkpt lat="45.09415" lon="5.60488">
        <ele>1476.24</ele>
        <time>2022-02-19T10:38:07Z</time>
      </trkpt>
      <trkpt lat="45.0942" lon="5.60479">
        <ele>1471.92</ele>
        <time>2022-02-19T10:38:12Z</time>
      </trkpt>
      <trkpt lat="45.09419" lon="5.60478">
        <ele>1471.92</ele>
        <time>2022-02-19T10:38:13Z</time>
      </trkpt>
      <trkpt lat="45.09422" lon="5.60468">
        <ele>1468.07</ele>
        <time>2022-02-19T10:38:18Z</time>
      </trkpt>
      <trkpt lat="45.09422" lon="5.60463">
        <ele>1467.59</ele>
        <time>2022-02-19T10:38:22Z</time>
      </trkpt>
      <trkpt lat="45.09422" lon="5.6046">
        <ele>1467.59</ele>
        <time>2022-02-19T10:38:24Z</time>
      </trkpt>
      <trkpt lat="45.09428" lon="5.6046">
        <ele>1464.23</ele>
        <time>2022-02-19T10:38:28Z</time>
      </trkpt>
      <trkpt lat="45.09441" lon="5.60454">
        <ele>1462.78</ele>
        <time>2022-02-19T10:38:32Z</time>
      </trkpt>
      <trkpt lat="45.09447" lon="5.60449">
        <ele>1460.86</ele>
        <time>2022-02-19T10:38:34Z</time>
      </trkpt>
      <trkpt lat="45.0945" lon="5.60445">
        <ele>1460.86</ele>
        <time>2022-02-19T10:38:39Z</time>
      </trkpt>
      <trkpt lat="45.09451" lon="5.60428">
        <ele>1458.46</ele>
        <time>2022-02-19T10:38:44Z</time>
      </trkpt>
      <trkpt lat="45.09454" lon="5.60424">
        <ele>1456.53</ele>
        <time>2022-02-19T10:38:45Z</time>
      </trkpt>
      <trkpt lat="45.09458" lon="5.60422">
        <ele>1454.13</ele>
        <time>2022-02-19T10:38:46Z</time>
      </trkpt>
      <trkpt lat="45.09463" lon="5.60421">
        <ele>1453.65</ele>
        <time>2022-02-19T10:38:47Z</time>
      </trkpt>
      <trkpt lat="45.09468" lon="5.60421">
        <ele>1453.65</ele>
        <time>2022-02-19T10:38:48Z</time>
      </trkpt>
      <trkpt lat="45.09473" lon="5.60422">
        <ele>1453.17</ele>
        <time>2022-02-19T10:38:49Z</time>
      </trkpt>
      <trkpt lat="45.09483" lon="5.60425">
        <ele>1452.21</ele>
        <time>2022-02-19T10:38:51Z</time>
      </trkpt>
      <trkpt lat="45.09495" lon="5.60429">
        <ele>1452.21</ele>
        <time>2022-02-19T10:38:53Z</time>
      </trkpt>
      <trkpt lat="45.095" lon="5.60428">
        <ele>1452.21</ele>
        <time>2022-02-19T10:38:54Z</time>
      </trkpt>
      <trkpt lat="45.09503" lon="5.60424">
        <ele>1451.25</ele>
        <time>2022-02-19T10:38:55Z</time>
      </trkpt>
      <trkpt lat="45.09504" lon="5.60419">
        <ele>1450.77</ele>
        <time>2022-02-19T10:38:56Z</time>
      </trkpt>
      <trkpt lat="45.09502" lon="5.60415">
        <ele>1450.29</ele>
        <time>2022-02-19T10:38:57Z</time>
      </trkpt>
      <trkpt lat="45.09499" lon="5.6041">
        <ele>1448.84</ele>
        <time>2022-02-19T10:38:58Z</time>
      </trkpt>
      <trkpt lat="45.09495" lon="5.60405">
        <ele>1446.44</ele>
        <time>2022-02-19T10:38:59Z</time>
      </trkpt>
      <trkpt lat="45.09491" lon="5.604">
        <ele>1445.96</ele>
        <time>2022-02-19T10:39:00Z</time>
      </trkpt>
      <trkpt lat="45.09486" lon="5.60396">
        <ele>1445.48</ele>
        <time>2022-02-19T10:39:01Z</time>
      </trkpt>
      <trkpt lat="45.09481" lon="5.60392">
        <ele>1445</ele>
        <time>2022-02-19T10:39:02Z</time>
      </trkpt>
      <trkpt lat="45.09473" lon="5.60384">
        <ele>1445</ele>
        <time>2022-02-19T10:39:04Z</time>
      </trkpt>
      <trkpt lat="45.09469" lon="5.6038">
        <ele>1445</ele>
        <time>2022-02-19T10:39:05Z</time>
      </trkpt>
      <trkpt lat="45.09443" lon="5.60353">
        <ele>1443.56</ele>
        <time>2022-02-19T10:39:11Z</time>
      </trkpt>
      <trkpt lat="45.0944" lon="5.60348">
        <ele>1443.08</ele>
        <time>2022-02-19T10:39:12Z</time>
      </trkpt>
      <trkpt lat="45.09439" lon="5.60341">
        <ele>1441.15</ele>
        <time>2022-02-19T10:39:13Z</time>
      </trkpt>
      <trkpt lat="45.09437" lon="5.60334">
        <ele>1440.19</ele>
        <time>2022-02-19T10:39:14Z</time>
      </trkpt>
      <trkpt lat="45.09435" lon="5.60327">
        <ele>1438.75</ele>
        <time>2022-02-19T10:39:15Z</time>
      </trkpt>
      <trkpt lat="45.09433" lon="5.6032">
        <ele>1438.75</ele>
        <time>2022-02-19T10:39:16Z</time>
      </trkpt>
      <trkpt lat="45.09429" lon="5.60298">
        <ele>1440.19</ele>
        <time>2022-02-19T10:39:19Z</time>
      </trkpt>
      <trkpt lat="45.09428" lon="5.60291">
        <ele>1438.27</ele>
        <time>2022-02-19T10:39:20Z</time>
      </trkpt>
      <trkpt lat="45.09428" lon="5.60285">
        <ele>1438.27</ele>
        <time>2022-02-19T10:39:21Z</time>
      </trkpt>
      <trkpt lat="45.09434" lon="5.60251">
        <ele>1438.75</ele>
        <time>2022-02-19T10:39:28Z</time>
      </trkpt>
      <trkpt lat="45.09438" lon="5.60248">
        <ele>1439.23</ele>
        <time>2022-02-19T10:39:30Z</time>
      </trkpt>
      <trkpt lat="45.09454" lon="5.6026">
        <ele>1435.87</ele>
        <time>2022-02-19T10:39:35Z</time>
      </trkpt>
      <trkpt lat="45.09459" lon="5.60265">
        <ele>1440.19</ele>
        <time>2022-02-19T10:39:36Z</time>
      </trkpt>
      <trkpt lat="45.09462" lon="5.6027">
        <ele>1437.79</ele>
        <time>2022-02-19T10:39:37Z</time>
      </trkpt>
      <trkpt lat="45.09465" lon="5.60273">
        <ele>1437.79</ele>
        <time>2022-02-19T10:39:38Z</time>
      </trkpt>
      <trkpt lat="45.09468" lon="5.60274">
        <ele>1432.98</ele>
        <time>2022-02-19T10:39:39Z</time>
      </trkpt>
      <trkpt lat="45.09471" lon="5.60272">
        <ele>1432.5</ele>
        <time>2022-02-19T10:39:40Z</time>
      </trkpt>
      <trkpt lat="45.09474" lon="5.6027">
        <ele>1434.42</ele>
        <time>2022-02-19T10:39:41Z</time>
      </trkpt>
      <trkpt lat="45.09477" lon="5.6027">
        <ele>1434.91</ele>
        <time>2022-02-19T10:39:42Z</time>
      </trkpt>
      <trkpt lat="45.0948" lon="5.60273">
        <ele>1432.5</ele>
        <time>2022-02-19T10:39:43Z</time>
      </trkpt>
      <trkpt lat="45.09484" lon="5.60276">
        <ele>1432.02</ele>
        <time>2022-02-19T10:39:44Z</time>
      </trkpt>
      <trkpt lat="45.09489" lon="5.60276">
        <ele>1432.98</ele>
        <time>2022-02-19T10:39:45Z</time>
      </trkpt>
      <trkpt lat="45.09493" lon="5.60277">
        <ele>1429.14</ele>
        <time>2022-02-19T10:39:46Z</time>
      </trkpt>
      <trkpt lat="45.09498" lon="5.6028">
        <ele>1425.29</ele>
        <time>2022-02-19T10:39:47Z</time>
      </trkpt>
      <trkpt lat="45.09503" lon="5.60281">
        <ele>1422.89</ele>
        <time>2022-02-19T10:39:48Z</time>
      </trkpt>
      <trkpt lat="45.09508" lon="5.6028">
        <ele>1425.29</ele>
        <time>2022-02-19T10:39:49Z</time>
      </trkpt>
      <trkpt lat="45.09513" lon="5.60278">
        <ele>1429.62</ele>
        <time>2022-02-19T10:39:50Z</time>
      </trkpt>
      <trkpt lat="45.09518" lon="5.60279">
        <ele>1421.45</ele>
        <time>2022-02-19T10:39:51Z</time>
      </trkpt>
      <trkpt lat="45.09524" lon="5.60282">
        <ele>1419.52</ele>
        <time>2022-02-19T10:39:52Z</time>
      </trkpt>
      <trkpt lat="45.0953" lon="5.60283">
        <ele>1419.52</ele>
        <time>2022-02-19T10:39:53Z</time>
      </trkpt>
      <trkpt lat="45.09535" lon="5.60282">
        <ele>1422.89</ele>
        <time>2022-02-19T10:39:54Z</time>
      </trkpt>
      <trkpt lat="45.0954" lon="5.60283">
        <ele>1420</ele>
        <time>2022-02-19T10:39:55Z</time>
      </trkpt>
      <trkpt lat="45.09546" lon="5.60285">
        <ele>1416.16</ele>
        <time>2022-02-19T10:39:56Z</time>
      </trkpt>
      <trkpt lat="45.09551" lon="5.60285">
        <ele>1421.93</ele>
        <time>2022-02-19T10:39:57Z</time>
      </trkpt>
      <trkpt lat="45.09556" lon="5.60284">
        <ele>1417.6</ele>
        <time>2022-02-19T10:39:58Z</time>
      </trkpt>
      <trkpt lat="45.09561" lon="5.60285">
        <ele>1414.72</ele>
        <time>2022-02-19T10:39:59Z</time>
      </trkpt>
      <trkpt lat="45.09567" lon="5.60287">
        <ele>1414.72</ele>
        <time>2022-02-19T10:40:00Z</time>
      </trkpt>
      <trkpt lat="45.09578" lon="5.6029">
        <ele>1411.35</ele>
        <time>2022-02-19T10:40:02Z</time>
      </trkpt>
      <trkpt lat="45.09584" lon="5.60289">
        <ele>1417.12</ele>
        <time>2022-02-19T10:40:03Z</time>
      </trkpt>
      <trkpt lat="45.09589" lon="5.60288">
        <ele>1414.24</ele>
        <time>2022-02-19T10:40:04Z</time>
      </trkpt>
      <trkpt lat="45.09594" lon="5.60289">
        <ele>1408.95</ele>
        <time>2022-02-19T10:40:05Z</time>
      </trkpt>
      <trkpt lat="45.096" lon="5.60292">
        <ele>1414.24</ele>
        <time>2022-02-19T10:40:06Z</time>
      </trkpt>
      <trkpt lat="45.09605" lon="5.60294">
        <ele>1408.47</ele>
        <time>2022-02-19T10:40:07Z</time>
      </trkpt>
      <trkpt lat="45.09611" lon="5.60295">
        <ele>1410.87</ele>
        <time>2022-02-19T10:40:08Z</time>
      </trkpt>
      <trkpt lat="45.09617" lon="5.60296">
        <ele>1411.83</ele>
        <time>2022-02-19T10:40:09Z</time>
      </trkpt>
      <trkpt lat="45.09623" lon="5.60297">
        <ele>1406.07</ele>
        <time>2022-02-19T10:40:10Z</time>
      </trkpt>
      <trkpt lat="45.09628" lon="5.603">
        <ele>1404.62</ele>
        <time>2022-02-19T10:40:11Z</time>
      </trkpt>
      <trkpt lat="45.09634" lon="5.60301">
        <ele>1404.14</ele>
        <time>2022-02-19T10:40:12Z</time>
      </trkpt>
      <trkpt lat="45.0964" lon="5.60301">
        <ele>1410.87</ele>
        <time>2022-02-19T10:40:13Z</time>
      </trkpt>
      <trkpt lat="45.09646" lon="5.60302">
        <ele>1405.1</ele>
        <time>2022-02-19T10:40:14Z</time>
      </trkpt>
      <trkpt lat="45.09652" lon="5.60304">
        <ele>1400.3</ele>
        <time>2022-02-19T10:40:15Z</time>
      </trkpt>
      <trkpt lat="45.09658" lon="5.60304">
        <ele>1403.66</ele>
        <time>2022-02-19T10:40:16Z</time>
      </trkpt>
      <trkpt lat="45.09664" lon="5.60304">
        <ele>1406.07</ele>
        <time>2022-02-19T10:40:17Z</time>
      </trkpt>
      <trkpt lat="45.0967" lon="5.60305">
        <ele>1402.22</ele>
        <time>2022-02-19T10:40:18Z</time>
      </trkpt>
      <trkpt lat="45.09677" lon="5.60307">
        <ele>1399.34</ele>
        <time>2022-02-19T10:40:19Z</time>
      </trkpt>
      <trkpt lat="45.09683" lon="5.60307">
        <ele>1399.34</ele>
        <time>2022-02-19T10:40:20Z</time>
      </trkpt>
      <trkpt lat="45.09688" lon="5.60306">
        <ele>1403.66</ele>
        <time>2022-02-19T10:40:21Z</time>
      </trkpt>
      <trkpt lat="45.09694" lon="5.60306">
        <ele>1400.78</ele>
        <time>2022-02-19T10:40:22Z</time>
      </trkpt>
      <trkpt lat="45.097" lon="5.60307">
        <ele>1398.86</ele>
        <time>2022-02-19T10:40:23Z</time>
      </trkpt>
      <trkpt lat="45.09705" lon="5.60308">
        <ele>1402.7</ele>
        <time>2022-02-19T10:40:24Z</time>
      </trkpt>
      <trkpt lat="45.09711" lon="5.60308">
        <ele>1394.53</ele>
        <time>2022-02-19T10:40:25Z</time>
      </trkpt>
      <trkpt lat="45.09717" lon="5.60309">
        <ele>1397.41</ele>
        <time>2022-02-19T10:40:26Z</time>
      </trkpt>
      <trkpt lat="45.09723" lon="5.60309">
        <ele>1397.41</ele>
        <time>2022-02-19T10:40:27Z</time>
      </trkpt>
      <trkpt lat="45.0973" lon="5.60309">
        <ele>1392.61</ele>
        <time>2022-02-19T10:40:28Z</time>
      </trkpt>
      <trkpt lat="45.09736" lon="5.60309">
        <ele>1396.93</ele>
        <time>2022-02-19T10:40:29Z</time>
      </trkpt>
      <trkpt lat="45.09743" lon="5.60308">
        <ele>1396.45</ele>
        <time>2022-02-19T10:40:30Z</time>
      </trkpt>
      <trkpt lat="45.09751" lon="5.60306">
        <ele>1391.65</ele>
        <time>2022-02-19T10:40:31Z</time>
      </trkpt>
      <trkpt lat="45.09758" lon="5.60303">
        <ele>1393.09</ele>
        <time>2022-02-19T10:40:32Z</time>
      </trkpt>
      <trkpt lat="45.09765" lon="5.603">
        <ele>1392.13</ele>
        <time>2022-02-19T10:40:33Z</time>
      </trkpt>
      <trkpt lat="45.09772" lon="5.60299">
        <ele>1383.96</ele>
        <time>2022-02-19T10:40:34Z</time>
      </trkpt>
      <trkpt lat="45.09779" lon="5.60299">
        <ele>1383.96</ele>
        <time>2022-02-19T10:40:35Z</time>
      </trkpt>
      <trkpt lat="45.09785" lon="5.60298">
        <ele>1387.32</ele>
        <time>2022-02-19T10:40:36Z</time>
      </trkpt>
      <trkpt lat="45.09791" lon="5.60297">
        <ele>1384.92</ele>
        <time>2022-02-19T10:40:37Z</time>
      </trkpt>
      <trkpt lat="45.09797" lon="5.60297">
        <ele>1380.59</ele>
        <time>2022-02-19T10:40:38Z</time>
      </trkpt>
      <trkpt lat="45.09804" lon="5.60297">
        <ele>1380.59</ele>
        <time>2022-02-19T10:40:39Z</time>
      </trkpt>
      <trkpt lat="45.0981" lon="5.60295">
        <ele>1380.11</ele>
        <time>2022-02-19T10:40:40Z</time>
      </trkpt>
      <trkpt lat="45.09816" lon="5.60295">
        <ele>1378.19</ele>
        <time>2022-02-19T10:40:41Z</time>
      </trkpt>
      <trkpt lat="45.09822" lon="5.60297">
        <ele>1374.34</ele>
        <time>2022-02-19T10:40:42Z</time>
      </trkpt>
      <trkpt lat="45.09828" lon="5.60298">
        <ele>1378.67</ele>
        <time>2022-02-19T10:40:43Z</time>
      </trkpt>
      <trkpt lat="45.09833" lon="5.60297">
        <ele>1377.23</ele>
        <time>2022-02-19T10:40:44Z</time>
      </trkpt>
      <trkpt lat="45.09838" lon="5.60295">
        <ele>1369.05</ele>
        <time>2022-02-19T10:40:45Z</time>
      </trkpt>
      <trkpt lat="45.09844" lon="5.60293">
        <ele>1375.78</ele>
        <time>2022-02-19T10:40:46Z</time>
      </trkpt>
      <trkpt lat="45.09849" lon="5.6029">
        <ele>1370.98</ele>
        <time>2022-02-19T10:40:47Z</time>
      </trkpt>
      <trkpt lat="45.09854" lon="5.60286">
        <ele>1374.34</ele>
        <time>2022-02-19T10:40:48Z</time>
      </trkpt>
      <trkpt lat="45.0986" lon="5.60283">
        <ele>1374.34</ele>
        <time>2022-02-19T10:40:49Z</time>
      </trkpt>
      <trkpt lat="45.09866" lon="5.60282">
        <ele>1367.61</ele>
        <time>2022-02-19T10:40:50Z</time>
      </trkpt>
      <trkpt lat="45.09872" lon="5.60284">
        <ele>1368.57</ele>
        <time>2022-02-19T10:40:51Z</time>
      </trkpt>
      <trkpt lat="45.09878" lon="5.60285">
        <ele>1371.94</ele>
        <time>2022-02-19T10:40:52Z</time>
      </trkpt>
      <trkpt lat="45.09884" lon="5.60285">
        <ele>1368.57</ele>
        <time>2022-02-19T10:40:53Z</time>
      </trkpt>
      <trkpt lat="45.0989" lon="5.60287">
        <ele>1365.21</ele>
        <time>2022-02-19T10:40:54Z</time>
      </trkpt>
      <trkpt lat="45.09895" lon="5.60289">
        <ele>1366.65</ele>
        <time>2022-02-19T10:40:55Z</time>
      </trkpt>
      <trkpt lat="45.09901" lon="5.6029">
        <ele>1367.61</ele>
        <time>2022-02-19T10:40:56Z</time>
      </trkpt>
      <trkpt lat="45.09906" lon="5.6029">
        <ele>1364.73</ele>
        <time>2022-02-19T10:40:57Z</time>
      </trkpt>
      <trkpt lat="45.09912" lon="5.60291">
        <ele>1360.4</ele>
        <time>2022-02-19T10:40:58Z</time>
      </trkpt>
      <trkpt lat="45.09918" lon="5.60293">
        <ele>1355.6</ele>
        <time>2022-02-19T10:40:59Z</time>
      </trkpt>
      <trkpt lat="45.09924" lon="5.60294">
        <ele>1359.44</ele>
        <time>2022-02-19T10:41:00Z</time>
      </trkpt>
      <trkpt lat="45.0993" lon="5.60294">
        <ele>1362.81</ele>
        <time>2022-02-19T10:41:01Z</time>
      </trkpt>
      <trkpt lat="45.09936" lon="5.60295">
        <ele>1358</ele>
        <time>2022-02-19T10:41:02Z</time>
      </trkpt>
      <trkpt lat="45.09942" lon="5.60296">
        <ele>1353.19</ele>
        <time>2022-02-19T10:41:03Z</time>
      </trkpt>
      <trkpt lat="45.09947" lon="5.60297">
        <ele>1355.12</ele>
        <time>2022-02-19T10:41:04Z</time>
      </trkpt>
      <trkpt lat="45.09953" lon="5.60297">
        <ele>1355.6</ele>
        <time>2022-02-19T10:41:05Z</time>
      </trkpt>
      <trkpt lat="45.09958" lon="5.60297">
        <ele>1352.71</ele>
        <time>2022-02-19T10:41:06Z</time>
      </trkpt>
      <trkpt lat="45.09964" lon="5.60297">
        <ele>1352.71</ele>
        <time>2022-02-19T10:41:07Z</time>
      </trkpt>
      <trkpt lat="45.09977" lon="5.60299">
        <ele>1350.31</ele>
        <time>2022-02-19T10:41:09Z</time>
      </trkpt>
      <trkpt lat="45.09991" lon="5.603">
        <ele>1346.94</ele>
        <time>2022-02-19T10:41:11Z</time>
      </trkpt>
      <trkpt lat="45.10005" lon="5.60301">
        <ele>1344.06</ele>
        <time>2022-02-19T10:41:13Z</time>
      </trkpt>
      <trkpt lat="45.10028" lon="5.60302">
        <ele>1346.94</ele>
        <time>2022-02-19T10:41:16Z</time>
      </trkpt>
      <trkpt lat="45.10035" lon="5.60301">
        <ele>1341.66</ele>
        <time>2022-02-19T10:41:17Z</time>
      </trkpt>
      <trkpt lat="45.10058" lon="5.60301">
        <ele>1339.25</ele>
        <time>2022-02-19T10:41:20Z</time>
      </trkpt>
      <trkpt lat="45.10072" lon="5.60302">
        <ele>1338.77</ele>
        <time>2022-02-19T10:41:22Z</time>
      </trkpt>
      <trkpt lat="45.10079" lon="5.60304">
        <ele>1337.81</ele>
        <time>2022-02-19T10:41:23Z</time>
      </trkpt>
      <trkpt lat="45.10086" lon="5.60306">
        <ele>1337.33</ele>
        <time>2022-02-19T10:41:24Z</time>
      </trkpt>
      <trkpt lat="45.10092" lon="5.60309">
        <ele>1339.25</ele>
        <time>2022-02-19T10:41:25Z</time>
      </trkpt>
      <trkpt lat="45.10098" lon="5.6031">
        <ele>1342.14</ele>
        <time>2022-02-19T10:41:26Z</time>
      </trkpt>
      <trkpt lat="45.10103" lon="5.60311">
        <ele>1338.29</ele>
        <time>2022-02-19T10:41:27Z</time>
      </trkpt>
      <trkpt lat="45.10108" lon="5.60311">
        <ele>1336.37</ele>
        <time>2022-02-19T10:41:28Z</time>
      </trkpt>
      <trkpt lat="45.10113" lon="5.60311">
        <ele>1336.37</ele>
        <time>2022-02-19T10:41:29Z</time>
      </trkpt>
      <trkpt lat="45.10118" lon="5.60311">
        <ele>1336.37</ele>
        <time>2022-02-19T10:41:30Z</time>
      </trkpt>
      <trkpt lat="45.10122" lon="5.60311">
        <ele>1335.41</ele>
        <time>2022-02-19T10:41:31Z</time>
      </trkpt>
      <trkpt lat="45.10126" lon="5.60309">
        <ele>1334.45</ele>
        <time>2022-02-19T10:41:32Z</time>
      </trkpt>
      <trkpt lat="45.10131" lon="5.60308">
        <ele>1334.45</ele>
        <time>2022-02-19T10:41:33Z</time>
      </trkpt>
      <trkpt lat="45.10136" lon="5.60308">
        <ele>1331.56</ele>
        <time>2022-02-19T10:41:34Z</time>
      </trkpt>
      <trkpt lat="45.1014" lon="5.60309">
        <ele>1331.56</ele>
        <time>2022-02-19T10:41:35Z</time>
      </trkpt>
      <trkpt lat="45.10145" lon="5.60311">
        <ele>1331.56</ele>
        <time>2022-02-19T10:41:36Z</time>
      </trkpt>
      <trkpt lat="45.10149" lon="5.60311">
        <ele>1332.04</ele>
        <time>2022-02-19T10:41:37Z</time>
      </trkpt>
      <trkpt lat="45.10154" lon="5.60312">
        <ele>1328.68</ele>
        <time>2022-02-19T10:41:38Z</time>
      </trkpt>
      <trkpt lat="45.10159" lon="5.60314">
        <ele>1328.2</ele>
        <time>2022-02-19T10:41:39Z</time>
      </trkpt>
      <trkpt lat="45.10164" lon="5.60314">
        <ele>1328.2</ele>
        <time>2022-02-19T10:41:40Z</time>
      </trkpt>
      <trkpt lat="45.10168" lon="5.60314">
        <ele>1327.24</ele>
        <time>2022-02-19T10:41:41Z</time>
      </trkpt>
      <trkpt lat="45.10173" lon="5.60314">
        <ele>1326.28</ele>
        <time>2022-02-19T10:41:42Z</time>
      </trkpt>
      <trkpt lat="45.10177" lon="5.60313">
        <ele>1323.87</ele>
        <time>2022-02-19T10:41:43Z</time>
      </trkpt>
      <trkpt lat="45.10182" lon="5.60313">
        <ele>1322.91</ele>
        <time>2022-02-19T10:41:44Z</time>
      </trkpt>
      <trkpt lat="45.10186" lon="5.60312">
        <ele>1322.91</ele>
        <time>2022-02-19T10:41:45Z</time>
      </trkpt>
      <trkpt lat="45.10196" lon="5.60309">
        <ele>1321.47</ele>
        <time>2022-02-19T10:41:47Z</time>
      </trkpt>
      <trkpt lat="45.10205" lon="5.60308">
        <ele>1317.14</ele>
        <time>2022-02-19T10:41:49Z</time>
      </trkpt>
      <trkpt lat="45.10211" lon="5.60308">
        <ele>1317.62</ele>
        <time>2022-02-19T10:41:50Z</time>
      </trkpt>
      <trkpt lat="45.10226" lon="5.60311">
        <ele>1314.74</ele>
        <time>2022-02-19T10:41:53Z</time>
      </trkpt>
      <trkpt lat="45.10232" lon="5.60312">
        <ele>1311.86</ele>
        <time>2022-02-19T10:41:54Z</time>
      </trkpt>
      <trkpt lat="45.10253" lon="5.60317">
        <ele>1308.01</ele>
        <time>2022-02-19T10:41:58Z</time>
      </trkpt>
      <trkpt lat="45.10259" lon="5.60318">
        <ele>1308.01</ele>
        <time>2022-02-19T10:41:59Z</time>
      </trkpt>
      <trkpt lat="45.10289" lon="5.60324">
        <ele>1304.65</ele>
        <time>2022-02-19T10:42:04Z</time>
      </trkpt>
      <trkpt lat="45.10315" lon="5.60323">
        <ele>1303.2</ele>
        <time>2022-02-19T10:42:09Z</time>
      </trkpt>
      <trkpt lat="45.10325" lon="5.60324">
        <ele>1305.13</ele>
        <time>2022-02-19T10:42:11Z</time>
      </trkpt>
      <trkpt lat="45.10338" lon="5.60324">
        <ele>1301.28</ele>
        <time>2022-02-19T10:42:14Z</time>
      </trkpt>
      <trkpt lat="45.10342" lon="5.60324">
        <ele>1301.28</ele>
        <time>2022-02-19T10:42:15Z</time>
      </trkpt>
      <trkpt lat="45.10352" lon="5.60327">
        <ele>1298.88</ele>
        <time>2022-02-19T10:42:18Z</time>
      </trkpt>
      <trkpt lat="45.10376" lon="5.60338">
        <ele>1297.44</ele>
        <time>2022-02-19T10:42:24Z</time>
      </trkpt>
      <trkpt lat="45.10405" lon="5.60346">
        <ele>1294.55</ele>
        <time>2022-02-19T10:42:29Z</time>
      </trkpt>
      <trkpt lat="45.10411" lon="5.60347">
        <ele>1294.55</ele>
        <time>2022-02-19T10:42:30Z</time>
      </trkpt>
      <trkpt lat="45.10433" lon="5.60351">
        <ele>1295.51</ele>
        <time>2022-02-19T10:42:34Z</time>
      </trkpt>
      <trkpt lat="45.10441" lon="5.60352">
        <ele>1296.96</ele>
        <time>2022-02-19T10:42:36Z</time>
      </trkpt>
      <trkpt lat="45.10448" lon="5.60353">
        <ele>1293.59</ele>
        <time>2022-02-19T10:42:38Z</time>
      </trkpt>
      <trkpt lat="45.10452" lon="5.60354">
        <ele>1293.59</ele>
        <time>2022-02-19T10:42:39Z</time>
      </trkpt>
      <trkpt lat="45.10501" lon="5.60354">
        <ele>1291.67</ele>
        <time>2022-02-19T10:42:49Z</time>
      </trkpt>
      <trkpt lat="45.10512" lon="5.60355">
        <ele>1286.38</ele>
        <time>2022-02-19T10:42:51Z</time>
      </trkpt>
      <trkpt lat="45.10518" lon="5.60357">
        <ele>1287.82</ele>
        <time>2022-02-19T10:42:52Z</time>
      </trkpt>
      <trkpt lat="45.10523" lon="5.60359">
        <ele>1287.82</ele>
        <time>2022-02-19T10:42:53Z</time>
      </trkpt>
      <trkpt lat="45.10534" lon="5.60362">
        <ele>1284.94</ele>
        <time>2022-02-19T10:42:55Z</time>
      </trkpt>
      <trkpt lat="45.10538" lon="5.60363">
        <ele>1284.94</ele>
        <time>2022-02-19T10:42:56Z</time>
      </trkpt>
      <trkpt lat="45.10543" lon="5.60364">
        <ele>1284.94</ele>
        <time>2022-02-19T10:42:57Z</time>
      </trkpt>
      <trkpt lat="45.10547" lon="5.60364">
        <ele>1284.94</ele>
        <time>2022-02-19T10:42:58Z</time>
      </trkpt>
      <trkpt lat="45.10551" lon="5.60365">
        <ele>1282.54</ele>
        <time>2022-02-19T10:42:59Z</time>
      </trkpt>
      <trkpt lat="45.10555" lon="5.60366">
        <ele>1282.54</ele>
        <time>2022-02-19T10:43:00Z</time>
      </trkpt>
      <trkpt lat="45.10586" lon="5.60366">
        <ele>1283.02</ele>
        <time>2022-02-19T10:43:07Z</time>
      </trkpt>
      <trkpt lat="45.10591" lon="5.60367">
        <ele>1283.02</ele>
        <time>2022-02-19T10:43:08Z</time>
      </trkpt>
      <trkpt lat="45.10596" lon="5.6037">
        <ele>1279.65</ele>
        <time>2022-02-19T10:43:09Z</time>
      </trkpt>
      <trkpt lat="45.10602" lon="5.60374">
        <ele>1283.5</ele>
        <time>2022-02-19T10:43:10Z</time>
      </trkpt>
      <trkpt lat="45.10607" lon="5.60376">
        <ele>1284.46</ele>
        <time>2022-02-19T10:43:11Z</time>
      </trkpt>
      <trkpt lat="45.10612" lon="5.60376">
        <ele>1279.65</ele>
        <time>2022-02-19T10:43:12Z</time>
      </trkpt>
      <trkpt lat="45.10617" lon="5.60377">
        <ele>1279.65</ele>
        <time>2022-02-19T10:43:13Z</time>
      </trkpt>
      <trkpt lat="45.10622" lon="5.60378">
        <ele>1274.85</ele>
        <time>2022-02-19T10:43:14Z</time>
      </trkpt>
      <trkpt lat="45.10626" lon="5.60379">
        <ele>1276.29</ele>
        <time>2022-02-19T10:43:15Z</time>
      </trkpt>
      <trkpt lat="45.10634" lon="5.60379">
        <ele>1273.4</ele>
        <time>2022-02-19T10:43:17Z</time>
      </trkpt>
      <trkpt lat="45.10638" lon="5.6038">
        <ele>1273.4</ele>
        <time>2022-02-19T10:43:18Z</time>
      </trkpt>
      <trkpt lat="45.10642" lon="5.6038">
        <ele>1273.4</ele>
        <time>2022-02-19T10:43:19Z</time>
      </trkpt>
      <trkpt lat="45.10647" lon="5.6038">
        <ele>1272.44</ele>
        <time>2022-02-19T10:43:20Z</time>
      </trkpt>
      <trkpt lat="45.10656" lon="5.6038">
        <ele>1269.08</ele>
        <time>2022-02-19T10:43:22Z</time>
      </trkpt>
      <trkpt lat="45.10659" lon="5.6038">
        <ele>1270.04</ele>
        <time>2022-02-19T10:43:23Z</time>
      </trkpt>
      <trkpt lat="45.10662" lon="5.60379">
        <ele>1266.67</ele>
        <time>2022-02-19T10:43:24Z</time>
      </trkpt>
      <trkpt lat="45.10666" lon="5.60378">
        <ele>1268.12</ele>
        <time>2022-02-19T10:43:25Z</time>
      </trkpt>
      <trkpt lat="45.10669" lon="5.60376">
        <ele>1266.67</ele>
        <time>2022-02-19T10:43:26Z</time>
      </trkpt>
      <trkpt lat="45.10676" lon="5.60377">
        <ele>1267.16</ele>
        <time>2022-02-19T10:43:37Z</time>
      </trkpt>
      <trkpt lat="45.10674" lon="5.60375">
        <ele>1269.08</ele>
        <time>2022-02-19T10:43:58Z</time>
      </trkpt>
      <trkpt lat="45.10678" lon="5.60382">
        <ele>1267.16</ele>
        <time>2022-02-19T10:44:11Z</time>
      </trkpt>
      <trkpt lat="45.10689" lon="5.60378">
        <ele>1265.71</ele>
        <time>2022-02-19T10:44:28Z</time>
      </trkpt>
      <trkpt lat="45.10691" lon="5.60381">
        <ele>1265.71</ele>
        <time>2022-02-19T10:44:34Z</time>
      </trkpt>
      <trkpt lat="45.10694" lon="5.60385">
        <ele>1265.71</ele>
        <time>2022-02-19T10:44:50Z</time>
      </trkpt>
      <trkpt lat="45.10696" lon="5.60388">
        <ele>1265.71</ele>
        <time>2022-02-19T10:45:06Z</time>
      </trkpt>
      <trkpt lat="45.10696" lon="5.60385">
        <ele>1266.19</ele>
        <time>2022-02-19T10:45:20Z</time>
      </trkpt>
      <trkpt lat="45.10696" lon="5.60382">
        <ele>1266.19</ele>
        <time>2022-02-19T10:45:46Z</time>
      </trkpt>
      <trkpt lat="45.1069" lon="5.60385">
        <ele>1266.19</ele>
        <time>2022-02-19T10:46:16Z</time>
      </trkpt>
      <trkpt lat="45.10695" lon="5.60383">
        <ele>1267.64</ele>
        <time>2022-02-19T10:46:29Z</time>
      </trkpt>
    </trkseg>
  </trk>
</gpx>